METAR (Histórico 2002)

Volver a ACOMZ

METAR SVCS 271300Z 00000KT 9999 BKN050 XX/XX Q1019



METAR SVCS 271200Z 00000KT 8000 -HZ BKN040 XX/XX Q1019



METAR SVCS 271100Z 00000KT 8000 -HZ BKN040 XX/XX Q1019



METAR SVCS 261400Z 00000KT 9999 SCT050 XX/XX Q1019



METAR SVCS 251900Z 00000KT 9999 SCT050 XX/XX Q1013



METAR SVCS 251800Z 00000KT 9999 SCT050 XX/XX Q1015



METAR SVCS 251700Z 00000KT 9999 SCT040 XX/XX Q1017



METAR SVCS 251600Z 00000KT 9999 SCT040 XX/XX Q1018



METAR SVCS 231500Z 00000KT 9999 BKN040 XX/XX Q1018



METAR SVCS 211900Z 00000KT 4000 +HZ OVC020 XX/XX Q1013







METAR SVCS 211300Z 00000KT 9999 BKN040 XX/XX Q1019



METAR SVCS 211200Z 00000KT 9999 BKN040 XX/XX Q1019



METAR SVCS 211100Z 00000KT 9999 BKN040 XX/XX Q1019



METAR SVCS 211100Z 00000KT 9999 BKN040 XX/XX Q1919







METAR SVCS 182000Z 00000KT 9999 FEW020 XX/XX Q1012



METAR SVCS 181900Z 00000KT 9999 FEW020 XX/XX Q1013



METAR SVCS 181800Z 00000KT 9999 FEW020 XX/XX Q1015



METAR SVCS 181800Z 00000KT 9999 FEW020 XX/XX Q1017



METAR SVCS 181700Z 00000KT 9999 FEW020 XX/XX Q1017



METAR SVCS 181600Z 00000KT 9999 FEW020 XX/XX Q1017







METAR SVCS 171500Z 00000KT 9999 OVC030 XX/XX Q1018



METAR SVCS 171400Z 00000KT 8000 -HZ OVC020 XX/XX Q1018



METAR SVCS 171300Z 00000KT 5000 +HZ OVC020 XX/XX Q1018



METAR SVCS 171200Z 00000KT 5000 +HZ OVC020 XX/XX Q1018







METAR SVCS 071300Z 00000KT 9999 BKN050 XX/XX Q1019



METAR SVCS 071200Z 00000KT 9999 BKN040 XX/XX Q1019



METAR SVCS 071100Z 00000KT 9999 BKN040 XX/XX Q1019



METAR SVCS 051700Z 00000KT 9999 SCT070 XX/XX Q1016



METAR SVCS 051600Z 00000KT 9999 SCT070 XX/XX Q1017



METAR SVCS 051500Z 00000KT 9999 SCT040 XX/XX Q1018



METAR SVCS 051400Z 00000KT 9999 FEW020 XX/XX Q1019



METAR SVCS 051300Z 00000KT 9999 FEW020 XX/XX Q1019



METAR SVCS 051200Z 00000KT 9999 FEW020 XX/XX Q1019



METAR SVCS 051100Z 00000KT 9999 FEW020 XX/XX Q1019



METAR SVCS 031400Z 00000KT 9999 SCT050 XX/XX Q1019



METAR SVCS 021100Z 00000KT 9999 BKN040 XX/XX Q1019



METAR SVCS 301900Z 00000KT 9999 FEW020 XX/XX Q1014



METAR SVCS 301800Z 00000KT 9999 FEW030 XX/XX Q1015



METAR SVCS 301700Z 00000KT 9999 SCT070 XX/XX Q1016



METAR SVCS 301600Z 00000KT 9999 SCT050 XX/XX Q1017



METAR SVCS 301500Z 00000KT 9999 BKN050 XX/XX Q1017



METAR SVCS 301400Z 00000KT 8000 -HZ OVC040 XX/XX Q1018



METAR SVCS 291500Z 00000KT 8000 -HZ BKN050 XX/XX Q1017



METAR SVCS 291400Z 00000KT 7000 +HZ BKN040 XX/XX Q1018



METAR SVCS 291300Z 00000KT 5000 +HZ OVC030 XX/XX Q1018



METAR SVCS 291200Z 00000KT 1000 MIFG OVC010 XX/XX Q1018



METAR SVCS 291100Z 00000KT 1000 MIFG OVC010 XX/XX Q1018



METAR SVCS 281500Z 00000KT 9999 BKN050 XX/XX Q1016



METAR SVCS 271800Z 00000KT 9999 SCT070 XX/XX Q1015



METAR SVCS 271700Z 00000KT 9999 SCT070 XX/XX Q1017



METAR SVCS 271600Z 00000KT 9999 SCT070 XX/XX Q1017







METAR SVCS 201900Z 00000KT 9999 BKN050 XX/XX Q1015







METAR SVCS 181500Z 00000KT 9999 SCT070 XX/XX Q1018



METAR SVCS 171800Z 00000KT 9999 SCT070 XX/XX Q1016







METAR SVCS 161700Z 00000KT 999 SCT050 XX/XX Q1017



METAR SVCS 151600Z 00000KT 9999 BKN050 XX/XX Q1017



METAR SVCS 151500Z 00000KT 9999 BKN050 XX/XX Q1018



METAR SVCS 151400Z 00000KT 9999 BKN040 XX/XX Q1019



METAR SVCS 151300Z 00000KT 9999 BKN040 XX/XX Q1019



METAR SVCS 141600Z 00000KT 9999 SCT050 XX/XX Q1017



METAR SVCS 131200Z 00000KT 9999 OVC030 XX/XX Q1019



METAR SVCS 101800Z 00000KT 9999 SCT070 XX/XX Q1015



METAR SVCS 092000Z 00000KT 9999 SCT050 XX/XX Q1013



METAR SVCS 091900Z 00000KT 9999 SCT050 XX/XX Q1014



METAR SVCS 082000Z 00000 9999 OVC040 XX/XX Q1014



METAR SVCS 071500Z 00000KT 3000 +HZ OVC020 XX/XX Q1017 REDZ



METAR SVCS 071400Z 00000KT 4000 +HZ OVC020 XX/XX Q1017



METAR SVCS 061800Z 00000KT 1000 MIFG OVC010 XX/XX Q1016 REDZ



METAR SVCS 061700Z 00000KT 1000 MIFG OVC010 XX/XX Q1016







METAR SVCS 031800Z 00000KT 9999 SCT070 XX/XX Q1016



METAR SVCS 031700Z 00000KT 9999 BKN050 XX/XX Q1017



METAR SVCS 031600Z 00000KT 9999 BKN040 XX/XX Q1018



METAR SVCS 031500Z 00000KT 9999 BKN040 XX/XX Q1019



METAR SVCS 031400Z 00000KT 8000 -HZ OVC030 XX/XX Q1019



METAR SVCS 031200Z 00000KT 3000 +HZ OVC020 XX/XX Q1020



METAR SVCS 031100Z 00000KT 3000 +HZ OVC020 XX/XX Q1020



METAR SVCS 021700Z 00000KT 9999 SCT070 XX/XX Q1017



METAR SVCS 021600Z 00000KT 9999 SCT050 XX/XX Q1017



METAR SVCS 011500Z 00000KT 8000 -HZ OVC030 XX/XX Q1018



METAR SVCS 011400Z 00000KT 1000 MIFG OVC020 XX/XX Q1018



METAR SVCS 011300Z 00000KT 8000 -HZ BKN040 XX/XX Q1019



METAR SVCS 011200Z 00000KT 5000 +HZ OVC020 XX/XX Q1019 REDZ



METAR SVCS 011100Z 00000KT 5000 +HZ OVC020 XX/XX Q1019



METAR SVCS 281700Z 00000KT 5000 +HZ OVC020 XX/XX Q1017



METAR SVCS 241400Z 00000KT 9999 SCT070 XX/XX Q1019







METAR SVCS 231700Z 00000KT 9999 FEW020 XX/XX Q1015



METAR SVCS 221300Z 00000KT 8000 -HZ BKN040 XX/XX Q1016



METAR SVCS 221200Z 00000KT 8000 -HZ BKN030 XX/XX Q1016



METAR SVCS 201600Z 0000KT 9999 BKN040 XX/XX Q1017



METAR SVCS 161400Z 00000KT 9999 SCT050 XX/XX Q1019



METAR SVCS 151600Z 00000KT 9999 FEW030 XX/XX 1020







METAR SVCS 131900Z 00000KT 9999 SCT070 XX/XX Q1015



METAR SVCS 131800Z 00000KT 9999 SCT070 XX/XX Q1015



METAR SVCS 131800Z 00000KT 9999 SCT070 XX/XX Q1016



METAR SVCS 131700Z 00000KT 9999 SCT070 XX/XX Q1016



METAR SVCS 131600Z 00000KT 9999 SCT070 XX/XX Q1016











METAR SVCS 091200Z 00000KT 7000 +HZ OVC020 XX/XX Q1018



METAR SVCS 091100Z 00000KT 4000 +HZ OVC020 XX/XX Q1018 RERA







METAR SVCS 311800Z 00000KT 9999 SCT070 XX/XX Q1015



METAR SVCS 311700Z 00000KT 9999 SCT050 XX/XX Q1016



METAR SVCS 311600Z 00000KT 9999 BKN050 XX/XX Q1017



METAR SVCS 31500Z 00000KT 9999 BKN050 XX/XX Q1018



METAR SVCS 31500Z 00000KT 9999 BKN040 XX/XX Q1018



METAR SVCS 31400Z 00000KT 9999 BKN040 XX/XX Q1018



METAR SVCS 311300Z 00000KT 9999 BKN040 XX/XX Q1018







METAR SVCS 301300Z 00000KT 7000 +HZ OVC030 XX/XX Q1018



METAR SVCS 271700Z 00000K7 9999 FEW020 XX/XX Q1016



METAR SVCS 271600Z 00000K7 9999 FEW020 XX/XX Q1016



METAR SVCS 261100Z 00000KT 9999 FEW020 XX/XX Q1020



METAR SVCS 251700Z 00000KT 9999 SCT070 XX/XX Q1016



METAR SVCS 251600Z 00000KT 9999 SCT070 XX/XX Q1017



METAR SVCS 251500Z 00000KT 9999 SCT050 XX/XX Q1019



METAR SVCS 251400Z 00000KT 9999 SCT050 XX/XX Q1019



METAR SVCS 241200Z 00000KT 9999 SCT040 XX/XX Q1018



METAR SVCS 241100Z 00000KT 4000 +HZ BKN020 XX/XX Q1018



METAR SVCS 231800Z 00000KT 9999 FEW020 XX/XX Q1015



METAR SVCS 231700Z 00000KT 9999 FEW020 XX/XX Q1015



METAR SVCS 231600Z 00000KT 9999 FEW020 XX/XX Q1017



METAR SVCS 231500Z 00000KT 9999 FEW020 XX/XX Q1018



METAR SVCS 231400Z 00000KT 9999 FEW020 XX/XX Q1018



METAR SVCS 191300Z 00000KT 9999 BKN040 XX/XX Q1018



METAR SVCS 191200Z 00000KT 9999 BKN040 XX/XX Q1018



METAR SVCS 181600Z 00000KT 9999 SCT050 XX/XX Q1017



METAR SVCS 181500Z 00000KT 9999 SCT050 XX/XX Q1017







METAR SVCS 161500Z 00000KT 9999 SCT050 XX/XX Q1016



METAR SVCS 161400Z 00000KT 9999 SCT050 XX/XX Q1016



METAR SVCS 161300Z 00000KT 9999 FEW020 SCT050 XX/XX Q1017



METAR SVCS 161200Z 00000KT 9999 BKN040 XX/XX Q1017



METAR SVCS 161100Z 00000KT 9999 BKN040 XX/XX Q1017



METAR SVCS 121400Z 00000KT 9999 BKN040 XX/XX Q1018



METAR SVCS 121300Z 00000KT 9999 BKN040 XX/XX Q1018



METAR SVCS 111100Z 00000KT 9999 FEW020 XX/XX Q1019



METAR SVCS 111100Z 00000KT 9999 FEW020 XX/XX Q1019



METAR SVCS 101600Z 00000KT 9999 BKN030 XX/XX Q1017



METAR SVCS 101500Z 00000KT 9999 BKN040 XX/XX Q1017



METAR SVCS 101400Z 00000KT 9999 BKN040 XX/XX Q1018



METAR SVCS 101300Z 00000KT 9999 BKN040 XX/XX Q1018



METAR SVCS 101200Z 00000KT 9999 BKN040 XX/XX Q1018



METAR SVCS 101100Z 00000KT 9999 BKN040 XX/XX Q1018



METAR SVCS 091100Z 00000KT 9999 FEW020 XX/XX Q1019







METAR SVCS 061500Z 00000KT 7000 -HZ BKN020 XX/XX Q1017



METAR SVCS 061400Z 00000KT 7000 -HZ BKN020 XX/XX Q1018



METAR SVCS 051400Z 00000KT 9999 BKN040 XX/XX Q1017







METAR SVCS 041800Z 00000KT 9999 SCT050 XX/XX Q1015



METAR SVCS 031500Z 00000KT 9999 SCT050 XX/XX Q1018



METAR SVCS 031400Z 00000KT 9999 SCT050 XX/XX Q1018







METAR SVCS 271800Z 00000KT 9999 BKN030 XX/XX Q1014



METAR SVCS 231700Z 00000KT 9999 FEW020 XX/XX Q1016







METAR SVCS 201100Z 00000KT 9999 BKN040 XX/XX Q1018 REDZ



METAR SVCS 181100Z 00000KT 9999 BKN030 XX/XX Q1018 REDZ



METAR SVCS 141500Z 00000KT 9999 FEW020 XX/XX Q1017



METAR SVCS 141500Z 00000KT 9999 FEW020 XX/XX Q1017



METAR SVCS 141400Z 00000KT 9999 FEW020 XX/XX Q1017



METAR SVCS 141400Z 00000KT 9999 FEW020 XX/XX Q1017



METAR SVCS 141300Z 00000KT 9999 FEW020 XX/XX Q1017



METAR SVCS 132000Z 00000KT 9999 FEW020 XX/XX Q1013



METAR SVCS 131900Z 00000KT 9999 FEW020 XX/XX Q1013







METAR SVCS 121700Z 00000KT FEW030 XX/XX Q1014



METAR SVCS 121600Z 00000KT FEW020 XX/XX Q1015



METAR SVCS 121500Z 00000KT FEW020 XX/XX Q1016



METAR SVCS 121400Z 00000KT FEW020 XX/XX Q1016



METAR SVCS 091900Z 00000KT 9999 SCT070 XX/XX Q1013



METAR SVCS 071600Z 00000KT 9999 BKN050 XX/XX Q1018



METAR SVCS 052100Z 00000KT 9999 FEW020 XX/XX Q1012



METAR SVCS 011900Z 00000KT 8000 -HZ BKN040 XX/XX Q1012



METAR SVCS 011800Z 00000KT 7000 -HZ BKN030 XX/XX Q1012



METAR SVCS 011800Z 00000KT 7000 -HZ BKN030 XX/XX Q1012











METAR SVCS 291600Z 00000KT 8000 -HZ OVC030 XX/XX Q1015 REDZ



METAR SVCS 291600Z 00000KT 8000 -HZ OVC030 XX/XX Q1015



METAR SVCS 281400Z 00000KT 9999 SCT070 XX/XX Q1014



METAR SVCS 281300Z 00000KT 9999 SCT050 XX/XX Q1014



METAR SVCS 281200Z 00000KT 9999 BKN040 XX/XX Q1014



METAR SVCS 281100Z 00000KT 9999 BKN040 XX/XX Q1014







METAR SVCS 231600Z 00000KT 9999 SCT050 XX/XX Q1015



METAR SVCS 231500Z 00000KT 9999 SCT050 XX/XX Q1015



METAR SVCS 221900Z 00000KT 9999 SCT050 XX/XX Q1014



METAR SVCS 181300Z 00000KT 9999 OVC040 XX/XX Q1018



METAR SVCS 181200Z 00000KT 9999 BKN040 XX/XX Q1018



METAR SVCS 181100Z 00000KT 9999 BKN040 XX/XX Q1018











METAR SVCS 091200Z 00000KT 9999 FEW020 XX/XX Q1019



METAR SVCS 091100Z 00000KT 9999 FEW020 XX/XX Q1019







METAR SVCS 071600Z 00000KT 9999 SCT050 XX/XX Q1018



METAR SVCS 071500Z 00000KT 9999 FEW030 XX/XX Q1018



METAR SVCS 071400Z 00000KT 9999 FEW020 XX/XX Q1019



METAR SVCS 071300Z 00000KT 9999 FEW020 XX/XX Q1019



METAR SVCS 071200Z 00000KT 9999 FEW020 XX/XX Q1019



METAR SVCS 071100Z 00000KT 9999 FEW020 XX/XX Q1019







METAR SVCS 011600Z /////KT 9999 SCT050 XX/XX Q1017



METAR SVCS 011500Z /////KT 9999 FEW020 XX/XX Q1018



METAR SVCS 011500Z /////KT 9999 FEW020 XX/XX Q1018







METAR SVCS 311300Z /////KT 9999 SKC XX/XX Q1019



METAR SVCS 311200Z /////KT 9999 SKC XX/XX Q1019



METAR SVCS 311100Z /////KT 9999 SKC XX/XX Q1019



METAR SVCS 281300Z /////KT 9999 FEW020 XX/XX Q1018



METAR SVCS 281200Z /////KT 9999 FEW020 XX/XX Q1018



METAR SVCS 281100Z /////KT 9999 FEW020 XX/XX Q1018



METAR SVCS 261500Z /////KT 9999 SCT050 XX/XX Q1018



METAR SVCS 261400Z /////KT 9999 SCT050 XX/XX Q1018



METAR SVCS 261300Z /////KT 9999 SCT050 XX/XX Q1018











METAR SVCS 211300Z /////KT 9999 SCT050 XX/XX Q1018



METAR SVCS 201500Z /////KT 9999 FEW030 XX/XX Q1017



METAR SVCS 191300Z 00000KT 9999 OVC040 XX/XX Q1016



METAR SVCS 191200Z 00000KT 8000 -HZ OVC030 XX/XX Q1016



METAR SVCS 191100Z 00000KT 5000 +HZ 0VC020 XX/XX Q1016



METAR SVCS 181400Z /////KT 9999 SCT070 XX/XX Q1018



METAR SVCS 181300Z /////KT 8000 -HZ SCT030 XX/XX Q1019



METAR SVCS 181200Z /////KT 7000 -HZ FEW020 XX/XX Q1019



METAR SVCS 181100Z /////KT 7000 -HZ FEW020 XX/XX Q1019



METAR SVCS 181100Z /////KT 7000 -HZ FEW020 XX/XX Q1019



METAR SVCS 171400Z /////KT 9999 SCT050 XX/XX Q1019



METAR SVCS 171300Z /////KT 9999 SCT050 XX/XX Q1019



METAR SVCS 171200Z /////KT 8000 -HZ FEW020 XX/XX Q1019



METAR SVCS 171100Z /////KT 7000 +HZ FEW020 XX/XX Q1019



METAR SVCS 141400Z /////KT 1000 MIFG OVC010 XX/XX Q1019 REDZ



METAR SVCS 141400Z /////KT 1000 MIFG OVC010 XX/XX Q1019 REDZ



METAR SVCS 141300Z /////KT 1000 MIFG OVC010 XX/XX Q1019



METAR SVCS 141200Z /////KT 1000 MIFG OVC010 XX/XX Q1019



METAR SVCS 141100Z /////KT 1000 MIFG OVC010 XX/XX Q1019 REDZ



METAR SVCS 131500Z /////KT 9999 BKN040 XX/XX Q1017



METAR SVCS 131400Z /////KT 8000 -HZ OVC040 XX/XX Q1017



METAR SVCS 131300Z /////KT 3000 +HZ OVC030 XX/XX Q1017



METAR SVCS 131200Z /////KT 1000 MIFG OVC010 XX/XX Q1017



METAR SVCS 131100Z /////KT 1000 MIFG OVC010 XX/XX Q1017



METAR SVCS 121500Z 00000KT 9999 FEW030 XX/XX Q1017







METAR SVCS 071400Z /////KT 9999 FEW020 XX/XX Q1016



METAR SVCS 061400Z /////KT 9999 FEW020 SCT050 XX/XX Q1016



METAR SVCS 061300Z /////KT 9999 SCT050 XX/XX Q1016



METAR SVCS 061200Z /////KT 9999 SCT050 XX/XX Q1016



METAR SVCS 061100Z /////KT 9999 SCT050 XX/XX Q1016







METAR SVCS 031800Z 00000KT 7000 -DZ OVC020 XX/X Q1014



METAR SVCS 031700Z 00000KT 5000 +DZ OVC020 XX/X Q1015



METAR SVCS 031600Z 00000KT 8000 -DZ OVC030 XX/X Q1016



METAR SVCS 031500Z 00000KT 8000 -DZ OVC030 XX/X Q1017



METAR SVCS 031400Z 00000KT 8000 -HZ OVC040 XX/X Q1017



METAR SVCS 031300Z 00000KT 8000 -HZ OVC040 XX/X Q1017



METAR SVCS 301500Z 00000KT 9999 SCT050 XX/XX Q1018



METAR SVCS 301400Z 00000KT 9999 SCT050 XX/XX Q1018



METAR SVCS 291400Z 00000KT 9999 SCT050 XX/XX Q1016



METAR SVCS 291300Z 00000KT 9999 FEW020 XX/XX Q1016



METAR SVCS 291200Z 00000KT 9999 FEW020 XX/XX Q1016



METAR SVCS 291100Z 00000KT 9999 FEW020 XX/XX Q1016



METAR SVCS 281400Z 00000KT 9999 BKN050 XX/XX Q1019



METAR SVCS 281300Z 00000KT 9999 BKN050 XX/XX Q1019



METAR SVCS 281200Z 00000KT 7000 -HZ BKN040 XX/XX Q1019



METAR SVCS 271300Z 00000KT 9999 SCT050 XX/XX Q1019



METAR SVCS 271200Z 00000KT 7000 -HZ BKN040 XX/XX Q1019



METAR SVCS 271200Z 00000KT 7000 -HZ BKN040 XX/XX Q1019



METAR SVCS 271100Z 00000KT 7000 -HZ BKN040 XX/XX Q1019











METAR SVCS 211500Z 00000KT 9999 BKN050 XX/XX Q1018



METAR SVCS 201400Z 00000KT 9999 SCT070 XX/XX Q1019



METAR SVCS 191600Z 00000KT 9999 BKN050 XX/XX Q1018



METAR SVCS 161600Z 00000KT 9999 BKN050 XX/XX Q1017







METAR SVCS 141900Z 00000KT 9999 BKN050 XX/XX Q1015



METAR SVCS 141900Z 00000KT 9999 BKN050 XX/XX Q1015



METAR SVCS 141800Z 00000KT 9999 BKN050 XX/XX Q1016



METAR SVCS 141700Z 00000KT 9999 BKN040 XX/XX Q1017



METAR SVCS 131400Z 00000KT 9999 SCT070 XX/XX Q1019



METAR SVCS 131300Z 00000KT 9999 SCT070 XX/XX Q1019



METAR SVCS 131200Z 00000KT 9999 SCT050 XX/XX Q1019



METAR SVCS 131100Z 00000KT 9999 SCT050 XX/XX Q1019



METAR SVCS 121600Z 00000KT 9999 SCT070 XX/XX Q1017



METAR SVCS 121500Z 00000KT 9999 SCT070 XX/XX Q1018



METAR SVCS 121400Z 00000KT 9999 SCT050 XX/XX Q1019



METAR SVCS 121300Z 00000KT 9999 SCT050 XX/XX Q1019



METAR SVCS 121200Z 00000KT 9999 FEW020 XX/XX Q1019



METAR SVCS 121100Z 00000KT 9999 FEW020 XX/XX Q1019



METAR SVCS 091500Z 00000KT 9999 BKN050 XX/XX Q1018



METAR SVCS 081600Z 00000KT 3000 +RA OVC020 XX/XX Q1017



METAR SVCS 081500Z 00000KT 9999 BKN050 XX/XX Q1019



METAR SVCS 081400Z 00000KT 9999 BKN050 XX/XX Q1019



METAR SVCS 081300Z 00000KT 9999 BKN040 XX/XX Q1019



METAR SVCS 081200Z 00000KT 5000 +HZ OVC020 XX/XX Q1019



METAR SVCS 081200Z 00000KT 5000 +HZ OVC020 XX/XX Q1019



METAR SVCS 081100Z 00000KT 2000 +HZ OVC010 XX/XX Q1019











METAR SVCS 061600Z 00000KT 9999 FEW020 XX/XX Q1018



METAR SVCS 061500Z 00000KT 9999 FEW020 XX/XX Q1019



METAR SVCS 061400Z 00000KT 9999 FEW020 XX/XX Q1020



METAR SVCS 061300Z 00000KT 9999 FEW020 XX/XX Q1020



METAR SVCS 061200Z 00000KT 9999 FEW020 XX/XX Q1020



METAR SVCS 061100Z 00000KT 9999 FEW020 XX/XX Q1020



METAR SVCS 051700Z 00000KT 9999 BKN050 XX/XX Q1016



METAR SVCS 051700Z 00000KT 9999 BKN050 XX/XX Q1016



METAR SVCS 051600Z 00000KT 9999 SCT070 XX/XX Q1017



METAR SVCS 051500Z 00000KT 9999 SCT050 XX/XX Q1018



METAR SVCS 051400Z 00000KT 9999 SCT050 XX/XX Q1019



METAR SVCS 051300Z 00000KT 9999 FEW020 XX/XX Q1019



METAR SVCS 05120Z 00000KT 9999 FEW020 XX/XX Q1020



METAR SVCS 05110Z 00000KT 9999 FEW020 XX/XX Q1020



METAR SVCS 021900Z 00000KT 9999 SCT070 XX/XX Q1014



METAR SVCS 021800Z 00000KT 9999 SCT070 XX/XX Q1015



METAR SVCS 021700Z 00000KT 9999 BKN050 XX/XX Q1016







METAR SVCS 301700Z 00000KT 9999 SCT070 XX/XX Q1017



METAR SVCS 291300Z 00000KT 9999 SCT050 XX/XX Q1019



METAR SVCS 291200Z 00000KT 9999 SCT050 XX/XX Q1019



METAR SVCS 261400Z 00000KT 2000 MIFG OVC020 XX/XX Q1018



METAR SVCS 261300Z 00000KT 2000 MIFG OVC020 XX/XX Q1018



METAR SVCS 251600Z 00000KT 9999 SCT070 XX/XX Q1017



METAR SVCS 251500Z 00000KT 9999 SCT070 XX/XX Q1017



METAR SVCS 241700Z 00000KT 9999 SCT070 XX/XX Q1016



METAR SVCS 241600Z 00000KT 9999 SCT070 XX/XX Q1017



METAR SVCS 241500Z 00000KT 9999 SCT050 XX/XX Q1019



METAR SVCS 241400Z 00000KT 9999 SCT050 XX/XX Q1019



METAR SVCS 231100Z 00000KT 1000 MIFG OVC010 XX/XX Q1019



METAR SVCS 221500Z 00000KT 9999 SCT070 XX/XX Q1019



METAR SVCS 221400Z 00000KT 9999 SCT050 XX/XX Q1019



METAR SVCS 221300Z 00000KT 9999 SCT050 XX/XX Q1019



METAR SVCS 211400Z 00000KT 9999 SCT070 XX/XX Q1019




METAR SVCS 211200Z 00000KT 9999 SCT070 XX/XX Q1019








METAR SVCS 181200Z 00000KT 9999 BKN050 XX/XX Q1019



METAR SVCS 171600Z 00000KT 9999 FEW030 XX/XX Q1017



METAR SVCS 171500Z 00000KT 9999 FEW030 XX/XX Q1018



METAR SVCS 171400Z 00000KT 9999 FEW030 XX/XX Q1019



METAR SVCS 161400Z 00000KT 9999 SCT050 XX/XX Q1019



METAR SVCS 161300Z 00000KT 9999 FEW030 XX/XX Q1019



METAR SVCS 161200Z 00000KT 9999 FEW030 XX/XX Q1019



METAR SVCS 161100Z 00000KT 9999 FEW030 XX/XX Q1019



METAR SVCS 151200Z 00000KT 9999 FEW020 XX/XX Q1018



METAR SVCS 151100Z 00000KT 9999 FEW020 XX/XX Q1018







METAR SVCS 121600Z 00000KT 8000 -HZ OVC040 XX/XX Q1015



METAR SVCS 111900Z 00000KT 9999 SCT050 XX/XX Q1013



METAR SVCS 111800Z 00000KT 9999 SCT050 XX/XX Q1015



METAR SVCS 101600Z 00000KT 9999 BKN050 XX/XX Q1017



METAR SVCS 091500Z 00000KT 9999 SCT050 XX/XX Q1019



METAR SVCS 091400Z 00000KT 9999 SCT050 XX/XX Q1020



METAR SVCS 091300Z 00000KT 9999 SCT050 XX/XX Q1020



METAR SVCS 091200Z 00000KT 9999 FEW030 XX/XX Q1020



METAR SVCS 091100Z 00000KT 9999 FEW030 XX/XX Q1020



METAR SVCS 081400Z 00000KT 9999 BKN050 XX/XX Q1019



METAR SVCS 081300Z 00000KT 9999 BKN050 XX/XX Q1019



METAR SVCS 081200Z 00000KT 7000 +HZ BKN030 XX/XX Q1019



METAR SVCS 081100Z 00000KT 7000 +HZ BKN030 XX/XX Q1019



METAR SVCS 061800Z 00000KT 9999 SCT070 XX/XX Q1015



METAR SVCS 061700Z 00000KT 9999 SCT070 XX/XX Q1017



METAR SVCS 061600Z 00000KT 9999 SCT070 XX/XX Q1018



METAR SVCS 061500Z 00000KT 9999 SCT070 XX/XX



METAR SVCS 061400Z 00000KT 9999 SCT050 XX/XX



METAR SVCS 061300Z 00000KT 9999 SCT050 XX/XX







METAR SVCS 021500Z 00000KT 9999 SCT070 XX/XX Q1019



METAR SVCS 021400Z 00000KT 9999 BKN050 XX/XX Q1019



METAR SVCS 021300Z 00000KT 9999 BKN040 XX/XX Q1019



METAR SVCS 021200Z 00000KT 8000 -HZ BKN020 XX/XX Q1019



METAR SVCS 021100Z 00000KT 8000 -HZ BKN020 XX/XX Q1019







METAR SVCS 271800Z 00000KT 9999 BKN050 XX/XX Q1015



METAR SVCS 271700Z 00000KT 9999 BKN050 XX/XX Q1017



METAR SVCS 271600Z 00000KT 9999 BKN050 XX/XX Q1017







METAR SVCS 211500Z 00000KT 9999 SCT050 XX/XX Q1020



METAR SVCS 211400Z 00000KT 9999 SCT050 XX/XX Q1020



METAR SVCS 211300Z 00000KT 9999 BKN040 XX/XX Q1020



METAR SVCS 211200Z 00000KT 9999 BKN030 XX/XX Q1020



METAR SVCS 211100Z 00000KT 9999 BKN030 XX/XX Q1020



METAR SVCS 191300Z 00000KT 9999 FEW020 XX/XX Q1018



METAR SVCS 191200Z 00000KT 9999 FEW020 XX/XX Q1018



METAR SVCS 191100Z 00000KT 9999 FEW020 XX/XX Q1018







METAR SVCS 121900Z 00000KT 9999 SCT070 XX/XX Q1015



METAR SVCS 121800Z 00000KT 9999 SCT050 XX/XX Q1016



METAR SVCS 071600Z 00000KT 9999 BKN050 XX/XX Q1019



METAR SVCS 071500Z 00000KT 9999 BKN050 XX/XX Q1019



METAR SVCS 071400Z 00000KT 8000 -HZ BKN040 XX/XX Q1019



METAR SVCS 071300Z 00000KT 8000 -HZ BKN030 XX/XX Q1020



METAR SVCS 061400Z 00000KT 3000 +HZ OVC010 XX/XX Q1021



METAR SVCS 041700Z 09005KT 9999 SCT050 XX/XX Q1019











METAR SVCS 291400Z 00000KT 9999 BKN030 XX/XX Q1019



METAR SVCS 291300Z 00000KT 8000 -HZ BKN030 XX/XX Q1019



METAR SVCS 281300Z 00000KT 9999 SCT040 XX/XX Q1019



METAR SVCS 281200Z 00000KT 4000 +HZ OVC010 XX/XX Q1019



METAR SVCS 281100Z 00000KT 2000 MIFG OVC010 XX/XX Q1019







METAR SVCS 211400Z 00000KT 9999 BKN050 XX/XX Q1019



METAR SVCS 211300Z 00000KT 9999 BKN050 XX/XX Q1019



METAR SVCS 201100Z 00000KT 8000 -HZ OVC030 XX/XX Q1019



METAR SVCS 161400Z 00000KT 9999 SCT070 XX/XX Q1019







METAR SVCS 091600Z 00000KT 9999 SCT070 XX/XX Q1018



METAR SVCS 091500Z 00000KT 9999 SCT050 XX/XX Q1019



METAR SVCS 081300Z 00000KT 9999 BKN050 XX/XX Q1020



METAR SVCS 081200Z 00000KT 5000 +HZ OVC020 XX/XX Q1020



METAR SVCS 081100Z 00000KT 5000 +HZ OVC020 XX/XX Q1020



METAR SVCS 071800Z 00000KT 9999 BKN050 XX/XX Q1009



METAR SVCS 071700Z 00000KT 9999 BKN050 XX/XX Q1012



METAR SVCS 071600Z 00000KT 9999 BKN050 XX/XX Q1017



METAR SVCS 071500Z 00000KT 9999 BKN050 XX/XX Q1019



METAR SVCS 071400Z 00000KT 9999 BKN050 XX/XX Q1019



METAR SVCS 071300Z 00000KT 9999 BKN050 XX/XX Q1019



METAR SVCS 071200Z 00000KT 8000 -HZ OVC030 XX/XX Q1019



METAR SVCS 071100Z 00000KT 8000 -HZ OVC030 XX/XX Q1019



METAR SVCS 062000Z 00000K7 9999 SCT050 XX/XX Q1013



METAR SVCS 061900Z 00000K7 9999 SCT040 XX/XX Q1014



METAR SVCS 061800Z 00000K7 9999 BKN030 XX/XX Q1015



METAR SVCS 061700Z 00000K7 9999 SCT070 XX/XX Q1017



METAR SVCS 061600Z 00000K7 9999 SCT070 XX/XX Q1017



METAR SVCS 021500Z 00000KT 9999 SCT070 XX/XX Q1019



METAR SVCS 021400Z 00000KT 9999 SCT070 XX/XX Q1019



METAR SVCS 021300Z 00000KT 9999 SCT050 XX/XX Q1019



METAR SVCS 021200Z 00000KT 9999 SCT050 XX/XX Q1019



METAR SVCS 011600Z 00000KT 9999 SCT070 XX/XX Q1018



METAR SVCS 311700Z 00000KT 9999 SCT070 XX/XX Q1017



METAR SVCS 311600Z 00000KT 9999 SCT070 XX/XX Q1017



METAR SVCS 301500Z 00000KT 9999 BKN050 XX/XX Q1018



METAR SVCS 301400Z 00000KT 9999 BKN050 XX/XX Q1019



METAR SVCS 301400Z 00000KT 9999 BKN050 XX/XX Q1019



METAR SVCS 301300Z 00000KT 8000 -HZ OVC040 Q1019



METAR SVCS 301200Z 00000KT 7000 -HZ OVC030 Q1019



METAR SVCS 301100Z 00000KT 7000 -HZ OVC030 Q1019







METAR SVCS 231600Z 00000KT 9999 SCT070 XX/XX Q1017



METAR SVCS 231500Z 00000KT 9999 BKN050 XX/XX Q1018



METAR SVCS 231500Z 00000KT 9999 BKN050 XX/XX Q1018



METAR SVCS 231400Z 00000KT 9999 BKN050 XX/XX Q1018



METAR SVCS 231300Z 00000KT 9999 BKN040 XX/XX Q1018



METAR SVCS 231200Z 00000KT 8000 -HZ OVC030 XX/XX Q1018



METAR SVCS 231100Z 00000KT 8000 -HZ OVC030 XX/XX Q1018



METAR SVCS 161800Z 00000KT 9999 SCT070 XX/XX Q1017



METAR SVCS 161700Z 00000KT 9999 SCT050 XX/XX Q1017



METAR SVCS 161600Z 00000KT 9999 BKN050 XX/XX Q1017



METAR SVCS 161500Z 00000KT 9999 BKN050 XX/XX Q1018



METAR SVCS 161400Z 00000KT 9999 BKN050 XX/XX Q1018



METAR SVCS 161300Z 00000KT 8000 -HZ BKN040 XX/XX Q1018



METAR SVCS 161200Z 00000KT 8000 -HZ BKN030 XX/XX Q1018



METAR SVCS 161100Z 00000KT 7000 -HZ OVC030 XX/XX Q1018



METAR SVCS 131600Z 00000KT 9999 BKN050 XX/XX Q1017



METAR SVCS 111800Z 00000KT 9999 BKN040 XX/XX Q1015



METAR SVCS 111800Z 00000KT 9999 BKN040 XX/XX Q1015



METAR SVCS 101500Z 00000KT 9999 BKN050 XX/XX Q1018



METAR SVCS 091800Z 00000KT 9999 SCT070 XX/XX Q1016



METAR SVCS 091700Z 00000KT 9999 SCT070 XX/XX Q1017



METAR SVCS 041900Z 00000KT 9999 SCT070 XX/XX Q1014



METAR SVCS 041800Z 00000KT 9999 SCT070 XX/XX Q1015



METAR SVCS 041700Z 00000KT 9999 SCT070 XX/XX Q1016



METAR SVCS 041600Z 00000KT 9999 SCT070 XX/XX Q1016



METAR SVCS 041600Z 00000KT 9999 SCT070 XX/XX Q1016



METAR SVCS 021400Z 00000KT 9999 BKN040 XX/XX Q1019



METAR SVCS 021300Z 00000KT 8000 -HZ BKN040 XX/XX Q1019



METAR SVCS 021200Z 00000KT 7000 -HZ OVC030 XX/XX Q1019



METAR SVCS 021100Z 00000KT 7000 -HZ OVC030 XX/XX Q1019



METAR SVCS 291530Z 00000KT 9999 OVC040 XX/XX Q1016



METAR SVCS 291430Z 00000KT 9999 OVC030 XX/XX Q1016 REDZ



METAR SVCS 291330Z 00000KT 5000 +DZ OVC020 XX/XX Q1017



METAR SVCS 291230Z 00000KT 7000 -HZ OVC030 XX/XX Q1017 REDZ



METAR SVCS 291130Z 00000KT 7000 -HZ OVC030 XX/XX Q1017



METAR SVCS 271430Z 00000KT 9999 BKN050 XX/XX Q1018



METAR SVCS 271330Z 00000KT 9999 OVC040 XX/XX Q1018



METAR SVCS 271230Z 00000KT 8000 -HZ OVC030 XX/XX Q1018



METAR SVCS 271130Z 00000KT 8000 -HZ OVC030 XX/XX Q1018



METAR SVCS 261330Z 00000KT 5000 +HZ OVC030 XX/XX Q1017



METAR SVCS 261230Z 00000KT 2000 MIFG OVC020 XX/XX Q1017



METAR SVCS 261130Z 00000KT 2000 MIFG OVC020 XX/XX Q1017







METAR SVCS 221630Z 00000KT 8000 -HZ BKN030 XX/XX Q1016



METAR SVCS 221530Z 00000KT 5000 -HZ OVC030 XX/XX Q1017



METAR SVCS 221430Z 00000KT 2000 MIFG OVC020 XX/XX Q1017



METAR SVCS 221330Z 00000KT 2000 MIFG OVC020 XX/XX Q1017



METAR SVCS 221230Z 00000KT 2000 MIFG OVC020 XX/XX Q1017



METAR SVCS 221130Z 00000KT 2000 MIFG OVC020 XX/XX Q1017



METAR SVCS 221130Z 00000KT 2000 MIFG OVC020 XX/XX Q1017



METAR SVCS 211330Z 00000KT 1000 +DZ OVC010 XX/XX Q1016



METAR SVCS 211230Z 00000KT 1000 MIFG OVC010 XX/XX Q1016



METAR SVCS 211130Z 00000KT 1000 MIFG OVC010 XX/XX Q1016



METAR SVCS 211130Z 00000KT 1000 MIFG OVC010 XX/XX Q1016 REDZ



METAR SVCS 201430Z 00000KT 0500 MIFG OVC010 XX/XX Q1016 REDZ



METAR SVCS 201330Z 00000KT 0500 MIFG OVC010 XX/XX Q1016 RERA



METAR SVCS 201230Z 00000KT 1000 +RA OVC010 XX/XX Q1016



METAR SVCS 201130Z 00000KT 1000 MIFG OVC010 XX/XX Q1016 RERA



METAR SVCS 131130Z 00000KT 7000 -HZ OVC040 XX/XX Q1020



METAR SVCS 111730Z 00000KT 9999 FEW020 XX/XX Q1017



METAR SVCS 111630Z 00000KT 9999 FEW020 XX/XX Q1018



METAR SVCS 111530Z 00000KT 9999 SCT070 XX/XX Q1019



METAR SVCS 111430Z 00000KT 9999 SCT050 XX/XX Q1019



METAR SVCS 111330Z 00000KT 9999 BKN050 XX/XX Q1019



METAR SVCS 081530Z 00000KT 9999 FEW020 XX/XX Q1018



METAR SVCS 081430Z 00000KT 9999 SCT050 XX/XX Q1019



METAR SVCS 081330Z 00000KT 9999 BKN040 XX/XX Q1019



METAR SVCS 081230Z 00000KT 9999 BKN040 XX/XX Q1019



METAR SVCS 081130Z 00000KT 9999 BKN040 XX/XX Q1019



METAR SVCS 071830Z 00000KT 6000`+HZ OVC040 XX/XX Q1015



METAR SVCS 071730Z 00000KT 5000`+HZ OVC020 XX/XX Q1017



METAR SVCS 071630Z 00000KT 5000`+HZ OVC020 XX/XX Q1018



METAR SVCS 071530Z 00000KT 5000`+HZ OVC030 XX/XX Q1019



METAR SVCS 071430Z 00000KT 5000`+HZ OVC030 XX/XX Q1020



METAR SVCS 071330Z 00000KT 5000`+HZ OVC030 XX/XX Q1020



METAR SVCS 071230Z 00000KT 5000`+HZ OVC030 XX/XX Q1020



METAR SVCS 071130Z 00000KT 5000`+HZ OVC030 XX/XX Q1020



METAR SVCS 051730Z 00000KT 9999 SCT050 XX/XX Q1017



METAR SVCS 051630Z 00000KT 9999 BKN050 XX/XX Q1018



METAR SVCS 051530Z 00000KT 7000 -HZ BKN040 XX/XX Q1019



METAR SVCS 051430Z 00000KT 5000 +HZ OVC020 XX/XX Q1020



METAR SVCS 051330Z 00000KT 5000 +HZ OVC020 XX/XX Q1020



METAR SVCS 051230Z 00000KT 5000 +HZ OVC020 XX/XX Q1020



METAR SVCS 051130Z 00000KT 5000 +HZ OVC020 XX/XX Q1020



METAR SVCS 041630Z 00000KT 9999 BKN050 XX/XX Q1018



METAR SVCS 041530Z 00000KT 9999 BKN050 XX/XX Q1020



METAR SVCS 041430Z 00000KT 9999 BKN050 XX/XX Q1020



METAR SVCS 041430Z 00000KT 9999 BKN050 XX/XX Q1020



METAR SVCS 041330Z 00000KT 9999 BKN050 XX/XX Q1020



METAR SVCS 041230Z 00000KT 9999 BKN050 XX/XX Q1020



METAR SVCS 041130Z 00000KT 9999 BKN050 XX/XX Q1020











METAR SVCS 301630Z 00000KT 9999 FEW020 XX/XX Q1017



METAR SVCS 301530Z 00000KT 9999 FEW020 XX/XX Q1018



METAR SVCS 301530Z 00000KT 9999 FEW020 XX/XX Q1015



METAR SVCS 301430Z 00000KT 9999 FEW020 XX/XX Q1019



METAR SVCS 291730Z 00000KT 9999 SCT070 XX/XX Q1017



METAR SVCS 291630Z 00000KT 9999 SCT050 XX/XX Q1018



METAR SVCS 291530Z 00000KT 9999 BKN050 XX/XX Q1019



METAR SVCS 291430Z 00000KT 9999 BKN050 XX/XX Q1019



METAR SVCS 291330Z 00000KT 8000 -HZ OVC040 XX/XX Q1019



METAR SVCS 291230Z 00000KT 7000 -HZ OVC040 XX/XX Q1019



METAR SVCS 291130Z 00000KT 7000 -HZ OVC040 XX/XX Q1019



METAR SVCS 281730Z 00000KT 9999 SCT050 XX/XX Q1017



METAR SVCS 281630Z 00000KT 9999 BKN050 XX/XX Q1018



METAR SVCS 281530Z 00000KT 9999 BKN050 XX/XX Q1019



METAR SVCS 281430Z 00000KT 8000 -HZ BKN050 XX/XX Q1019







METAR SVCS 261330Z 00000KT 9999 SCT070 XX/XX Q1019



METAR SVCS 261230Z 00000KT 9999 SCT050 XX/XX Q1019



METAR SVCS 261130Z 00000KT 9999 SCT050 XX/XX Q1019







METAR SVCS 151130Z 00000KT 9999 OVC040 9000 -HZ XX/XX Q1019



METAR SVCS 141530Z 00000KT 9999 SCT050 XX/XX Q1018



METAR SVCS 141430Z 00000KT 9999 BKN050 XX/XX Q1019



METAR SVCS 141330Z 00000KT 9999 BKN050 XX/XX Q1020



METAR SVCS 141230Z 00000KT 9999 BKN050 XX/XX Q1020



METAR SVCS 141130Z 00000KT 9999 BKN050 XX/XX Q1020



METAR SVCS 101830Z 00000KT 9999 BKN050 XX/XX Q1017



METAR SVCS 101730Z 00000KT 9999 SCT050 XX/XX Q1018



METAR SVCS 101630Z 00000KT 9999 SCT070 XX/XX Q1019



METAR SVCS 101530Z 00000KT 9999 SCT070 XX/XX Q1020



METAR SVCS 101430Z 00000KT 9999 SCT070 XX/XX Q1020



METAR SVCS 101330Z 00000KT 9999 SCT050 XX/XX Q1020



METAR SVCS 101230Z 00000KT 9999 BKN050 XX/XX Q1020



METAR SVCS 101130Z 00000KT 9999 BKN050 XX/XX Q1020



METAR SVCS 091630Z 00000KT 9999 SCT070 XX/XX Q1018



METAR SVCS 091530Z 00000KT 9999 SCT070 XX/XX Q1019



METAR SVCS 091430Z 00000KT 9999 SCT070 XX/XX Q1019



METAR SVCS 081730Z 00000KT 9999 SCT070 XX/XX Q1017



METAR SVCS 081630Z 00000KT 9999 SCT070 XX/XX Q1018



METAR SVCS 081530Z 00000KT 9999 SCT070 XX/XX Q1018



METAR SVCS 081430Z 00000KT 9999 SCT070 XX/XX Q1019



METAR SVCS 081330Z 00000KT 9999 SCT050 XX/XX Q1019



METAR SVCS 081230Z 00000KT 9999 SCT050 XX/XX Q1019



METAR SVCS 081130Z 00000KT 9999 SCT050 XX/XX Q1019







METAR SVCS 041630Z 00000KT 9999 SCT050 XX/XX Q1017



METAR SVCS 041530Z 00000KT 9999 SCT050 XX/XX Q1018



METAR SVCS 041430Z 00000KT 9999 BKN050 XX/XX Q1019



METAR SVCS 041330Z 00000KT 9999 BKN050 XX/XX Q1019



METAR SVCS 021630Z 00000KT 9999 BKN050 XX/XX Q1017



METAR SVCS 021530Z 00000KT 9999 BKN050 XX/XX Q1018



METAR SVCS 021430Z 00000KT 9999 BKN050 XX/XX Q1019



METAR SVCS 021330Z 00000KT 9999 BKN050 XX/XX Q1019



METAR SVCS 021330Z 00000KT 9999 BKN050 XX/XX Q1019



METAR SVCS 021230Z 00000KT 8000 -HZ BKN030 XX/XX Q1019



METAR SVCS 021230Z 00000KT 8000 -HZ BKN030 XX/XX Q1019



METAR SVCS 021130Z 00000KT 8000 -HZ BKN030 XX/XX Q1019



METAR SVCS 291330Z 00000KT 7000 -HZ OVC030 XX/XX Q1019



METAR SVCS 291230Z 00000KT 7000 -HZ OVC030 XX/XX Q1019



METAR SVCS 291130Z 00000KT 7000 -HZ OVC030 XX/XX Q1019







METAR SVCS 261230Z 00000KT 8000 -HZ OVC040 XX/XX Q1019



METAR SVCS 261130Z 00000KT 8000 -HZ OVC030 XX/XX Q1019



METAR SVCS 251330Z 00000KT 9999 BKN040 XX/XX Q1019



METAR SVCS 251230Z 00000KT 8000 -HZ OVC030 XX/XX Q1019



METAR SVCS 251130Z 00000KT 8000 -HZ OVC030 XX/XX Q1019



METAR SVCS 241330Z 00000KT 9999 SCT050 XX/XX Q1019



METAR SVCS 241230Z 00000KT 9999 BKN040 XX/XX Q1019



METAR SVCS 241130Z 00000KT 9999 BKN040 XX/XX Q1019



METAR SVCS 221330Z 00000KT 9999 OVC030 XX/XX Q1019



METAR SVCS 221230Z 00000KT 9999 OVC040 XX/XX Q1019



METAR SVCS 221230Z 00000KT 9999 OVC040 XX/XX Q1019



METAR SVCS 221130Z 00000KT 9999 BKN050 XX/XX Q1020



METAR SVCS 191530Z 00000KT 9999 FEW020 XX/XX Q1018











METAR SVCS 151630Z 00000KT 9999 FEW020 XX/XX Q1017



METAR SVCS 151630Z 00000KT 9999 FEW020 XX/XX Q1017



METAR SVCS 131330Z 00000KT 8000 -HZ OVC040 Q1019



METAR SVCS 131230Z 00000KT 8000 -HZ OVC040 Q1019



METAR SVCS 131130Z 00000KT 8000 -HZ OVC040 Q1019



METAR SVCS 111430Z 00000KT 9999 FEW030 XX/XX Q1021



METAR SVCS 111330Z 00000KT 9999 SCT070 XX/XX Q1021



METAR SVCS 111230Z 00000KT 9999 SCT070 XX/XX Q1020



METAR SVCS 111130Z 00000KT 9999 SCT070 XX/XX Q1020



METAR SVCS 101730Z 00000KT 9999 SCT070 XX/XX Q1017



METAR SVCS 041630Z 00000KT 9999 SCT070 XX/XX Q1017



METAR SVCS 041530Z 00000KT 9999 SCT070 XX/XX Q1018



METAR SVCS 041430Z 00000KT 9999 SCT070 XX/XX Q1019



METAR SVCS 041330Z 00000KT 9999 SCT050 XX/XX Q1019



METAR SVCS 041230Z 00000KT 9999 BKN050 XX/XX Q1019



METAR SVCS 041130Z 00000KT 9999 BKN050 XX/XX Q1019



METAR SVCS 031530Z 00000KT 9999 SCT070 XX/XX Q1018



METAR SVCS 031430Z 00000KT 9999 SCT050 XX/XX Q1018



METAR SVCS 031330Z 00000KT 9999 BKN040 XX/XX Q1019



METAR SVCS 031230Z 00000KT 9999 OVC030 XX/XX Q1019



METAR SVCS 031130Z 00000KT 9999 OVC030 XX/XX Q1019



METAR SVCS 011730Z 00000KT 9999 SKC XX/XX Q1016



METAR SVCS 011630Z 00000KT 9999 FEW030 XX/XX Q1017



METAR SVCS 011530Z 00000KT 9999 FEW030 XX/XX Q1018



METAR SVCS 011430Z 00000KT 9999 FEW030 XX/XX Q1019



METAR SVCS 011330Z 00000KT 9999 SCT070 XX/XX Q1019



METAR SVCS 011230Z 00000KT 9999 SCT070 XX/XX Q1019



METAR SVCS 011130Z 00000KT 9999 SCT070 XX/XX Q1019



METAR SVCS 291430Z 00000KT 9999 SCT070 XX/XX Q1018



METAR SVCS 291330Z 00000KT 9999 SCT070 XX/XX Q1019



METAR SVCS 291230Z 00000KT 9999 SCT070 XX/XX Q1019



METAR SVCS 291130Z 00000KT 9999 SCT070 XX/XX Q1019



METAR SVCS 281930Z 00000KT 9999 FEW020 XX/XX Q1013



METAR SVCS 281830Z 00000KT 9999 FEW020 XX/XX Q1014



METAR SVCS 281730Z 00000KT 9999 SCT070 XX/XX Q1016



METAR SVCS 281630Z 00000KT 9999 SCT070 XX/XX Q1018



METAR SVCS 281530Z 00000KT 9999 SCT070 XX/XX Q1019



METAR SVCS 281430Z 00000KT 9999 SCT070 XX/XX Q1019



METAR SVCS 281330Z 00000KT 9999 SCT070 XX/XX Q1019



METAR SVCS 281230Z 00000KT 9999 SCT050 XX/XX Q1020



METAR SVCS 281130Z 00000KT 9999 SCT050 XX/XX Q1020



METAR SVCS 271430Z 00000KT 9999 BKN050 XX/XX Q1018



METAR SVCS 271330Z 00000KT 9999 BKN050 XX/XX Q1019



METAR SVCS 271230Z 00000KT 9999 BKN050 XX/XX Q1019



METAR SVCS 271130Z 00000KT 9999 BKN050 XX/XX Q1019



METAR SVCS 261530Z 00000KT 9999 SCT070 XX/XX Q1018



METAR SVCS 261530Z 00000KT 9999 SCT070 XX/XX Q1018



METAR SVCS 261530Z 00000KT 9999 SCT070 XX/XX Q1018



METAR SVCS 261330Z 00000KT 9999 BKN050 XX/XX Q1019



METAR SVCS 261230Z 00000KT 9999 SCT050 XX/XX Q1019



METAR SVCS 261130Z 00000KT 9999 SCT050 XX/XX Q1019



MKETAR SVCS 251330Z 00000KT 9999 SCT040 XX/XX Q1019



MKETAR SVCS 251230Z 00000KT 9999 BKN040 XX/XX Q1019



MKETAR SVCS 251130Z 00000KT 9999 BKN040 XX/XX Q1019



METAR SVCS 231430Z 00000KT 9999 SKC XX/XX Q1019



METAR SVCS 231330Z 00000KT 9999 SKC XX/XX Q1019



METAR SVCS 231230Z 00000KT 9999 SKC XX/XX Q1020



METAR SVCS 231130Z 00000KT 9999 SKC XX/XX Q1020



METAR SVCS 221330Z 00000KT 9999 BKN040 XX/XX Q1019



METAR SVCS 221230Z 00000KT 9999 BKN040 XX/XX Q1019



METAR SVCS 221130Z 00000KT 9999 BKN040 XX/XX Q1019



METAR SVCS 201630Z 00000KT 9999 SCT070 XX/XX Q1017



METAR SVCS 201530Z 00000KT 9999 SCT070 XX/XX Q1018



METAR SVCS 201430Z 00000KT 9999 SCT050 XX/XX Q1019




METAR SVCS 201330Z 00000KT 9999 SCT050 XX/XX Q1020




METAR SVCS 201230Z 00000KT 9999 SCT050 XX/XX Q1020




METAR SVCS 201130Z 00000KT 9999 SCT050 XX/XX Q1020




METAR SVCS 191730Z 00000KT 9999 SCT050 XX/XX Q1016



METAR SVCS 191630Z 00000KT 9999 BKN050 XX/XX Q1017



METAR SVCS 191530Z 00000KT 9999 BKN050 XX/XX Q1018



METAR SVCS 191430Z 00000KT 9999 BKN050 XX/XX Q1019



METAR SVCS 191330Z 00000KT 9999 BKN050 XX/XX Q1019



METAR SVCS 191230Z 00000KT 9999 BKN040 XX/XX Q1019



METAR SVCS 191130Z 00000KT 9999 BKN040 XX/XX Q1019



METAR SVCS 181830Z 00000KT 9999 FEW020 XX/XX Q1015



METAR SVCS 181830Z 00000KT 9999 FEW020 XX/XX Q1016



METAR SVCS 181730Z 00000KT 9999 FEW020 XX/XX Q1017



METAR SVCS 181630Z 00000KT 9999 FEW020 XX/XX Q1017



METAR SVCS 181530Z 00000KT 9999 FEW020 XX/XX Q1018



METAR SVCS 181430Z 00000KT 9999 FEW020 XX/XX Q1018



METAR SVCS 181330Z 00000KT 9999 FEW020 XX/XX Q1019



METAR SVCS 18130Z 00000KT 9999 FEW020 XX/XX Q1019



METAR SVCS 181130Z 00000KT 9999 FEW020 XX/XX Q1019



METAR SVCS 161230Z 00000KT 9999 OVC040 XX/XX Q1019



METAR SVCS 161130Z 00000KT 9999 BKN040 XX/XX Q1019



METAR SVCS 151730Z 00000KT 9999 SCT070 XX/XX Q101



METAR SVCS 151630Z 00000KT 9999 SCT070 XX/XX Q1017



METAR SVCS 151530Z 00000KT 9999 SCT070 XX/XX Q1018



METAR SVCS 151430Z 00000KT 9999 SCT070 XX/XX Q1018



METAR SVCS 151330Z 00000KT 9999 SCT050 XX/XX Q1019



METAR SVCS 151230Z 00000KT 9999 SCT050 XX/XX Q1019



METAR SVCS 151130Z 00000KT 9999 SCT050 XX/XX Q1019



METAR SVCS 142130Z 00000KT 9999 SKC XX/XX Q1013



METAR SVCS 142130Z 00000KT 9999 SKC XX/XX Q1013







METAR SVCS 121730Z 00000KT 9999 FEW020 XX/XX Q1016



METAR SVCS 121630Z 00000KT 9999 FEW020 XX/XX Q1017



METAR SVCS 121530Z 00000KT 9999 FEW020 XX/XX Q1018



METAR SVCS 121430Z 00000KT 9999 FEW020 XX/XX Q1019



METAR SVCS 121330Z 00000KT 9999 FEW020 XX/XX Q1019



METAR SVCS 121230Z 00000KT 9999 FEW020 XX/XX Q1019



METAR SVCS 121130Z 00000KT 9999 FEW020 XX/XX Q1019







METAR SVCS 072130Z 00000KT 9999 SKC XX/XX Q1013



METAR SVCS 072130Z 00000KT 9999 SKC XX/XX Q1013



METAR SVCS 072030Z 00000KT 9999 SKC XX/XX Q1013



METAR SVCS 072030Z 00000KT 9999 SKC XX/XX Q1013







METAR SVCS 031230Z 00000KT 3000 MIFG OVC020 XX/XX Q1019



METAR SVCS 031130Z 00000KT 3000 MIFG OVC020 XX/XX Q1019



METAR SVCS 021430Z 00000KT 4000 MIFG OVC020 XX/XX Q1019



METAR SVCS 021330Z 00000KT 3000 MIFG OVC020 XX/XX Q1019



METAR SVCS 021230Z 00000KT 3000 MIFG OVC020 XX/XX Q1019



METAR SVCS 021130Z 00000KT 3000 MIFG OVC020 XX/XX Q1019







METAR SVCS 261630Z 00000KT 9999 BKN050 XX/XX Q1015



































METAR SVCS 081830Z 00000KT 9999 SCT070 XX/XX Q1015



METAR SVCS 081730Z 00000KT 9999 SCT070 XX/XX Q1016



METAR SVCS 081630Z 00000KT 9999 SCT070 XX/XX Q1017



METAR SVCS 081530Z 00000KT 9999 SCT050 XX/XX Q1018



METAR SVCS 081430Z 00000KT 9999 SCT050 XX/XX Q1019



METAR SVCS 081330Z 00000KT 9999 FEW020 XX/XX Q1019



METAR SVCS 081230Z 00000KT 9999 FEW020 XX/XX Q1019



METAR SVCS 081130Z 00000KT 9999 FEW020 XX/XX Q1019







METAR SVCS 031330Z 00000KT 9999 SCT050 XX/XX Q1020



METAR SVCS 031230Z 00000KT 9999 BKN050 XX/XX Q1020



METAR SVCS 031130Z 00000KT 9999 BKN050 XX/XX Q1020







METAR SVCS 301930Z 00000KT 9999 SCT050 XX/XX Q1013



METAR SVCS 301830Z 00000KT 9999 SCT050 XX/XX Q1014



METAR SVCS 301730Z 00000KT 9999 FEW030 XX/XX Q1015



METAR SVCS 301630Z 00000KT 9999 FEW030 XX/XX Q1016



METAR SVCS 301530Z 00000KT 9999 FEW030 XX/XX Q1015



METAR SVCS 301430Z 00000KT 9999 FEW030 XX/XX Q1016



METAR SVCS 301330Z 00000KT 9999 FEW030 XX/XX Q1017



METAR SVCS 301230Z 00000KT 9999 FEW030 XX/XX Q1017



METAR SVCS 301130Z 00000KT 9999 FEW030 XX/XX Q1017



METAR SVCS 271330Z 00000KT 3000 -DZ OVC010 XX/XX Q1016



METAR SVCS 271230Z 00000KT 1000 MIFG OVC010 XX/XX Q1016 REDZ



METAR SVCS 271130Z 00000KT 1000 MIFG OVC010 XX/XX Q1016 REDZ



METAR SVCS 241230Z 00000KT 9999 SCT070 XX/XCX Q1018



METAR SVCS 241130Z 00000KT 9999 SCT070 XX/XCX Q1018











METAR SVCS 181830Z 00000KT 9999 SCT050 XX/XX Q1013



METAR SVCS 181730Z 00000KT 9999 SCT050 XX/XX Q1014



METAR SVCS 181630Z 00000KT 9999 FEW030 SCT070 XX/XX Q1014



METAR SVCS 181530Z 00000KT 9999 FEW020 SCT070 XX/XX Q1015



METAR SVCS 181430Z 00000KT 9999 SCT070 XX/XX Q1015



METAR SVCS 181330Z 00000KT 9999 SCT070 XX/XX Q1016



METAR SVCS 181230Z 00000KT 9999 SCT070 XX/XX Q1017



METAR SVCS 181130Z 00000KT 9999 SCT070 XX/XX Q1017



METAR SVCS 171930Z 00000KT 9999 SCT070 XX/XX Q1014



METAR SVCS 171830Z 00000KT 9999 SCT050 XX/XX Q1017



METAR SVCS 171730Z 00000KT 9999 SCT050 XX/XX Q1017



METAR SVCS 171630Z 00000KT 9999 BKN050 XX/XX Q1017



METAR SVCS 171530Z 00000KT 9999 BKN050 XX/XX Q1018



METAR SVCS 161530Z 00000KT 9999 SCT050 XX/XX Q1019



METAR SVCS 161430Z 00000KT 9999 SCT050 XX/XX Q1019



METAR SVCS 161330Z 00000KT 9999 SCT050 XX/XX Q1019



METAR SVCS 161230Z 00000KT 9999 BKN050 XX/XX Q1019



METAR SVCS 161130Z 00000KT 9999 BKN050 XX/XX Q1019



METAR SVCS 111630Z 00000KT 9999 BKN050 XX/XX Q1017



METAR SVCS 111630Z 00000KT 9999 BKN050 XX/XX Q1017



METAR SVCS 111530Z 00000KT 9999 BKN050 XX/XX Q1018



METAR SVCS 111530Z 00000KT 9999 BKN050 XX/XX Q1018



METAR SVCS 111430Z 00000KT 9999 FEW020 SCT070 XX/XX Q1018



METAR SVCS 111330Z 00000KT 9999 FEW020 SCT070 XX/XX Q1018



METAR SVCS 111230Z 00000KT 9999 SCT070 XX/XX Q1019



METAR SVCS 111130Z 00000KT 9999 SCT070 XX/XX Q1019



METAR SVCS 101330Z 00000KT 9999 SCT070 XX/XX Q1018



METAR SVCS 101230Z 00000KT 9999 SCT070 XX/XX Q1018



METAR SVCS 101130Z 00000KT 9999 SCT070 XX/XX Q1018



METAR SVCS 061530Z 00000KT 9999 SCT070 XX/XX Q1017



METAR SVCS 061430Z 00000KT 9999 SCT070 XX/XX Q1017



METAR SVCS 061330Z 00000KT 9999 SCT070 XX/XX Q1018



METAR SVCS 061230Z 00000KT 9999 SCT050 XX/XX Q1019



METAR SVCS 061130Z 00000KT 9999 SCT050 XX/XX Q1019



METAR SVCS 031830Z 00000KT 9999 SCT070 XX/XX Q1016



METAR SVCS 031730Z 00000KT 9999 SCT070 XX/XX Q1017



METAR SVCS 031630Z 00000KT 9999 SCT070 XX/XX Q1017



METAR SVCS 031630Z 00000KT 9999 SCT070 XX/XX Q1017



METAR SVCS 021530Z 00000KT 9999 BKN040 XX/XX Q1017



METAR SVCS 021430Z 00000KT 7000 -HZ OVC020 XX/XX Q1017



SPECI SVCS 021400Z 00000KT 3000 +HZ OVC020 XX/XX Q1018



METAR SVCS 021330Z 00000KT 0500 MIFG OVC010 XX/XX Q1018



METAR SVCS 021230Z 00000KT 5000 -HZ OVC030 XX/XX Q1018



METAR SVCS 021130Z 00000KT 6000 -HZ OVC030 XX/XX Q1018



METAR SVCS 301430Z 00000KT 9999 SCT070 XX/XX Q1018



METAR SVCS 301330Z 00000KT 9999 SCT070 XX/XX Q1019



METAR SVCS 301230Z 00000KT 9999 SCT070 XX/XX Q1019



METAR SVCS 301430Z 00000KT 9999 SCT070 XX/XX Q1018



METAR SVCS 301330Z 00000KT 9999 SCT070 XX/XX Q1019



METAR SVCS 301230Z 00000KT 9999 SCT070 XX/XX Q1019



METAR SVCS 301130Z 00000KT 9999 SCT070 XX/XX Q1019



METAR SVCS 301130Z 00000KT 9999 SCT070 XX/XX Q1019



METAR SVCS 271630Z 00000KT 9999 SCT070 XX/XX Q1017



METAR SVCS 271530Z 00000KT 9999 SCT070 XX/XX Q1017



METAR SVCS 261230Z 00000KT 9999 BKN050 XX/XX Q1019



METAR SVCS 261130Z 00000KT 9999 BKN050 XX/XX Q1019



METAR SVCS 231230Z 00000KT 9999 SCT050 XX/XX Q1019



METAR SVCS 231130Z 00000KT 9999 SCT050 XX/XX Q1019



METAR SVCS 212030Z 00000KT 9999 FEW020 XX/XX Q1014



METAR SVCS 211930Z 00000KT 9999 FEW020 XX/XX Q1015



METAR SVCS 211830Z 00000KT 9999 FEW020 XX/XX Q1015



METAR SVCS 211730Z 00000KT 9999 FEW020 XX/XX Q1016



METAR SVCS 211630Z 00000KT 9999 FEW020 XX/XX Q1017



METAR SVCS 211530Z 00000KT 9999 FEW020 XX/XX Q1018



METAR SVCS 211430Z 00000KT 9999 FEW030 XX/XX Q1019



METAR SVCS 211330Z 00000KT 9999 FEW030 XX/XX Q1020



METAR SVCS 211230Z 00000KT 9999 SCT050 XX/XX Q1020



METAR SVCS 211130Z 00000KT 9999 SCT050 XX/XX Q1020



METAR SVCS 191630Z 00000KT 9999 SCT050 XX/XX Q1017



METAR SVCS 191530Z 00000KT 9999 SCT050 XX/XX Q1017



METAR SVCS 161430Z 00000KT 9999 FEW020 XX/XX Q1019



METAR SVCS 161330Z 00000KT 9999 FEW020 XX/XX Q1020



METAR SVCS 161230Z 00000KT 9999 FEW020 XX/XX Q1020



METAR SVCS 161130Z 00000KT 9999 FEW020 XX/XX Q1020



METAR SVCS 151930Z 00000KT 9999 FEW020 XX/XX Q1014



METAR SVCS 151830Z 00000KT 9999 FEW020 XX/XX Q1016



METAR SVCS 151730Z 00000KT 9999 FEW030 XX/XX Q1017



METAR SVCS 151630Z 00000KT 9999 SCT050 XX/XX Q1017



METAR SVCS 151530Z 00000KT 9999 SCT050 XX/XX Q1017



METAR SVCS 142030Z 00000KT 9999 FEW030 XX/XX Q1013



METAR SVCS 141930Z 00000KT 9999 FEW030 XX/XX Q1014



METAR SVCS 121730Z 00000KT 9999 SCT070 XX/XX Q1016



METAR SVCS 121630Z 00000KT 9999 SCT 070 XX/XX Q1017



METAR SVCS 091730Z 00000KT 9999 SCT070 XX/XX Q1017



METAR SVCS 091630Z 00000KT 9999 SCT070 XX/XX Q1018



METAR SVCS 091530Z 00000KT 9999 SCT070 XX/XX Q1019



METAR VCS 091430Z 00000KT 9999 BKN050 XX/XX Q1019



METAR VCS 091330Z 00000KT 9999 BKN050 XX/XX Q1019



METAR VCS 091230Z 00000KT 9999 BKN050 XX/XX Q1019



METAR VCS 091230Z 00000KT 9999 BKN050 XX/XX Q1019



METAR VCS 091130Z 00000KT 9999 BKN050 XX/XX Q1019



METAR VCS 091100Z 00000KT 9999 BKN050 XX/XX Q1019



METAR SVCS 081630Z 00000KT 9999 FEW030 XX/XX Q1017



METAR SVCS 081500Z 00000KT 9999 SCT070 XX/XX Q1018



METAR SVCS 071630Z 00000KT 9999 SCT070 XX/XX Q1017



METAR SVCS 071530Z 00000KT 9999 SCT070 XX/XX Q1018



METAR SVCS 071430Z 00000KT 9999 SCT070 XX/XX Q1019



METAR SVCS 071330Z 00000KT 9999 SCT070 XX/XX Q1019



METAR SVCS 071230Z 00000KT 9999 SCT070 XX/XX Q1019



METAR SVCS 071130Z 00000KT 9999 SCT070 XX/XX Q1019



METAR SVCS 071100Z 00000KT 9999 SCT070 XX/XX Q1019



METAR SVCS 061930Z 00000KT 9999 SCT050 XX/XX Q1014



METAR SVCS 061830Z 00000KT 9999 BKN050 XX/XX Q1015



METAR SVCS 061730Z 00000KT 9999 SCT070 XX/XX Q1017



METAR SVCS 061730Z 00000KT 99999 SCT070 XX/XX Q1017



METAR SVCS 051830Z 00000KT 9999 SCT070 XX/XX Q1015



METAR SVCS 051730Z 00000KT 9999 SCT070 XX/XX Q1016



METAR SVCS 051630Z 00000KT 9999 SCT070 XX/XX Q1017



METAR SVCS 051530Z 00000KT 9999 SCT050 XX/XX Q1018



METAR SVCS 051430Z 00000KT 9999 FEW030 XX/XX Q1019



METAR SVCS 051330Z 00000KT 9999 FEW030 XX/XX Q1020



METAR SVCS 051230Z 00000KT 9999 FEW030 XX/XX Q1020



METAR SVCS 051230Z 00000KT 9999 FEW030 XX/XX Q1020



METAR SVCS 051230Z 00000KT 9999 FEW030 XX/XX Q1020



METAR SVCS 051230Z 00000KT 9999 FEW030 XX/XX Q1020



METAR SVCS 051130Z 00000KT 9999 FEW030 XX/XX Q1020



METAR SVCS 041830Z 00000KT 9999 SCT070 XX/XX Q1014



METAR SVCS 041730Z 00000KT 9999 SCT070 XX/XX Q1016



METAR SVCS 041630Z 00000KT 9999 SCT070 XX/XX Q1016



METAR SVCS 021830Z 00000KT 9999 BKN050 XX/XX Q1013 REDZ



METAR SVCS 021730Z 00000KT 8000 -DZ OVC030 XX/XX Q1014



METAR SVCS 021630Z 00000KT 3000 -DZ OVC020 XX/XX Q1015



METAR SVCS 021530Z 00000KT 2000 -DZ OVC010 XX/XX Q1015



METAR SVCS 021430Z 00000KT 2000 -DZ OVC010 XX/XX Q1016



METAR SVCS 021330Z 00000KT 3000 -DZ OVC020 XX/XX Q1019



METAR SVCS 021230Z 00000KT 8000 -HZ OVC030 XX/XX Q1019



METAR SVCS 021130Z 00000KT 8000 -HZ OVC030 XX/XX Q1019



METAR SVCS 011930Z 00000KT 9999 SCT070 XX/XX Q1014



METAR SVCS 011830Z 00000KT 9999 SCT070 XX/XX Q1015



METAR SVCS 011730Z 00000KT 9999 SCT070 XX/XX Q1017



METAR SVCS 011630Z 00000KT 9999 SCT070 XX/XX Q1018



METAR SVCS 011530Z 00000KT 9999 SCT040 XX/XX Q1019



METAR SVCS 011430Z 00000KT 9999 SCT040 XX/XX Q1019



METAR SVCS 011330Z 00000KT 9999 SCT040 XX/XX Q1019



METAR SVCS 011230Z 00000KT 9999 FEW030 XX/XX Q1020



METAR SVCS 011130Z 00000KT 9999 FEW030 XX/XX Q1020



METAR VCS 011130Z 00000KT 9999 FEW030 XX/XX Q1020



METAR VCS 011130Z 00000KT 9999 FEW030 XX/XX Q1020



METAR SVCS 301930Z 00000KT 9999 SCT050 XX/XX Q1014



METAR SVCS 301830Z 00000KT 9999 SCT040 XX/XX Q1015



METAR SVCS 301730Z 00000KT 9999 SCT040 XX/XX Q1016



METAR SVCS 301630Z 00000KT 9999 FEW020 XX/XX Q1017



METAR SVCS 301530Z 00000KT 9999 FEW020 XX/XX Q1018



METAR SVCS 291430Z 00000KT 9999 FEW020 XX/XX Q1018



METAR SVCS 291330Z 00000KT 9999 FEW020 XX/XX Q1019



METAR SVCS 291230Z 00000KT 9999 FEW020 XX/XX Q1019



METAR SVCS 291130Z 00000KT 9999 FEW020 XX/XX Q1019



METAR SVCS 291100Z 00000KT 9999 FEW020 XX/XX Q1019



METAR SVCS 281330Z 00000KT 9999 FEW020 XX/XX Q1020



METAR SVCS 281230Z 00000KT 9999 FEW020 XX/XX Q1020



METAR SVCS 281200Z 00000KT 9999 FEW020 XX/XX Q1020



METAR SVCS 281100Z 00000KT 9999 FEW020 XX/XX Q1020



METAR SVCS 281100Z 00000KT 9999 FEW020 XX/XX Q1020



METAR SVCS 281100Z 00000KT 9999 FEW020 XX/XX Q1020



METAR SVCS 281100Z 00000KT 9999 FEW020 XX/XX Q1020



METAR SVCS 251730Z 00000KT 9999 FEW020 XX/XX Q1017



METAR SVCS 251630Z 00000KT 9999 SCT070 XX/XX Q1018



METAR SVCS 251530Z 00000KT 9999 SCT070 XX/XX Q1018







METAR SVCS 241930Z 00000KT 9999 SCT070 XX/XX Q1014



METAR SVCS 241830Z 00000KT 9999 SCT070 XX/XX Q1016



METAR SVCS 241730Z 00000KT 9999 SCT070 XX/XX Q1017



METAR SVCS 241630Z 00000KT 9999 SCT050 XX/XX Q1017



METAR SVCS 241530Z 00000KT 9999 FEW030 XX/XX Q1018



METAR SVCS 241430Z 00000KT 9999 FEW030 XX/XX Q1018



METAR SVCS 241330Z 00000KT 9999 FEW020 XX/XX Q1019



METAR SVCS 241230Z 00000KT 9999 FEW020 XX/XX Q1019



METAR SVCS 241130Z 00000KT 9999 FEW020 XX/XX Q1019







METAR SVCS 231830Z 00000KT 9999 SCT070 XX/XX Q1017



METAR SVCS 231730Z 00000KT 9999 SCT070 XX/XX Q1017



METAR SVCS 231630Z 00000KT 9999 SCT070 XX/XX Q1017



METAR SVCS 221630Z 00000KT 9999 SCT070 XX/XX Q1017



METAR SVCS 221530Z 00000KT 9999 SCT050 XX/XX Q1017



METAR SVCS 221430Z 00000KT 9999 FEW020 XX/XX Q1018



METAR SVCS 221330Z 00000KT 9999 FEW020 XX/XX Q1019



METAR SVCS 221230Z 00000KT 9999 FEW020 XX/XX Q1020



METAR SVCS 221130Z 00000KT 9999 FEW020 XX/XX Q1020



METAR SVCS 221100Z 00000KT 9999 FEW020 XX/XX Q1020



METAR SVCS 212130Z 00000KT 9999 FEW020 XX/XX Q1012



METAR SVCS 212130Z 00000KT 9999 FEW020 XX/XX Q1012



METAR SVCS 212030Z 00000KT 9999 FEW020 XX/XX Q1013



METAR SVCS 211930Z 00000KT 9999 BKN040 XX/XX Q1015



METAR SVCS 211830Z 00000KT 4000 +HZ OVC030 XX/XX Q1017 CBS



METAR SVCS 211730Z 00000KT 2000 +RA OVC010 XX/XX Q1017 CBS



METAR SVCS 211730Z 00000KT 2000 +RA OVC010 XX/XX Q1017 CBS



METAR SVCS 211630Z 00000KT 8000 -HZ BKN040 XX/XX Q1018







METAR SVCS 181530Z 00000KT 9999 BKN050 XX/XX Q1018



METAR SVCS 181430Z 00000KT 9999 BKN050 XX/XX Q1019



METAR SVCS 181330Z 00000KT 8000 -HZ OVC030 XX/XX Q1019



METAR SVCS 181230Z 00000KT 5000 +HZ OVC020 XX/XX Q1019



METAR SVCS 181200Z 00000KT 5000 +HZ OVC020 XX/XX Q1019



METAR SVCS 181100Z 00000KT 5000 +HZ OVC020 XX/XX Q1019



METAR SVCS 171930Z 00000KT 9999 FEW030 XX/XX Q1014



METAR SVCS 171830Z 00000KT 9999 SCT070 XX/XX Q1015



METAR SVCS 171730Z 00000KT 9999 SCT070 XX/XX Q1016



METAR SVCS 171630Z 00000KT 9999 SCT050 XX/XX Q1017



METAR SVCS 171530Z 00000KT 9999 BKN050 XX/XX Q1018



METAR SVCS 171430Z 00000KT 9999 BKN050 XX/XX Q1019



METAR SVCS 162030Z 00000KT 9999 FEW020 XX/XX Q1013



METAR SVCS 161930Z 00000KT 9999 SCT070 XX/XX Q1014



METAR SVCS 161830Z 00000KT 9999 SCT070 XX/XX Q1015



METAR SVCS 161730Z 00000KT 9999 SCT070 XX/XX Q1016



METAR SVCS 161630Z 00000KT 9999 SCT070 XX/XX Q1017



METAR SVCS 161530Z 00000KT 9999 SCT070 XX/XX Q1018



METAR SVCS 161430Z 00000KT 9999 SCT070 XX/XX Q1019



METAR SVCS 161330Z 00000KT 9999 BKN050 XX/XX Q1019



METAR SVCS 161230Z 00000KT 8000 -HZ BKN040 XX/XX Q1019



METAR SVCS 161100Z 00000KT 8000 -HZ BKN040 XX/XX Q1019







METAR SVCS 101530Z 00000KT 9999 SCT070 XX/XX Q1018



METAR SVCS 101430Z 00000KT 9999 SCT070 XX/XX Q1019



METAR SVCS 101300Z 00000KT 9999 SCT070 XX/XX Q1020



METAR SVCS 101200Z 00000KT 9999 SCT070 XX/XX Q1020



METAR SVCS 101100Z 00000KT 9999 SCT070 XX/XX Q1020



METAR SVCS 0916300Z 00000KT 9999 SCT070 XX/XX Q1017



METAR SVCS 0915300Z 00000KT 9999 SCT070 XX/XX Q1019



METAR SVCS 091400Z 00000KT 9999 BKN050 XX/XX Q1019



METAR SVCS 091400Z 00000KT 9999 BKN050 XX/XX Q1019



METAR SVCS 091300Z 00000KT 7000 -HZ BKN030 XX/XX Q1019



METAR SVCS 091200Z 00000KT 1000 MIFG OVC010 XX/XX Q1019



METAR SVCS 091100Z 00000KT 5000 +HZ OVC030 XX/XX Q1019



METAR SVCS 081630 00000KT 9999 SCT050 XX/XX Q1017



METAR SVCS 081530 00000KT 9999 BKN050 XX/XX Q1018



METAR SVCS 081430 00000KT 9999 BKN050 XX/XX Q1018



METAR SVCS 071900Z 00000KT 9999 FEW030 XX/XX Q1014



METAR SVCS 071800Z 00000KT 9999 FEW030 XX/XX Q1015



METAR SVCS 071700Z 00000KT 9999 SCT070 XX/XX Q1016



METAR SVCS 071600Z 00000KT 9999 SCT070 XX/XX Q1017



METAR SVCS 071500Z 00000KT 9999 SCT070 XX/XX Q1018



METAR SVCS 071400Z 00000KT 9999 SCT050 XX/XX Q1019



METAR SVCS 071300Z 00000KT 9999 BKN050 XX/XX Q1019



METAR SVCS 071200Z 00000KT 9999 BKN050 XX/XX Q1019



METAR SVCS 071100Z 00000KT 9999 BKN050 XX/XX Q1019



METAR SVCS 031530Z 00000KT 9999 BKN040 XX/XX Q1018



METAR SVCS 031400Z 00000KT 9999 BKN040 XX/XX Q1019



METAR SVCS 031300Z 00000KT 5000 -HZ OVC030 XX/XX Q1019



METAR SVCS 031200Z 00000KT 2000 +HZ OVC020 XX/XX Q1019



METAR SVCS 031100Z 00000KT 2000 +HZ OVC020 XX/XX Q1019



METAR SVCS 022030Z 00000KT 9999 SCT070 XX/XX Q1013



METAR SVCS 021930Z 00000KT 9999 SCT070 XX/XX Q1014



METAR SVCS 021830Z 00000KT 9999 SCT070 XX/XX Q1015



METAR SVCS 021730Z 00000KT 9999 SCT070 XX/XX Q1016



METAR SVCS 021630Z 00000KT 9999 SCT070 XX/XX Q1017



METAR SVCS 021530Z 00000KT 9999 SCT070 XX/XX Q1018



METAR SVCS 021400Z 00000KT 9999 SCT070 XX/XX Q1019



METAR SVCS 021300Z 00000KT 9999 BKN050 XX/XX Q1019



METAR SVCS 021200Z 00000KT 9999 BKN050 XX/XX Q1019



METAR SVCS 021100Z 00000KT 9999 BKN050 XX/XX Q1019



METAR SVCS 021100Z 00000KT 9999 BKN050 XX/XX Q1019



METAR SVCS 021100Z 00000KT 9999 BKN050 XX/XX Q1019



METAR SVCS 011900Z 00000KT 9999 FEW020 XX/XX Q1014



METAR SVCS 011800Z 00000KT 9999 FEW020 SCT070 XX/XX Q1015



METAR SVCS 011700Z 00000KT 9999 SCT070 XX/XX Q1016



METAR SVCS 011600Z 00000KT 9999 SCT070 XX/XX Q1016



METAR SVCS 011500Z 00000KT 9999 SCT070 XX/XX Q1017



METAR SVCS 011400Z 00000KT 9999 BKN050 XX/XX Q1018



METAR SVCS 011300Z 00000KT 9999 BKN040 XX/XX Q1018



METAR SVCS 011200Z 00000KT 9999 BKN040 XX/XX Q1018



METAR SVCS 011100Z 00000KT 9999 BKN040 XX/XX Q1018



METAR SVCS 311800Z 00000KT 9999 BKN050 XX/XX Q1015



METAR SVCS 311700Z 00000KT 9999 BKN050 XX/XX Q1016



METAR SVCS 311600Z 00000KT 9999 BKN050 XX/XX Q1017



METAR SVCS 311500Z 00000KT 9999 BKN050 XX/XX Q1018



METAR SVCS 311400Z 00000KT 9999 BKN050 XX/XX Q1018



METAR SVCS 311300Z 00000KT 9999 BKN050 XX/XX Q1019



METAR SVCS 311200Z 00000KT 9999 BKN050 XX/XX Q1019



METAR SVCS 311100Z 00000KT 9999 BKN050 XX/XX Q1019



METAR SVCS 271800Z 00000KT 9999 SCT050 XX/XX Q1016



METAR SVCS 271700Z 00000KT 9999 SCT070 XX/XX Q1016



METAR SVCS 271600Z 00000KT 9999 SCT050 XX/XX Q1017



METAR SVCS 271500Z 00000KT 9999 SCT050 XX/XX Q1017



METAR SVCS 271400Z 00000KT 9999 BKN050 XX/XX Q1018



METAR SVCS 271400Z 00000KT 9999 BKN050 XX/XX Q1019



METAR SVCS 271300Z 00000KT 7000 -HZ BKN050 XX/XX Q1019



METAR SVCS 271200Z 00000KT 7000 -HZ BKN050 XX/XX Q1020



METAR SVCS 271100Z 00000KT 7000 -HZ BKN050 XX/XX Q1020



METAR SVCS 252000Z 00000KT 9999 BKN050 XX/XX Q1013



METAR SVCS 251900Z 00000KT 9999 BKN050 XX/XX Q1014



METAR SVCS 251800Z 00000KT 9999 SCT070 XX/XX Q1015



METAR SVCS 251700Z 00000KT 9999 SCT070 XX/XX Q1016



METAR SVCS 251600Z 00000KT 9999 SCT070 XX/XX Q1017



METAR SVCS 251500Z 00000KT 9999 SCT070 XX/XX Q1018



METAR SVCS 251400Z 00000KT 9999 SCT070 XX/XX Q1019



METAR SVCS 251300Z 00000KT 9999 BKN050 XX/XX Q1019



METAR SVCS 251200Z 00000KT 9999 BKN040 XX/XX Q1019



METAR SVCS 251100Z 00000KT 9999 BKN040 XX/XX Q1019



METAR SVCS 241530Z 00000KT 9999 SCT040 XX/XX Q1018



METAR SVCS 241330Z 00000KT 9999 FEW020 XX/XX Q1019



METAR SVCS 241230Z 00000KT 9999 FEW020 XX/XX Q1019



METAR SVCS 241130Z 00000KT 8000 -HZ BKN040 XX/XX Q1019



METAR SVCS 241100Z 00000KT 8000 -HZ BKN040 XX/XX Q1019



METAR SVCS 211400Z 00000KT 8000 -HZ OVC030 XX/XX Q1018







METAR SVCS 201500Z 00000KT 9999 BKN050 XX/XX Q1017



METAR SVCS 201400Z 00000KT 9999 SCT070 XX/XX Q1019



METAR SVCS 201300Z 00000KT 9999 SCT070 XX/XX Q1019



METAR SVCS 201200Z 00000KT 9999 SCT070 XX/XX Q1020



METAR SVCS 201100Z 00000KT 9999 SCT070 XX/XX Q1020



METAR SVCS 201100Z 00000KT 9999 SCT070 XX/XX Q1020



METAR SVCS 191700Z 00000KT 9999 SCT070 XX/XX Q1016



METAR SVCS 191600Z 00000KT 9999 SCT070 XX/XX Q1017



METAR SVCS 191500Z 00000KT 9999 SCT070 XX/XX Q1018



METAR SVCS 191400Z 00000KT 9999 SCT070 XX/XX Q1018



METAR SVCS 191300Z 00000KT 9999 SCT070 XX/XX Q1019



METAR SVCS 191200Z 00000KT 9999 SCT070 XX/XX Q1019



METAR SVCS 191100Z 00000KT 9999 SCT070 XX/XX Q1019



METAR SVCS 181900Z 00000KT 9999 SCT070 XX/XX Q1014



METAR SVCS 181800Z 00000KT 9999 SCT070 XX/XX Q1016



METAR SVCS 181700Z 00000KT 9999 SCT070 XX/XX Q1017



METAR SVCS 181600Z 00000KT 9999 BKN050 XX/XX Q1017



METAR SVCS 181500Z 00000KT 9999 BKN050 XX/XX Q1018



METAR SVCS 181400Z 00000KT 9999 BKN050 XX/XX Q1019



METAR SVCS 181300Z 00000KT 9999 BKN040 XX/XX Q1019



METAR SVCS 181200Z 00000KT 9999 OVC040 XX/XX Q1019



METAR SVCS 181100Z 00000KT 9999 OVC040 XX/XX Q1019







METAR SVCS 121500Z 00000KT 9999 SCT070 XX/XX Q1017



METAR SVCS 121400Z 00000KT 9999 SCT070 XX/XX Q1018



METAR SVCS 121300Z 00000KT 9999 SCT070 XX/XX Q1019



METAR SVCS 121200Z 00000KT 9999 BKN050 XX/XX Q1019



METAR SVCS 121100Z 00000KT 9999 BKN050 XX/XX Q1019



METAR SVCS 071700Z 00000KT 9999 SCT070 XX/XX Q1016



METAR SVCS 071600Z 00000KT 9999 SCT070 XX/XX Q1017



METAR SVCS 071500Z 00000KT 9999 SCT070 XX/XX Q1018



METAR SVCS 071400Z 00000KT 9999 SCT070 XX/XX Q1019



METAR SVCS 071300Z 00000KT 9999 SCT070 XX/XX Q1019



METAR SVCS 071200Z 00000KT 9999 BKN050 XX/XX Q1019



METAR SVCS 071100Z 00000KT 9999 BKN050 XX/XX Q1019



METAR SVCS 062100Z 00000KT 9999 FEW020 XX/XX Q1012



METAR SVCS 062000Z 00000KT 9999 FEW020 XX/XX Q1013



METAR SVCS 061900Z 00000KT 9999 SCT070 XX/XX Q1015



METAR SVCS 061800Z 00000KT 9999 SCT070 XX/XX Q1016



METAR SVCS 061700Z 00000KT 9999 SCT070 XX/XX Q1017



METAR SVCS 061600Z 00000KT 9999 SCT070 XX/XX Q1017



METAR SVCS 051300Z 00000KT 9999 SCT050 XX/XX Q1018



METAR SVCS 051200Z 00000KT 9999 BKN040 XX/XX Q1018



METAR SVCS 051100Z 00000KT 7000 -HZ 0VC040 XX/XX Q1018 REDZ



METAR SVCS 032100Z 00000KT 9999 FEW020 XX/XX Q1013



METAR SVCS 032000Z 00000KT 9999 FEW030 XX/XX Q1013



METAR SVCS 031900Z 00000KT 9999 SCT070 XX/XX Q1014



METAR SVCS 031800Z 00000KT 9999 SCT070 XX/XX Q1015



METAR SVCS 031700Z 00000KT 9999 SCT050 XX/XX Q1016



METAR SVCS 031600Z 00000KT 9999 SCT050 XX/XX Q1016



METAR SVCS 031500Z 00000KT 9999 FEW030 XX/XX Q1016



METAR SVCS 031400Z 00000KT 9999 FEW030 XX/XX/ Q1017



METAR SVCS 031300Z 00000KT 9999 FEW020 XX/XX Q1017



METAR SVCS 031200Z 00000KT 9999 FEW020 XX/XX Q1017



METAR SVCS 031100Z 00000KT 9999 FEW020 XX/XX Q1017



METAR SVCS 311500Z 00000KT 9999 SCT070 XX/XX Q1018



METAR SVCS 311400Z 00000KT 9999 BKN050 XX/XX Q1018



METAR SVCS 311300Z 00000KT 7000 -HZ BKN040 XX/XX Q1019



METAR SVCS 311200Z 00000KT 1000 MIFG OVC010 XX/XX Q1019



METAR SVCS 311100Z 00000KT 5000 -HZ OVC030 XX/XX Q1019



METAR SVCS 291800Z 00000KT 9999 FEW020 XX/XX Q1015



METAR SVCS 291700Z 00000KT 9999 FEW030 XX/XX Q1016



METAR SVCS 291600Z 00000KT 9999 FEW030 XX/XX Q1017



METAR SVCS 282000Z 00000KT 9999 FEW020 XX/XX Q1013



METAR SVCS 282000Z 00000KT 9999 FEW020 XX/XX Q1013



METAR SVCS 281900Z 00000KT 9999 FEW020 XX/XX Q1014



METAR SVCS 281900Z 00000KT 9999 FEW020 XX/XX Q1014



METAR SVCS 281800Z 00000KT 9999 FEW030 XX/XX Q1015



METAR SVCS 281800Z 00000KT 9999 FEW030 XX/XX Q1015



METAR SVCS 281700Z 00000KT 9999 FEW030 XX/XX Q1016



METAR SVCS 281700Z 00000KT 9999 FEW030 XX/XX Q1016



METAR SVCS 281600Z 00000KT 9999 SCT050 XX/XX Q1017



METAR SVCS 281600Z 00000KT 9999 SCT050 XX/XX Q1017



METAR SVCS 281500Z 00000KT 9999 BKN050 XX/XX Q1018



METAR SVCS 281500Z 00000KT 9999 BKN050 XX/XX Q1018



METAR SVCS 281400Z 00000KT 5000 -HZ OVC030 XX/XX Q1019



METAR SVCS 281400Z 00000KT 5000 -HZ OVC030 XX/XX Q1019



METAR SVCS 281300Z 00000KT 1000 MIFG OVC010 XX/XX Q1019 REDZ



METAR SVCS 281200Z 00000KT 1000 MIFG -DZ OVC010 XX/XX Q1019



METAR SVCS 281200Z 00000KT 1000 MIFG -DZ OVC020 XX/XX Q1019



METAR SVCS 281100Z 00000KT 5000 +HZ OVC020 XX/XX Q1019



METAR SVCS 231900Z 00000KT 9999 SCT050 XX/XX Q1015



METAR SVCS 231800Z 00000KT 9999 SCT070 XX/XX Q1016



METAR SVCS 231700Z 00000KT 9999 SCT070 XX/XX Q1017



METAR SVCS 231600Z 00000KT 9999 SCT050 XX/XX Q1017



METAR SVCS 231500Z 00000KT 9999 SCT050 XX/XX Q1018



METAR SVCS 231400Z 00000KT 9999 BKN040 XX/XX Q1019



METAR SVCS 231300Z 00000KT 9999 BKN040 XX/XX Q1019



METAR SVCS 231200Z 00000KT 9999 OVC020 XX/XX Q1019



METAR SVCS 231100Z 00000KT 9999 OVC040 XX/XX Q1019



METAR SVCS 222000Z 00000KT 9999 SCT070 XX/XX Q1013



METAR SVCS 221900Z 00000KT 9999 SCT070 XX/XX Q1014



METAR SVCS 221800Z 00000KT 9999 SCT070 XX/XX Q1015



METAR SVCS 221700Z 00000KT 9999 SCT070 XX/XX Q1016



METAR SVCS 221600Z 00000KT 9999 SCT070 XX/XX Q1017



METAR SVCS 211600Z 00000KT 9999 BKN040 XX/XX Q1016



METAR SVCS 211500Z 00000KT 9999 BKN040 XX/XX Q1017



METAR SVCS 211400Z 00000KT 8000 -HZ OVC020 XX/XX Q1018



METAR SVCS 211300Z 00000KT 1000 MIFG OVC010 XX/XX Q1019



METAR SVCS 211200Z 00000KT 3000 +HZ OVC020 XX/XX Q1019



METAR SVCS 211100Z 00000KT 3000 +HZ OVC020 XX/XX Q1019



METAR SVCS 201700Z 00000KT 9999 SCT070 XX/XX Q1016



METAR SVCS 201600Z 00000KT 9999 BKN050 XX/XX Q1017



METAR SVCS 201600Z 00000KT 9999 SCT050 XX/XX Q1017



METAR SVCS 201500Z 00000KT 9999 BKN050 XX/XX Q1018



METAR SVCS 201500Z 00000KT 9999 BKN050 XX/XX Q1018



METAR SVCS 201500Z 00000KT 9999 BKN050 XX/XX Q1018



METAR SVCS 201500Z 00000KT 9999 BKN050 XX/XX Q1018



METAR SVCS 201400Z 00000KT 9999 BKN050 XX/XX Q1018



METAR SVCS 201400Z 00000KT 9999 BKN050 XX/XX Q1018



METAR SVCS 201300Z 00000KT 9999 BKN030 XX/XX Q1019



METAR SVCS 201300Z 00000KT 9999 BKN030 XX/XX Q1019



METAR SVCS 201200Z 00000KT 9999 OVC020 XX/XX Q1019



METAR SVCS 201200Z 00000KT 9999 OVC020 XX/XX Q1019



METAR SVCS 201100Z 00000KT 9999 OVC020 XX/XX Q1019



METAR SVCS 201100Z 00000KT 9999 OVC020 XX/XX Q1019



METAR SVCS 201100Z 00000KT 9999 OVC020 XX/XX Q109







METAR SVCS 152000Z 00000KT 9999 SKC XX/XX Q1013



METAR SVCS 151900Z 00000KT 9999 FEW030 XX/XX Q1014



METAR SVCS 151800Z 00000KT 9999 SCT070 XX/XX Q1015



METAR SVCS 151700Z 00000KT 9999 BKN050 XX/XX Q1016



METAR SVCS 151600Z 00000KT 9999 BKN040 XX/XX Q1017



METAR SVCS 151500Z 00000KT 7000 -HZ OVC030 XX/XX Q1018



METAR SVCS 151400Z 00000KT 3000 +HZ OVC020 XX/XX Q1018 REDZ



METAR SVCS 151300Z 00000KT 3000 +DZ OVC010 XX/XX Q1018



METAR SVCS 151200Z 00000KT 1000 +RA OVC010 XX/XX Q1018



METAR SVCS 151100Z 00000KT 1000 MIFG OVC010 XX/XX Q1018 REDZ



METAR SVCS 141200Z 00000KT 9999 BKN040 XX/XX Q1019



METAR SVCS 141100Z 00000KT 9999 BKN040 XX/XX Q1019



METAR SVCS 091300Z 00000KT 8000 -HZ BKN040 XX/XX Q1019



METAR SVCS 091200Z 00000KT 7000 -HZ OVC030 XX/XX Q1019



METAR SVCS 091100Z 00000KT 5000 +HZ OVC030 XX/XX Q1019 RERA



METAR SVCS 081700Z 00000KT 9999 BKN040 XX/XX Q1016



METAR SVCS 081600Z 00000KT 7000 -HZ OVC020 XX/XX Q1017



METAR SVCS 061900Z 00000KT 5000 +HZ OVC020 XX/XX Q1014



METAR SVCS 061800Z 00000KT 9999 BKN030 XX/XX Q1016



METAR SVCS 061700Z 00000KT 9999 BKN040 XX/XX Q1017



METAR SVCS 061600Z 00000KT 9999 BKN040 XX/XX Q1017



METAR SVCS 031900Z 00000KT 9999 SCT070 XX/XX Q1014



METAR SVCS 021900Z 00000KT 9999 FEW020 XX/XX Q1013



METAR SVCS 021800Z 00000KT 9999 SCT070 XX/XX Q1015



METAR SVCS 021700Z 00000KT 9999 SCT050 XX/XX Q1016



METAR SVCS 021600Z 00000KT 9999 BKN050 XX/XX Q1017



METAR SVCS 011900Z 00000KT 9999 SCT070 XX/XX Q1014



METAR SVCS 011800Z 00000KT 9999 SCT070 XX/XX Q1015



METAR SVCS 011700Z 00000KT 9999 BKN050 XX/XX Q1016



METAR SVCS 011600Z 00000KT 9999 BKN050 XX/XX Q1017



METAR SVCS 291900Z 00000KT 9999 SCT070 XX/XX Q1014



METAR SVCS 291800Z 00000KT 9999 SCT070 XX/XX Q1015



METAR SVCS 291700Z 00000KT 9999 SCT070 XX/XX Q1016



METAR SVCS 291600Z 00000KT 9999 SCT050 XX/XX Q1016



METAR SVCS 291500Z 00000KT 9999 BKN050 XX/XX Q1017



METAR SVCS 291400Z 00000KT 9999 BKN050 XX/XX Q1019



METAR SVCS 291300Z 00000KT 9999 BKN040 XX/XX Q1020



METAR SVCS 291200Z 00000KT 9999 BKN040 XX/XX Q1020



METAR SVCS 291100Z 00000KT 9999 BKN040 XX/XX Q1020



METAR SVCS 261700Z 00000KT 9999 FEW030 XX/XX Q1016



METAR SVCS 261600Z 00000KT 9999 SCT070 XX/XX Q1016



METAR SVCS 252100Z 00000KT 9999 FEW030 XX/XX Q1013



METAR SVCS 252000Z 00000KT 9999 FEW030 XX/XX Q1013



METAR SVCS 251900Z 00000KT 9999 SCT070 XX/XX Q1014



METAR SVCS 251800Z 00000KT 9999 SCT070 XX/XX Q1016



METAR SVCS 251700Z 00000KT 9999 SCT070 XX/XX Q1016



METAR SVCS 251600Z 00000KT 9999 SCT070 XX/XX Q1016



METAR SVCS 251600Z 00000KT 9999 BKN050 XX/XX Q1018



METAR SVCS 251500Z 00000KT 9999 BKN050 XX/XX Q1018



METAR SVCS 251400Z 00000KT 9999 BKN040 XX/XX Q1019



METAR SVCS 251300Z 00000KT 8000 -HZ OVC030 XX/XX Q1019



METAR SVCS 251200Z 00000KT 8000 -HZ OVC030 XX/XX Q1019



METAR SVCS 251100Z 00000KT 8000 -HZ OVC030 XX/XX Q1019



METAR SVCS 231300Z 00000KT 6000 -HZ BKN020 XX/XX Q1018



METAR SVCS 231200Z 00000KT 7000 -HZ OVC030 XX/XX Q1019



METAR SVCS 231100Z 00000KT 7000 -HZ OVC030 XX/XX Q1019



METAR SVCS 221900Z 00000KT 0500 MIFG OVC010 XX/XX Q1014 REDZ



METAR SVCS 221800Z 00000KT 3000 +HZ OVC020 XX/XX Q1015



METAR SVCS 221800Z 00000KT 3000 +HZ OVC020 XX/XX Q1015



METAR SVCS 221700Z 00000KT 5000 -HZ BKN020 XX/XX Q1016



METAR SVCS 221600Z 00000KT 1000 MIFG OVC020 XX/XX Q1017



METAR SVCS 221500Z 00000KT 1000 MIFG OVC020 XX/XX Q1018



METAR SVCS 221400Z 00000KT 4000 -DZ OVC020 XX/XX Q1018



METAR SVCS 191300Z 00000KT 7000 -HZ BKN030 XX/XX Q1020



METAR SVCS 191200Z 00000KT 7000 -HZ OVC030 XX/XX Q1020



METAR SVCS 191100Z 00000KT 7000 -HZ OVC030 XX/XX Q1020



METAR SVCS 161700Z 00000KT 9999 SCT040 XX/XX Q1016



METAR SVCS 161600Z 00000KT 9999 BKN040 XX/XX Q1017



METAR SVCS 152000Z 00000KT 2000 MIFG OVC010 XX/XX Q1013



METAR SVCS 151900Z 00000KT 2000 MIFG OVC010 XX/XX Q1014



METAR SVCS 151800Z 00000KT 5000 -HZ BKN020 XX/XX Q1015



METAR SVCS 151700Z 00000KT 5000 -HZ BKN020 XX/XX Q1016 RERA



METAR SVCS 151600Z 00000KT 1000 +RA OVC010 XX/XX Q1017



METAR SVCS 151500Z 00000KT 3000 -DZ OVC010 XX/XX Q1019



METAR SVCS 151400Z 00000KT 6000 -HZ OVC030 XX/XX Q1019



METAR SVCS 151300Z 00000KT 9000 -HZ OVC040 XX/XX Q1019



METAR SVCS 151100Z 00000KT 9000 -HZ OVC040 XX/XX Q1019



METAR SVCS 111900Z 00000KT 7000 -HZ BKN030 XX/XX Q1013 CBS



METAR SVCS 111800Z 00000KT 9999 BKN040 XX/XX Q1014



METAR SVCS 111700Z 00000KT 9999 SCT050 XX/XX Q1016



METAR SVCS 111600Z 00000KT 9999 SCT040 XX/XX Q1017



METAR SVCS 111500Z 00000KT 9999 FEW020 XX/XX Q1018



METAR SVCS 111400Z 00000KT 9999 FEW020 XX/XX Q1019



METAR SVCS 111300Z 00000KT 9999 FEW020 XX/XX Q1020



METAR SVCS 111200Z 00000KT 9999 FEW020 XX/XX Q1020



METAR SVCS 111100Z 00000KT 9999 FEW020 XX/XX Q1020



METAR SVCS 101900Z 00000KT 9999 FEW020 XX/XX Q1013



METAR SVCS 101800Z 00000KT 9999 FEW030 XX/XX Q1015



METAR SVCS 101700Z 00000KT 9999 SCT070 XX/XX Q1016



METAR SVCS 101600Z 00000KT 9999 SCT070 XX/XX Q1016



METAR SVCS 101500Z 00000KT 9999 SCT070 XX/XX Q1017



METAR SVCS 101400Z 00000KT 9999 SCT070 XX/XX Q1018



METAR SVCS 101300Z 00000KT 9999 SCT070 XX/XX Q1020



METAR SVCS 101200Z 00000KT 9999 SCT070 XX/XX Q1020



METAR SVCS 101100Z 00000KT 9999 SCT070 XX/XX Q1020



METAR SVCS 091700Z 00000KT 9999 FEW020 XX/XX Q1016



METAR SVCS 091600Z 00000KT 9999 SCT070 XX/XX Q1017



METAR SVCS 091500Z 00000KT 9999 SCT070 XX/XX Q1018



METAR SVCS 091400Z 00000KT 9999 SCT070 XX/XX Q1019



METAR SVCS 091300Z 00000KT 9999 SCT070 XX/XX Q1019



METAR SVCS 091200Z 00000KT 9999 SCT070 XX/XX Q1020



METAR SVCS 091100Z 00000KT 9999 SCT070 XX/XX Q1020



METAR SVCS 081800Z 00000KT 9999 FEW020 XX/XX Q1014



METAR SVCS 081700Z 00000KT 9999 SCT070 XX/XX Q1015



METAR SVCS 081700Z 00000KT 9999 SCT070 XX/XX Q1015



METAR SVCS 081600Z 00000KT 9999 SCT070 XX/XX Q1016



METAR SVCS 081500Z 00000KT 9999 SCT070 XX/XX Q1018



METAR SVCS 081400Z 00000KT 9999 BKN050 XX/XX Q1019



METAR SVCS 081300Z 00000KT 9999 BKN050 XX/XX Q1019



METAR SVCS 081200Z 00000KT 9999 BKN050 XX/XX Q1019



METAR SVCS 081100Z 00000KT 9999 BKN050 XX/XX Q1019



METAR SVCS 061300Z 00000KT 9999 OVC040 XX/XX Q1018



METAR SVCS 061200Z 00000KT 9999 OVC040 XX/XX Q1018



METAR SVCS 061100Z 00000KT 9999 OVC040 XX/XX Q1018







METAR SVCS 291900Z 00000KT 9999 BKN050 XX/XX Q1014



METAR SVCS 291800Z 00000KT 9999 BKN050 XX/XX Q1015



METAR SVCS 291700Z 00000KT 9999 BKN050 XX/XX Q1016



METAR SVCS 291600Z 00000KT 9999 BKN050 XX/XX Q1016



METAR SVCS 291500Z 00000KT 7000 -HZ OVC040 XX/XX Q1017



METAR CS 291400Z 00000KT 3000 +HZ OVC030 XX/XX Q1018



METAR CS 291300Z 00000KT 2000 MIFG OVC020 XX/XX Q1018



METAR CS 291200Z 00000KT 1000 MIFG OVC010 XX/XX Q1018



METAR CS 291100Z 00000KT 1000 MIFG OVC010 XX/XX Q1018 RERA



METAR 281500Z 00000KT 9999 FEW020 SCT070 XX/XX Q1018



METAR 281400Z 00000KT 9999 FEW020 SCT070 XX/XX Q1019



METAR 281300Z 00000KT 9999 FEW020 SCT070 XX/XX Q1019



METAR 281200Z 00000KT 9999 FEW020 SCT070 XX/XX Q1019



METAR 281100Z 00000KT 9999 FEW020 SCT070 XX/XX Q1019



METAR SVCS 261900Z 00000KT 9999 FEW020 XX/XX Q1014



METAR SVCS 261800Z 00000KT 9999 FEW030 XX/XX Q1015



METAR SVCS 261800Z 00000KT 9999 FEW030 XX/XX Q1015



METAR SVCS 261700Z 00000KT 9999 FEW030 XX/XX Q1016



METAR SVCS 261600Z 00000KT 9999 SCT070 XX/XX Q1018



METAR SVCS 261500Z 00000KT 9999 SCT070 XX/XX Q1019



METAR SVCS 261400Z 00000KT 9999 BKN050 XX/XX Q1019



METAR SVCS 261300Z 00000KT 9999 BKN050 XX/XX Q1019



METAR SVCS 261200Z 00000KT 9999 BKN050 XX/XX Q1019



METAR SVCS 261100Z 00000KT 9999 BKN050 XX/XX Q1019



METAR SVCS 251600Z 00000KT 9999 BKN050 XX/XX Q1017



METAR SVCS 221600Z 00000KT 7000 -HZ BKN040 XX/XX Q1019



METAR SVCS 221500Z 00000KT 7000 -HZ BKN040 XX/XX Q1019



METAR SVCS 221400Z 00000KT 5000 -HZ OVC020 XX/XX Q1019



METAR SVCS 221300Z 00000KT 4000 -HZ OVC020 XX/XX Q1020



METAR SVCS 221200Z 00000KT 4000 -HZ OVC020 XX/XX Q1020



METAR SVCS 221100Z 00000KT 4000 -HZ OVC020 XX/XX Q1020



METAR SVCS 212100Z 00000KT 7000 -HZ OVC030 XX/XX Q1013



METAR SVCS 212000Z 00000KT 7000 -HZ OVC030 XX/XX Q1013



METAR SVCS 211900Z 00000KT 9999 BKN050 XX/XX Q1014



METAR SVCS 211800Z 00000KT 9999 SCT070 XX/XX Q1015



METAR SVCS 211700Z 00000KT 9999 SCT070 XX/XX Q1016



METAR SVCS 211600Z 00000KT 9999 SCT070 XX/XX Q1017



METAR SVCS 201500Z 00000KT 6000 -HZ OVC020 XX/XX Q1019



METAR SVCS 201400Z 00000KT 7000 -HZ OVC020 XX/XX Q1019



METAR SVCS 201300Z 00000KT 7000 -HZ OVC020 XX/XX Q1019



METAR SVCS 201200Z 00000KT 7000 -HZ OVC020 XX/XX Q1019



METAR SVCS 201100Z 00000KT 7000 -HZ OVC020 XX/XX Q1019



METAR SVCS 201100Z 00000KT 7000 -HZ OVC020 XX/XX/Q1019



METAR SVMI 191400Z 00000KT 9999 FEW020 BKN050 XX/XX Q1018



METAR SVMI 191300Z 00000KT 9999 FEW020 BKN050 XX/XX Q1018



METAR SVMI 191200Z 00000KT 5000 -HZ OVC030 XX/XX Q1018



METAR SVMI 191100Z 00000KT 5000 -HZ OVC020 XX/XX Q1018



METAR SVCS 141500Z 00000KT 9999 BKN050 XX/XX Q1017



METAR SVCS 141400Z 00000KT 9999 BKN050 XX/XX Q1018



METAR SVCS 141300Z 00000KT 9999 BKN050 XX/XX Q1018



METAR SVCS 141200Z 00000KT 9999 BKN050 XX/XX Q1018



METAR SVCS 141100Z 00000KT 9999 BKN050 XX/XX Q1018



METAR SVCS 122100Z 00000KT 9999 FEW020 XX/XX Q1013



METAR SVCS 122000Z 00000KT 9999 FEW020 XX/XX Q1013



METAR SVCS 121900Z 00000KT 9999 FEW020 XX/XX Q1014



METAR SVCS 121800Z 00000KT 9999 FEW020 XX/XX Q1014



METAR SVCS 111500Z 00000KT 9999 BKN050 XX/XX Q1017



METAR SVCS 111400Z 00000KT 9999 BKN050 XX/XX Q1018



METAR SVCS 111300Z 00000KT 9999 BKN050 XX/XX Q1019



METAR SVCS 111200Z 00000KT 7000 -HZ OVC040 XX/XX/ Q1019



METAR SVCS 111100Z 00000KT 7000 -HZ OVC040 XX/XX/ Q1019



METAR SVCS 111100Z 00000KT 7000 -HZ OVC040 XX/XX/ Q1019



METAR SVCS 061400Z 00000KT 9999 SCT070 XX/XX Q1018



METAR SVCS 061300Z 00000KT 9999 SCT070 XX/XX Q1019



METAR SVCS 061200Z 00000KT 9999 SCT070 XX/XX Q1019



METAR SVCS 061100Z 00000KT 9999 SCT070 XX/XX Q1019



METAR SVCS 051600Z 00000KT 9999 SCT050 XX/XX Q1016



METAR SVCS 051500Z 00000KT 9999 BKN050 XX/XX Q1017



METAR SVCS 051400Z 00000KT 9999 BKN050 XX/XX Q1017



METAR SVCS 051300Z 00000KT 9999 BKN050 XX/XX Q1018



METAR SVCS 051200Z 00000KT 7000 -HZ BKN040 XX/XX Q1018



METAR SVCS 051100Z 00000KT 7000 -HZ BKN040 XX/XX Q1018



METAR SVCS 051100Z 00000KT 7000 -HZ BKN040 XX/XX/ Q1018



METAR SVCS 301900Z 00000KT 9999 SCT070 XX/XX Q1013



METAR SVCS 301900Z 00000KT 9999 SCT070 XX/XX Q1013



METAR SVCS 301800Z 00000KT 9999 SCT070 XX/XX Q1015



METAR SVCS 301800Z 00000KT 9999 SCT070 XX/XX Q1015



METAR SVCS 301700Z 00000KT 9999 SCT070 XX/XX Q1016



METAR SVCS 301700Z 00000KT 9999 SCT070 XX/XX Q1016







METAR SVCS 281800Z 00000KT 9999 BKN050 XX/XX Q1015



METAR SVCS 281700Z 00000KT 9999 BKN050 XX/XX Q1016



METAR SVCS 281600Z 00000KT 9999 BKN050 XX/XX/ Q1016



METAR SVCS 241500Z 00000KT 9999 SCT070 XX/XX Q1018



METAR SVCS 241400Z 00000KT 9999 SCT070 XX/XX Q1019



METAR SVCS 241300Z 00000KT 9999 SCT070 XX/XX Q1019



METAR SVCS 241200Z 00000KT 9999 SCT070 XX/XX Q1019



METAR SVCS 241100Z 00000KT 9999 SCT070 XX/XX Q1019



METAR SVCS 221700Z 00000KT 9999 SCT050 XX/XX Q1016



METAR SVCS 212000Z 00000KT 9999 BKN050 XX/XX Q1013



METAR SVCS 211900Z 00000KT 9999 BKN050 XX/XX Q1014



METAR SVCS 211800Z 00000KT 8000 -HZ BKN050 XX/XX Q1015



METAR SVCS 211700Z 00000KT 8000 -HZ BKN050 XX/XX Q1016



METAR SVCS 211600Z 00000KT 7000 +HZ BKN040 XX/XX Q1017



METAR SVCS 201700Z 00000KT 9999 SCT070 XX/XX Q1015



METAR SVCS 201600Z 00000KT 9999 SCT070 XX/XX Q1017



METAR SVCS 201500Z 00000KT 9999 SCT070 XX/XX Q1018



METAR SVCS 201400Z 00000KT 9999 BKN050 XX/XX Q1018



METAR SVCS 201300Z 00000KT 9999 BKN050 XX/XX Q1019



METAR SVCS 2012300Z 00000KT 9999 BKN050 XX/XX Q1019



METAR SVCS 201200Z 00000KT 9999 BKN050 XX/XX Q1019



METAR SVCS 201100Z 00000KT 9999 BKN050 XX/XX Q1019



METAR SVCS 171900Z 00000KT 9999 SCT070 XX/XX Q1013



METAR SVCS 171800Z 00000KT 9999 SCT070 XX/XX Q1014



METAR SVCS 171700Z 00000KT 9999 BKN050 XX/XX Q1015



METAR SVCS 171600Z 00000KT 9999 BKN050 XX/XX Q1016



METAR SVCS 171500Z 00000KT 9999 BKN050 XX/XX Q1017



METAR SVCS 171400Z 00000IKT 9999 BKN050 XX/XX Q1019



METAR SVCS 171300Z 00000IKT 9999 BKN050 XX/XX Q1019



METAR SVCS 171200Z 00000IKT 9999 BKN050 XX/XX Q1019



METAR SVCS 171100Z 00000IKT 9999 BKN050 XX/XX Q1019



METAR SVCS 141400Z 00000KT 9999 BKN050 XX/XX Q1018



METAR SVCS 141300Z 00000KT 9999 BKN050 XX/XX Q1018



METAR SVCS 141200Z 00000KT 9999 BKN050 XX/XX Q1018



METAR SVCS 141100Z 00000KT 9999 BKN050 XX/XX Q1018



METAR SVCS 131600Z 00000KT 9999 SCT070 XX/XX Q1016



METAR SVCS 131500Z 00000KT 9999 SCT070 XX/XX Q1017



METAR SVCS 131400Z 00000KT 9999 SCT070 XX/XX Q1019



METAR SVCS 131300Z 00000KT 9999 SCT070 XX/XX Q1019



METAR SVCS 131200Z 00000KT 9999 SCT070 XX/XX Q1019



METAR SVCS 131100Z 00000KT 9999 SCT070 XX/XX Q1019



METAR SVCS 101400Z 00000KT 9999 BKN050 XX/XX Q1019



METAR SVCS 101300Z 00000KT 9999 BKN040 XX/XX Q1019



METAR SVCS 101200Z 00000KT 9999 OVC030 XX/XX Q1019



METAR SVCS 101100Z 00000KT 9999 OVC030 XX/XX Q1019



METAR SVCS 091500Z 00000KT 9999 BKN050 XX/XX Q1018



METAR SVCS 091400Z 00000KT 6000 -HZ BKN030 XX/XX Q1018



METAR SVCS 091300Z 00000KT 3000 MIFG OVC020 XX/XX Q1019



METAR SVCS 091200Z 00000KT 1000 +RA OVC010 XX/XX Q1019



METAR SVCS 091100Z 00000KT 3000 +HZ OVC020 25/XX Q1019



METAR SVCS 081700Z 00000KT 9999 SCT070 XX/XX Q1015



METAR SVCS 081600Z 00000KT 9999 SCT050 XX/XX Q1017



METAR SVCS 081500Z 00000KT 9999 SCT050 XX/XX Q1018



METAR SVCS 081500Z 00000KT 9999 BKN050 XX/XX Q1018



METAR SVCS 081400Z 00000KT 9999 BKN050 XX/XX Q1018



METAR SVCS 081300Z 00000KT 9999 BKN050 XX/XX Q1019



METAR SVCS 081200Z 00000KT 9999 SCT050 XX/XX Q1019



METAR SVCS 081100Z 00000KT 9999 FEW020 XX/XX Q1019



METAR SVCS 061600Z 00000KT 9999 SCT070 XX/XX Q1016



METAR SVCS 061500Z 00000KT 9999 BKN050 XX/XX Q1017



METAR SVCS 061400Z 00000KT 9999 BKN040 XX/XX Q1017



METAR SVCS 061300Z 00000KT 9999 BKN040 XX/XX Q1018



METAR SVCS 061200Z 00000KT 9999 BKN040 XX/XX Q1018



METAR SVCS 061100Z 00000KT 9999 BKN040 XX/XX Q1018



METAR SVCS 051700Z 00000KT 9999 BKN050 XX/XX Q1015



METAR SVCS 051600Z 00000KT 9999 BKN050 XX/XX Q1017



METAR SVCS 051500Z 00000KT 9999 BKN050 XX/XX Q1018



METAR SVCS 051400Z 00000KT 9999 BKN050 XX/XX Q1019



METAR SVCS 051300Z 00000KT 9999 BKN050 XX/XX Q1019



METAR SVCS 051200Z 00000KT 9999 BKN050 XX/XX Q1019



METAR SVCS 051100Z 00000KT 9999 BKN050 XX/XX Q1019



METAR SVCS 051100Z 00000KT 9999 BKN050 XX/XX Q1019



METAR SVCS 041900Z 00000KT 9999 FEW030 XX/XX Q1013



METAR SVCS 041800Z 00000KT 9999 SCT070 XX/XX Q1014



METAR SVCS 041800Z 00000KT 9999 SCT070 XX/XX Q101



METAR SVCS 041700Z 00000KT 9999 SCT070 XX/XX Q1015



METAR SVCS 041600Z 00000KT 9999 SCT070 XX/XX Q1016



METAR SVCS 041500Z 00000KT 9999 SCT070 XX/XX Q1017



METAR SVCS 041400Z 00000KT 9999 SCT070 XX/XX Q1019



METAR SVCS 041400Z 00000KT 9999 SCT070 XX/XX Q1019



METAR SVCS 041300Z 00000KT 9999 SCT070 XX/XX Q1019



METAR SVCS 041200Z 00000KT 9999 BKN050 XX/XX Q1019



METAR SVCS 041100Z 00000KT 9999 BKN050 XX/XX Q1019







METAR SVCS 011800Z 00000KT 9999 FEW020 30/XX Q1014



METAR SVCS 011700Z 00000KT 9999 SCT070 30/XX Q1015



METAR SVCS 011600Z 00000KT 9999 SCT070 29/XX Q1017



METAR SVCS 011500Z 00000KT 9999 SCT070 29/XX Q1017



METAR SVCS 011400Z 00000KT 9999 SCT050 28/XX Q1018



METAR SVCS 011300Z 00000KT 9999 BKN050 27/XX Q1018



METAR SVCS 011200Z 00000KT 9999 BKN050 27/XX Q1018



METAR SVCS 011100Z 00000KT 7000 -HZ BKN050 XX/XX Q1018



METAR SVCS 301700Z 00000KT 9999 BKN050 XX/XX Q1015



METAR SVCS 301600Z 00000KT 9999 BKN050 XX/XX Q1016



METAR SVCS 301500Z 00000KT 9999 BKN050 XX/XX Q1017



METAR SVCS 301400Z 00000KT 9999 BKN050 XX/XX Q1017



METAR SVCS 301300Z 00000KT 8000 -HZ BKN040 XX/XX Q1018



METAR SVCS 301200Z 00000KT 7000 -HZ BKN040 XX/XX Q1018



METAR SVCS 301100Z 00000KT 7000 -HZ BKN040 XX/XX Q1018











METAR SVCS 241300Z 00000KT 9999 BKN050 XX/XX Q1019



METAR SVCS 241200Z 00000KT 9999 BKN050 XX/XX Q1019



METAR SVCS 241100Z 00000KT 9999 BKN050 XX/XX Q1019



METAR SVCS 231800Z 00000KT 9999 SCT070 XX/XX Q1014



METAR SVCS 231700Z 00000KT 9999 SCT070 XX/XX Q1015



METAR SVCS 231600Z 00000KT 9999 SCT070 XX/XX Q1016



METAR SVCS 231500Z 00000KT 9999 BKN050 XX/XX Q1017



METAR SVCS 231400Z 00000KT 9999 BKN050 XX/XX Q1018



METAR SVCS 231300Z 00000KT 9999 BKN050 XX/XX Q1019



METAR SVCS 231200Z 00000KT 9999 OVC040 XX/XX Q1019



METAR SVCS 231100Z 00000KT 9999 OVC040 XX/XX Q1019



METAR SVCS 201900Z 00000KT 9999 SCT070 30/XX Q1014



METAR SVCS 201800Z 00000KT 9999 SCT070 30/XX Q1015



METAR SVCS 201700Z 00000KT 9999 SCT070 30/XX Q1015



METAR SVCS 201600Z 00000KT 9999 SCT070 29/XX Q1016



METAR SVCS 201500Z 00000KT 9999 SCT070 28/XX Q1017



METAR SVCS 201400Z 00000KT 9999 SCT070 27/XX Q1019



METAR SVCS 201300Z 00000KT 9999 BKN050 27/XX Q1019



METAR SVCS 201200Z 00000KT 9999 BKN050 26/XX Q1019



METAR SVCS 201100Z 00000KT 9999 BKN050 26/XX Q1019



METAR SVCS 181500Z 00000KT 9999 BKN050 28/XX Q1017



METAR SVCS 181400Z 00000KT 9999 SCT070 27/XX Q1019



METAR SVCS 181300Z 00000KT 9999 SCT070 27/XX Q1019



METAR SVCS 181200Z 00000KT 9999 SCT070 26/XX Q1019



METAR SVCS 181100Z 00000KT 9999 SCT070 26/XX Q1019



METAR SVCS 161500Z 00000KT 9999 SCT070 28/XX Q1018



METAR SVCS 161400Z 00000KT 9999 SCT070 27/XX Q1018



METAR SVCS 161300Z 00000KT 9999 SCT070 27/XX Q1018



METAR SVCS 161200Z 00000KT 9999 SCT050 26/XX Q1018



METAR SVCS 161100Z 00000KT 9999 SCT050 26/XX Q1018



METAR SVCS 121800Z 00000KT 9999 SCT070 30/XX Q1015



METAR SVCS 121700Z 00000KT 9999 SCT070 30/XX Q1016



METAR SVCS 121600Z 00000KT 9999 SCT070 29/XX Q1017







METAR SVCS 091500Z 00000KT 9999 SCT070 28/XX Q1017



METAR SVCS 091400Z 00000KT 9999 SCT070 28/XX Q1019



METAR SVCS 091300Z 00000KT 9999 SCT070 27/XX Q1019



METAR SVCS 091200Z 00000KT 9999 SCT070 26/XX Q1019



METAR SVCS 091100Z 00000KT 9999 SCT070 26/XX Q1019



METAR SVCS 051900Z 00000KT 3000 MIFG OVC020 27/XX Q1013



METAR SVCS 051800Z 00000KT 3000 MIFG OVC020 27/XX Q1014



METAR SVCS 051700Z 00000KT 5000 +HZ OVC020 27/XX Q1015



METAR SVCS 051600Z 00000KT 5000 +HZ OVC020 27/XX Q1017



METAR SVCS 051500Z 00000KT 3000 +HZ OVC020 27/XX Q1018



METAR SVCS 051400Z 00000KT 3000 +HZ OVC020 27/XX Q1019



METAR SVCS 051400Z 00000KT 3000 +HZ OVC020 27/XX Q1019



METAR SVCS 051300Z 00000KT 2000 +HZ OVC010 26/XX Q1019



METAR SVCS 051300Z 00000KT 2000 +HZ OVC010 26/XX Q1019



METAR SVCS 051200Z 00000KT 1000 MIFG OVC010 25/XX Q1019 REDZ



METAR SVCS 051100Z 00000KT 1000 MIFG OVC010 25/XX Q1019



METAR SVCS 041400Z 00000KT 9999 BKN040 28/XX Q1018



METAR SVCS 041300Z 00000KT 7000 -HZ OVC030 27/XX Q1018



METAR SVCS 041200Z 00000KT 7000 -HZ OVC030 26/XX Q1018



METAR SVCS 041100Z 00000KT 7000 -HZ OVC030 26/XX Q1018



METAR SVCS 031600Z 00000KT 9999 SCT070 29/XX Q1016



METAR SVCS 031500Z 00000KT 9999 SCT070 28/XX Q1017



METAR SVCS 031400Z 00000KT 9999 SCT070 27/XX Q1019



METAR SVCS 031300Z 00000KT 9999 SCT070 27/XX Q1019



METAR SVCS 031300Z 00000KT 9999 SCT070 27/XX Q1019



METAR SVCS 031200Z 00000KT 9999 SCT070 26/XX Q1019



METAR SVCS 031100Z 00000KT 9999 SCT070 26/XX Q1019



METAR SVCS 021200Z 00000KT 9999 SCT070 26/XX Q1019



METAR SVCS 021100Z 00000KT 9999 SCT070 26/XX Q1019



METAR SVCS 271300Z 00000KT 1000 MIFG OVC010 27/XX Q1020 REDZ



METAR SVCS 271200Z 00000KT 1000 MIFG -DZ OVC010 27/XX Q1020



METAR SVCS 271100Z 00000KT 1000 MIFG -DZ OVC010 27/XX Q1020



METAR SVCS 251400Z 00000KT 9999 SCT070 27/XX Q1019



METAR SVCS 251300Z 00000KT 9999 SCT070 27/XX Q1019



METAR SVCS 251200Z 00000KT 9999 SCT070 26/XX Q1019



METAR SVCS 251100Z 00000KT 9999 SCT070 26/XX Q1019



METAR SVCS 231900Z 00000KT 9999 FEW020 29/XX Q1013



METAR SVCS 231800Z 00000KT 9999 SCT070 29/XX Q1015



METAR SVCS 231700Z 00000KT 9999 SCT070 29/XX Q1015



METAR SVCS 231600Z 00000KT 9999 BKN050 28/XX Q1016







METAR SVCS 201200Z 00000KT 9999 SCT050 26/XX Q1018



METAR SVCS 201100Z 00000KT 9999 BKN050 26/XX Q1018



METAR SVCS 201100Z 00000KT 9999 BKN050 26/XX Q1018



METAR SVCS 182000Z 00000KT 9999 FEW020 29/XX Q1012



METAR SVCS 181900Z 00000KT 9999 FEW020 29/XX Q1013



METAR SVCS 181800Z 00000KT 9999 FEW020 29/XX Q1014



METAR SVCS 181700Z 00000KT 9999 FEW020 29/XX Q1015



METAR SVCS 181600Z 00000KT 9999 FEW030 29/XX Q1016



METAR SVCS 181500Z 00000KT 9999 SCT070 29/XX Q1017



METAR SVCS 181400Z 00000KT 9999 SCT070 28/XX Q1018



METAR SVCS 181300Z 00000KT 9999 SCT070 27/XX Q1019



METAR SVCS 181200Z 00000KT 9999 BKN050 26/XX Q1019



METAR SVCS 181100Z 00000KT 9999 BKN040 26/XX Q1019







METAR SVCS 112000Z 00000KT 9999 FEW030 30/XX Q1012



METAR SVCS 111900Z 00000KT 9999 FEW030 31/XX Q1013



METAR SVCS 111800Z 00000KT 9999 SCT070 31/XX Q1014



METAR SVCS 111700Z 00000KT 9999 SCT070 30/XX Q1015



METAR SVCS 111600Z 00000KT 9999 SCT070 29/XX Q1017



METAR SVCS 111500Z 00000KT 9999 SCT070 28/XX Q1018



METAR SVCS 111400Z 00000KT 9999 BKN050 27/XX Q1019



METAR SVCS 111300Z 00000KT 9999 BKN050 27/XX Q1019



METAR SVCS 111200Z 00000KT 9999 BKN050 26/XX Q1019



METAR SVCS 101800Z 00000KT 9999 FEW040 30/XX Q1014



METAR SVCS 101700Z 00000KT 9999 SCT070 30/XX Q1015



METAR SVCS 101600Z 00000KT 9999 SCT070 28/XX Q1016



METAR SVCS 101500Z 00000KT 9999 BKN050 28/XX Q1017



METAR SVCS 101400Z 00000KT 9999 BKN050 27/XX Q1018



METAR SVCS 101300Z 00000KT 9999 BKN050 27/XX Q1018



METAR SVCS 101200Z 00000KT 9999 BKN050 26/XX Q1018



METAR SVCS 101100Z 00000KT 9999 BKN050 26/XX Q1019



METAR SVCS 091600Z 00000KT 9999 SCT070 28/XX Q1017



METAR SVCS 091500Z 00000KT 9999 SCT070 28/XX Q1018



METAR SVCS 091400Z 00000KT 9999 BKN050 27/XX Q1018



METAR SVCS 091300Z 00000KT 9999 BKN050 27/XX Q1018



METAR SVCS 091200Z 00000KT 7000 -HZ OVC040 26/XX Q1018



METAR SVCS 091100Z 00000KT 7000 -HZ OVC040 26/XX Q1018



METAR SVCS 051900Z 00000KT 9999 SKC 30/XX Q1015



METAR SVCS 051800Z 00000KT 9999 SKC 30/XX Q1015



METAR SVCS 051800Z 00000KT 9999 SKC 30/XX Q1015



METAR SVCS 051700Z 00000KT 9999 FEW020 29/XX Q1017



METAR SVCS 051600Z 00000KT 9999 FEW020 28/XX Q1018



METAR SVCS 051500Z 00000KT 9999 FEW020 28/XX Q1020



METAR SVCS 051400Z 00000KT 9999 FEW020 28/XX Q1020



METAR SVCS 051300Z 00000KT 9999 FEW020 27/XX Q1020



METAR SVCS 051200Z 00000KT 9999 SKC 26/XX Q1020



METAR SVCS 051100Z 00000KT 9999 SKC 26/XX Q1020



METAR SVCS 031500Z 00000KT 9999 FEW030 28/XX Q1018



METAR SVCS 031400Z 00000KT 9999 FEW030 27/XX Q1019



METAR SVCS 031300Z 00000KT 9999 FEW030 23/XX Q1020



METAR SVCS 031200Z 00000KT 9999 FEW030 26/XX Q1020



METAR SVCS 031100Z 00000KT 9999 FEW030 26/XX Q1020







METAR SVCS 301400Z 00000KT 9999 BKN050 27/XX Q1018



METAR SVCS 301300Z 00000KT 9999 BKN040 27/XX Q1018



METAR SVCS 301200Z 00000KT 9999 BKN040 26/XX Q1018



METAR SVCS 301100Z 00000KT 9999 BKN040 26/XX Q1018



METAR SVCS 281600Z 00000KT 9999 SCT070 28/XX Q1017



METAR SVCS 281500Z 00000KT 9999 SCT070 28/XX Q1019



METAR SVCS 281400Z 00000KT 9999 SCT070 27/XX Q1019



METAR SVCS 271700Z 00000KT 9999 FEW020 29/XX Q1016



METAR SVCS 271600Z 00000KT 9999 FEW020 29/XX Q1017



METAR SVCS 271500Z 00000KT 9999 FEW020 28/XX Q1018



METAR SVCS 271400Z 00000KT 9999 FEW020 27/XX Q1018



METAR SVCS 271300Z 00000KT 7000 -HZ BKN030 26/XX Q1019



METAR SVCS 271200Z 00000KT 1000 MIFG OVC010 25/XX Q1019



METAR SVCS 271100Z 00000KT 1000 MIFG OVC010 25/XX Q1019



METAR SVCS 261700Z 00000KT 9999 SCT070 29/XX Q1016



METAR SVCS 261600Z 00000KT 9999 SCT070 29/XX Q1016



METAR SVCS 261500Z 00000KT 9999 SCT070 28/XX Q1017



METAR SVCS 261400Z 00000KT 9999 SCT070 28/XX Q1019



METAR SVCS 261300Z 00000KT 9999 BKN050 27/XX Q1019



METAR SVCS 261200Z 00000KT 9999 BKN050 26/XX Q1019



METAR SVCS 261100Z 00000KT 9999 BKN050 26/XX Q1019



METAR SVCS 221900Z 00000KT 9999 BKN050 29/XX Q1013



METAR SVCS 221800Z 00000KT 9999 SCT050 29/XX Q1014



METAR SVCS 221700Z 00000KT 9999 SCT050 29/XX Q1015



METAR SVCS 221600Z 00000KT 9999 BKN050 29/XX Q1016



METAR SVCS 221500Z 00000KT 9999 BKN050 28/XX Q1018



METAR SVCS 221500Z 00000KT 9999 BKN500 28/XX Q1018



METAR SVCS 221400Z 00000KT 9999 BKN500 28/XX Q1018



METAR SVCS 221300Z 00000KT 9999 OVC040 27/XX Q1018



METAR SVCS 221200Z 00000KT 8000 -HZ OVC030 26/XX Q1018



METAR SVCS 221100Z 00000KT 8000 -HZ OVC030 25/XX Q1018



METAR SVCS 211700Z 00000KT 9999 SCT070 29/XX Q1015



METAR SVCS 211600Z 00000KT 9999 SCT070 29/XX Q1016



METAR SVCS 211500Z 00000KT 9999 SCT070 28/XX Q1018



METAR SVCS 211400Z 00000KT 9999 SCT070 28/XX Q1018



METAR SVCS 211300Z 00000KT 9999 SCT070 27/XX Q1018



METAR SVCS 211200Z 00000KT 9999 FEW020 SCT070 25/XX Q1018



METAR SVCS 211100Z 00000KT 9999 FEW020 SCT070 25/XX Q1018



METAR 201400Z 00000KT 9999 BKN050 27/XX Q1018



METAR 201300Z 00000KT 9999 BKN040 25/XX Q1018



METAR 201200Z 00000KT 8000 -HZ BKN030 25/XX Q1018



METAR 201100Z 00000KT 8000 -HZ BKN030 25/XX Q1018



METAR SVCS 191900Z 00000KT 9999 BKN050 29/XX Q1013



METAR SVCS 191800Z 00000KT 9999 BKN050 29/XX Q1014



METAR SVCS 191700Z 00000KT 9999 BKN050 29/XX Q1015



METAR SVCS 191600Z 00000KT 9999 SCT070 29/XX Q1016



METAR SVCS 191500Z 00000KT 9999 SCT070 28/XX Q1018



METAR SVCS 191400Z 00000KT 9999 SCT070 28/XX Q1019



METAR SVCS 191300Z 00000KT 9999 SCT070 27/XX Q1019



METAR SVCS 191200Z 00000KT 9999 SCT070 26/XX Q1019



METAR SVCS 191100Z 00000KT 9999 SCT070 25/XX Q1019



METAR SVCS 171600Z 00000KT 9999 FEW020 29/XX Q1017



METAR SVCS 171600Z 00000KT 9999 FEW020 29/XX Q1017



METAR SVCS 171500Z 00000KT 9999 FEW020 28/XX Q1019



METAR SVCS 171500Z 00000KT 9999 FEW020 28/XX Q1019



METAR SVCS 171400Z 00000KT 9999 SCT070 27/XX Q1019



METAR SVCS 171400Z 00000KT 9999 SCT070 27/XX Q1019



METAR SVCS 171300Z 00000KT 9999 SCT070 27/XX Q1019



METAR SVCS 171200Z 00000KT 9999 SCT070 25/XX Q1019



METAR SVCS 171300Z 00000KT 9999 SCT070 27/XX Q1019



METAR SVCS 171200Z 00000KT 9999 SCT070 25/XX Q1019



METAR SVCS 171100Z 00000KT 9999 SCT070 25/XX Q1019



METAR SVCS 171100Z 00000KT 9999 SCT070 25/XX Q1019



METAR SVCS 171100Z 00000KT 9999 SCT070 25/XX Q1019







METAR SVCS 141400Z 00000KT 9000 -HZ OVC030 27/XX Q1018



METAR SVCS 141400Z 00000KT 9000 -HZ OVC030 27/XX Q1018



METAR SVCS 141300Z 00000KT 8000 +HZ OVC030 26/XX Q1018



METAR SVCS 141300Z 00000KT 8000 +HZ OVC030 26/XX Q1018



METAR SVCS 141200Z 00000KT 5000 +HZ OVC020 25/XX Q1018



METAR SVCS 141200Z 00000KT 5000 +HZ OVC020 25/XX Q1018



METAR SVCS 141200Z 00000KT 5000 +HZ OVC020 25/XX Q1018



METAR SVCS 141100Z 00000KT 5000 +HZ OVC020 25/XX Q1018



METAR SVCS 141100Z 00000KT 5000 +HZ OVC020 25/XX Q1018



METAR SVCS 131500Z 00000KT 9999 BKN040 27/XX Q1017



METAR SVCS 131500Z 00000KT 9999 BKN040 27/XX Q1017



METAR SVCS 131400Z 00000KT 9999 BKN040 27/XX Q1017



METAR SVCS 131400Z 00000KT 9999 BKN040 27/XX Q1017



METAR SVCS 131300Z 00000KT 5000 +HZ OVC030 26/XX Q1017



METAR SVCS 131300Z 00000KT 5000 +HZ OVC030 26/XX Q1017



METAR SVCS 131200Z 00000KT 1000 MIFG OVC010 25/XX Q1017



METAR SVCS 131200Z 00000KT 1000 MIFG OVC010 25/XX Q1017



METAR SVCS 131100Z 00000KT 1000 MIFG OVC010 25/XX Q1017



METAR SVCS 131100Z 00000KT 1000 MIFG OVC010 25/XX Q1017



METAR SVCS 122000Z 00000KT 9999 SCT070 29/XX Q1012



METAR SVCS 122000Z 00000KT 9999 SCT070 29/XX Q1012



METAR SVCS 122000Z 00000KT 9999 SCT070 29/XX Q1013



METAR SVCS 121900Z 00000KT 9999 SCT070 29/XX Q1013



METAR SVCS 121900Z 00000KT 9999 SCT070 29/XX Q1013



METAR SVCS 121800Z 00000KT 9999 SCT070 29/XX Q1014



METAR SVCS 121800Z 00000KT 9999 SCT070 29/XX Q1014



METAR SVCS 121700Z 00000KT 9999 SCT070 29/XX Q1014



METAR SVCS 121700Z 00000KT 9999 SCT070 29/XX Q1014



METAR SVCS 121600Z 00000KT 9999 BKN050 28/XX Q1016



METAR SVCS 121600Z 00000KT 9999 BKN050 28/XX Q1016



METAR SVCS 121600Z 00000KT 9999 BKN050 28/XX Q1016



METAR SVCS 121600Z 00000KT 0000 BKN050 28/XX Q1016



METAR SVCS 111600Z 00000KT 9999 OVC030 28/XX Q1016



METAR SVCS 111500Z 00000KT 9999 BKN040 28/XX Q1018



METAR SVCS 111400Z 00000KT 8000 -HZ OVC030 27/XX Q1018



METAR SVCS 111300Z 00000KT 7000 +HZ OVC030 26/XX Q1018



METAR SVCS 111200Z 00000KT 7000 +HZ OVC020 25/XX Q1018



METAR SVCS 111100Z 00000KT 7000 +HZ OVC020 25/XX Q1018



METAR SVCS 091400Z 00000KT 9999 BKN040 27/XX Q1019



METAR SVCS 091300Z 00000KT 9999 BKN040 26/XX Q1019



METAR SVCS 091200Z 00000KT 7000 +HZ OVC020 25/XX Q1019



METAR SVCS 091100Z 00000KT 7000 +HZ OVC020 25/XX Q1019



METAR SVCS 081700Z 00000KT 9999 SCT070 30/XX Q1015



METAR SVCS 081600Z 00000KT 9999 SCT070 29/XX Q1017



METAR SVCS 081500Z 00000KT 9999 SCT050 28/XX Q1019



METAR SVCS 081400Z 00000KT 9999 FEW030 27/XX Q1020



METAR SVCS 081300Z 00000KT 9999 FEW030 27/XX Q1020



METAR SVCS 081200Z 00000KT 9999 SKC 26/XX Q1020



METAR SVCS 081100Z 00000KT 9999 SKC 25/XX Q1020







METAR SVCS 051700Z 00000KT 9999 SCT070 30/XX Q1015



METAR SVCS 051600Z 00000KT 9999 SCT070 29/XX Q1016



METAR SVCS 051500Z 00000KT 9999 SCT070 28/XX Q1017



METAR SVCS 051400Z 00000KT 9999 SCT070 28/XX Q1018



METAR SVCS 051400Z 00000KT 9999 SCT070 27/XX Q1018



METAR SVCS 051300Z 00000KT 9999 BKN050 27/XX Q1018



METAR SVCS 051200Z 00000KT 9999 BKN050 26/XX Q1018



METAR SVCS 051100Z 00000KT 9999 BKN050 26/XX Q1018



METAR SVCS 021800Z 00000KT 9999 BKN050 28/XX Q1014



METAR SVCS 021700Z 00000KT 9999 BKN050 28/XX Q1015



METAR SVCS 021600Z 00000KT 9999 BKN040 28/XX Q1016



METAR SVCS 021500Z 00000KT 1000 MIFG OVC010 26/XX Q1017 RERA



METAR SVCS 021400Z 00000KT 0500 +RA OVC010 26/XX Q1017



METAR SVCS 021300Z 00000KT 0500 MIFG OVC010 25/XX Q1017 RERA



METAR SVCS 021200Z 00000KT 1000 MIFG OVC010 25/XX Q1017 REDZ



METAR SVCS 021100Z 00000KT 2000 MIFG -DZ OVC020 25/XX Q1017







METAR SVCS 301600Z 00000KT 1000 MIFG OVC020 27/XX Q1015



METAR SVCS 301500Z 00000KT 4000 +HZ OVC030 27/XX Q1017



METAR SVCS 301400Z 00000KT 2000 MIFG OVC020 26/XX Q1017 REDZ



METAR SVCS 301300Z 00000KT 2000 +DZ MIFG OVC010 25/XX Q1017



METAR SVCS 301200Z 00000KT 1000 MIFG OVC010 25/XX Q1017



METAR SVCS 301100Z 00000KT 1000 MIFG OVC010 24/XX Q1017



METAR SVCS 291900Z 00000KT 9999 FEW020 28/XX Q1013



METAR SVCS 291800Z 00000KT 9999 FEW020 28/XX Q1013







METAR SVCS 261400Z 00000KT 1000 MIFG -DZ OVC010 26/XX Q1017



METAR SVCS 261300Z 00000KT 1000 MIFG OVC010 25/XX Q1017



METAR SVCS 261200Z 00000KT 1000 MIFG OVC010 25/XX Q1017 REDZ



METAR SVCS 261200Z 00000KT 1000 MIFG OVC010 25/XX Q1017



METAR SVCS 261100Z 00000KT 1000 MIFG OVC010 25/XX Q1017



METAR SVCS 251500Z 00000KT 9999 SCT070 29/XX Q1017



METAR SVCS 251400Z 00000KT 9999 BKN050 28/XX Q1017



METAR SVCS 251300Z 00000KT 9999 BKN050 28/XX Q1017



METAR SVCS 241100Z 00000KT 7000 -HZ BKN050 26/XX 1017



METAR SVCS 232200Z 00000KT 5000 +HZ OVC020 26/XX Q1011



METAR SVCS 232100Z 00000KT 9999 OVC030 28/XX Q1012



METAR SVCS 232000Z 00000KT 9999 BKN040 30/XX Q1012



METAR SVCS 231900Z 00000KT 9999 BKN050 30/XX Q1013



METAR SVCS 231800Z 00000KT 9999 BKN050 30/XX Q1015







METAR SVCS 121700Z 00000KT 9999 SCT070 29/XX Q1016



METAR SVCS 121100Z 00000KT 9999 BKN030 25/XX Q1017



METAR SVCS 101500Z 00000KT 9999 SCT070 27/XX Q1018



METAR SVCS 101400Z 00000KT 9999 SCT070 27/XX Q1018



METAR SVCS 101400Z 00000KT 9999 SCT070 27/XX Q1018



METAR SVCS 101300Z 00000KT 9999 SCT070 27/XX Q1018



METAR SVCS 101200Z 00000KT 9999 BKN050 26/XX Q1018



METAR SVCS 101100Z 00000KT 9999 BKN050 26/XX Q1018



METAR SVCS 082000Z 00000KT 9999 FEW020 30/XX Q1011



METAR SVCS 081900Z 00000KT 9999 FEW020 30/XX Q1012



METAR SVCS 032000Z 00000KT 9999 FEW020 30/XX Q1011



METAR SVCS 031900Z 00000KT 9999 FEW040 30/XX Q1013



METAR SVCS 031800Z 00000KT 9999 FEW040 30/XX Q1013



METAR SVCS 031700Z 00000KT 9999 SCT070 29/XX Q1015



METAR SVCS 031600Z 00000KT 9999 SCT070 29/XX Q1015



METAR SVCS 031500Z 00000KT 9999 BKN050 28/XX Q1017



METAR SVCS 031400Z 00000KT 9999 BKN050 27/XX Q1017



METAR SVCS 031300Z 00000KT 9999 OVC050 27/XX Q1017



METAR SVCS 031200Z 00000KT 7000 +HZ OVC030 26/XX Q1017



METAR SVCS 031100Z 00000KT 7000 +HZ OVC030 26/XX Q1017



METAR SVCS 021800Z 00000KT 9999 SCT070 30/XX Q1013



METAR SVCS 021700Z 00000KT 9999 SCT070 30/XX Q1014



METAR SVCS 021600Z 00000KT 9999 SCT070 30/XX Q1015



METAR SVCS 021500Z 00000KT 9999 SCT070 29/XX Q1017



METAR SVCS 021400Z 00000KT 9999 SCT050 28/XX Q1018



METAR SVCS 021300Z 00000KT 9999 FEW020 27/XX Q1018



METAR SVCS 021200Z 00000KT 9999 FEW020 26/XX Q1018



METAR SVCS 021100Z 00000KT 9999 FEW020 26/XX Q1018



METAR SVCS 011700Z 00000KT 9999 SCT070 29/XX Q1015



METAR SVCS 011600Z 00000KT 9999 SCT070 29/XX Q1016







METAR SVCS 261700Z 00000KT 9999 BKN040 28/XX Q1016



METAR SVCS 261600Z 00000KT 9999 SCT070 28/XX Q1016



METAR SVCS 261500Z 00000KT 9999 SCT070 28/XX Q1018



METAR SVCS 261400Z 00000KT 9999 SCT070 28/XX Q1018



METAR SVCS 261300Z 00000KT 9999 SCT070 27/XX Q1018



METAR SVCS 261200Z 00000KT 9999 BKN050 27/XX Q1018



METAR SVCS 261100Z 00000KT 9999 BKN050 26/XX Q1018



METAR SVCS 241500Z 00000KT 3000 MIFG OVC020 27/XX Q1016



METAR SVCS 241400Z 00000KT 2000 MIFG OVC010 27/XX Q1017



METAR SVCS 241300Z 00000KT 1000 MIFG OVC010 27/XX Q1017 REDZ



METAR SVCS 241200Z 00000KT 1000 MIFG OVC010 26/XX Q1017



METAR SVCS 241100Z 00000KT 1000 MIFG OVC010 26/XX Q1017



METAR SVCS 211700Z 00000KT 9999 BKN050 28/XX Q1015



METAR SVCS 211600Z 00000KT 9999 BKN050 28/XX Q1016



METAR SVCS 201300Z 00000KT 9999 SCT070 27/XX Q1018



METAR SVCS 201200Z 00000KT 9999 SCT070 26/XX Q1018



METAR SVCS 201100Z 00000KT 9999 SCT070 26/XX Q1018



METAR SVCS 191100Z 00000KT 9999 BKN050 26/X Q1018



METAR SVCS 181500Z 00000KT 9999 BKN050 28/XX Q1017



METAR SVCS 181400Z 00000KT 9999 BKN050 28/XX Q1018



METAR SVCS 181300Z 00000KT 9999 BKN050 27/XX Q1018



METAR SVCS 181200Z 00000KT 9999 BKN050 26/XX Q1018



METAR SVCS 181100Z 00000KT 9999 BKN050 26/XX Q1018



METAR SVCS 131600Z 00000KT 9999 BKN050 28/XX Q1016



METAR SVCS 131500Z 00000KT 9999 BKN050 28/XX Q1017



METAR SVCS 131400Z 00000KT 9999 BKN050 28/XX Q1017



METAR SVCS 131300Z 00000KT 7000 -HZ BKN050 27/XX Q1017



METAR SVCS 131200Z 00000KT 5000 +HZ OVC030 26/XX Q1017 REDZ



METAR SVCS 131100Z 00000KT 1000 MIFG OVC010 26/XX Q1017



METAR SVCS 101900Z 00000KT 9999 SCT050 28/XX Q1012 REDZ



METAR SVCS 101800Z 00000KT 9999 SCT050 29/XX Q1013



METAR SVCS 101700Z 00000KT 9999 BKN050 29/XX Q1014



METAR SVCS 101600Z 00000KT 9999 BKN050 29/XX Q1015



METAR SVCS 101500Z 00000KT 9999 BKN050 28/XX Q1017



METAR SVCS 101400Z 00000KT 9999 BKN050 28/XX Q1017



METAR SVCS 071600Z 00000KT 9999 BKN040 28/XX Q1016



METAR SVCS 071500Z 00000KT 9999 BKN040 28/XX Q1017



METAR SVCS 071400Z 00000KT 9999 BKN040 28/XX Q1017



METAR SVCS 071300Z 00000KT 5000 +HZ BKN040 27/XX Q1017



METAR SVCS 071200Z 00000KT 5000 +HZ BKN040 26/XX Q1017



METAR SVCS 071100Z 00000KT 5000 +HZ BKN040 26/XX Q1017



METAR SVCS 061600Z 00000KT 9999 OVC020 28/XX Q1015



METAR SVCS 061500Z 00000KT 9999 OVC020 27/XX Q1017



METAR SVCS 061400Z 00000KT 9999 OVC020 27/XX Q1017



METAR SVCS 061300Z 00000KT 9999 BKN040 27/XX Q1017



METAR SVCS 061200Z 00000KT 9999 BKN040 26/XX Q1017



METAR SVCS 061100Z 00000KT 9999 BKN040 26/XX Q1017



METAR SVCS 051400Z 00000KT 9999 SCT070 28/XX Q1018



METAR SVCS 051300Z 00000KT 9999 SCT070 27/XX Q1018



METAR SVCS 051200Z 00000KT 9999 SCT070 27/XX Q1018



METAR SVCS 051100Z 00000KT 9999 SCT070 27/XX Q1018



METAR SVCS 042000Z 00000KT 9999 SCT070 30/XX Q1013



METAR SVCS 031700Z 00000KT 9999 BKN050 29/XX Q1015



METAR SVCS 031600Z 00000KT 9999 BKN050 29/XX Q1016



METAR SVCS 031500Z 00000KT 9999 BKN050 28/XX Q1017



METAR SVCS 031400Z 00000KT 9999 BKN050 28/XX Q1018



METAR SVCS 031300Z 00000KT 9999 BKN050 27/XX Q1018



METAR SVCS 031200Z 00000KT 9999 BKN050 27/XX Q1018



METAR SVCS 031100Z 00000KT 9999 BKN050 26/XX Q1018



METAR SVCS 311300Z 00000KT 9999 SCT070 27/XX Q1018



METAR SVCS 311200Z 00000KT 9999 SCT070 27/XX Q1018



METAR SVCS 311100Z 00000KT 9999 SCT070 26/XX Q1018



METAR SVCS 301300Z 00000KT 9999 BKN050 27/XX Q1018



METAR SVCS 301200Z 00000KT 9999 SCT070 26/XX Q1018



METAR SVCS 301100Z 00000KT 9999 SCT070 26/XX Q1018



METAR SVCS 281800Z 00000KT 9999 SCT070 30/XX Q1015



METAR SVCS 281700Z 00000KT 9999 SCT070 30/XX Q1015



METAR SVCS 281600Z 00000KT 9999 SCT070 29/XX Q1016



METAR SVCS 281500Z 00000KT 9999 SCT070 29/XX Q1017



METAR SVCS 281400Z 00000KT 9999 BKN050 28/XX Q1017



METAR SVCS 281300Z 00000KT 9999 BKN050 27/XX Q1017



METAR SVCS 281200Z 00000KT 9999 OVC050 27/XX Q1017



METAR SVCS 281100Z 00000KT 9999 OVC050 27/XX Q1017



METAR SVCS 271400Z 00000KT 9999 SCT050 28/XX Q1018



METAR SVCS 271300Z 00000KT 9999 SCT050 27/XX Q1018



METAR SVCS 271200Z 00000KT 9999 FEW020 27/XX Q1018



METAR SVCS 271100Z 00000KT 9999 FEW020 27/XX Q1018



METAR SVCS 231700Z 00000KT 9999 SCT070 30/XX Q1014



METAR SVCS 231600Z 00000KT 9999 SCT070 29/XX Q1015



METAR SVCS 211700Z 00000KT 9999 SCT070 30/XX Q1015



METAR SVCS 211600Z 00000KT 9999 SCT070 30/XX Q1016



METAR SVCS 211500Z 00000KT 9999 SCT050 28/XX Q1018



METAR SVCS 211400Z 00000KT 9999 BKN050 28/XX Q1018



METAR SVCS 211300Z 00000KT 9999 BKN050 27/XX Q1018



METAR SVCS 211200Z 00000KT 9999 BKN050 26/XX Q1018



METAR SVCS 211100Z 00000KT 9999 BKN050 26/XX Q1018



METAR SVCS 201600Z 00000KT 9999 BKN050 29/XX Q1016



METAR SVCS 171400Z 00000KT 9999 BKN050 28/XX Q1017



METAR VCS 141500Z 00000KT 9999 BKN050 29/XX Q1018



METAR VCS 141400Z 00000KT 9999 BKN050 28/XX Q1019



METAR SVCS 131600Z 00000KT 9999 SCT070 28/XX Q1016



METAR SVCS 131500Z 00000KT 9999 SCT070 28/XX Q1017



METAR SVCS 131400Z 00000KT 9999 BKN050 27/XX Q1017



METAR SVCS 131300Z 00000KT 9999 BKN050 27/XX Q1017



METAR SVCS 131200Z 00000KT 7000 -HZ OVC030 26/XX Q1017



METAR SVCS 131100Z 00000KT 5000 +HZ OVC020 26/XX Q1017



METAR SVCS 101600Z 00000KT 3000 +HZ OVC020 28/XX Q1016



METAR SVCS 101500Z 00000KT 9999 BKN050 29/XX Q1018



METAR SVCS 101400Z 00000KT 9999 BKN050 28/XX Q1018



METAR SVCS 101300Z 00000KT 9999 BKN050 28/XX Q1018



METAR SVCS 101200Z 00000KT 9999 BKN050 27/XX Q1018



METAR SVCS 101100Z 00000KT 9999 BKN050 27/XX Q1018



METAR SVCS 021100Z 00000KT 9999 BKN050 26/XX Q1017



METAR SVCS 021100Z 00000KT 9999 BKN050 26/XX QO1017



METAR SVCS 011900Z 00000KT 9999 SCT050 30/XX Q1013



METAR SVCS 011800Z 00000KT 9999 SCT050 30/XX Q1014



METAR SVCS 011700Z 00000KT 9999 SCT050 30/XX Q1016



METAR SVCS 011600Z 00000KT 9999 SCT050 30/XX Q1016



METAR SVCS 011500Z 00000KT 9999 SCT050 28/XX Q1017



METAR SVCS 011400Z 00000KT 9999 FEW020 28/XX Q1018



METAR SVCS 011300Z 00000KT 9999 FEW020 27/XX Q1018



METAR SVCS 011200Z 00000KT 9999 FEW020 27/XX Q1018



METAR SVCS 011100Z 00000KT 9999 FEW020 26/XX Q1018



METAR SVCS 301200Z 00000KT 5000 +HZ BKN050 27/XX Q1018



METAR SVCS 301100Z 00000KT 1000 MIFG OVC020 26/XX Q1018



METAR SVCS 261600Z 00000KT 9999 BKN050 29/XX Q1015



METAR SVCS 261500Z 00000KT 9999 BKN050 29/XX Q1017



METAR SVCS 251600Z 00000KT 9999 SCT070 29/XX Q1016



METAR SVCS 251500Z 00000KT 9999 BKN050 29/XX Q1017



METAR SVCS 251400Z 00000KT 9999 BKN050 28/XX Q1017



METAR SVCS 251300Z 00000KT 8000 -HZ OVC040 27/XX Q1017



METAR SVCS 251200Z 00000KT 7000 -HZ OVC030 26/XX Q1017



METAR SVCS 251100Z 00000KT 4000 MIFG OVC020 26/XX Q1018



METAR SVCS 231600Z 00000KT 9999 BKN050 29/XX Q1016



METAR SVCS 231500Z 00000KT 9999 BKN050 28/XX Q1017



METAR SVCS 231400Z 00000KT 9999 BKN050 27/XX Q1017



METAR SVCS 231300Z 00000KT 9999 BKN050 27/XX Q1017



METAR SVCS 22150Z 00000KT 9999 BKN050 29/XX Q1017



METAR SVCS 22150Z 00000KT 9999 BKN050 29/XX Q1018



METAR SVCS 221400Z 00000KT 9999 BKN050 28/XX Q1018



METAR SVCS 221300Z 00000KT 9999 BKN050 27/XX Q1018



METAR SVCS 221200Z 00000KT 9999 OVC040 27/XX Q1018



METAR SVCS 221100Z 00000KT 9999 OVC040 27/XX Q1018



METAR SVCS 191600Z 00000KT 9999 SCT070 29/XX Q1016



METAR SVCS 191500Z 00000KT 9999 SCT070 28/XX Q1017



METAR SVCS 181900Z 00000KT 9999 SCT050 30/XX Q1013



METAR SVCS 181800Z 00000KT 9999 SCT050 29/XX Q1014



METAR SVCS 181700Z 00000KT 9999 SCT050 29/XX Q1015



METAR SVCS 181600Z 00000KT 9999 FEW020 28/XX Q1016



METAR SVCS 181500Z 00000KT 9999 FEW020 28/XX Q1017



METAR SVCS 181400Z 00000KT 9999 FEW020 28/XX Q1018



METAR SVCS 181300Z 00000KT 9999 FEW020 27/XX Q1018



METAR SVCS 181200Z 00000KT 9999 FEW020 26/XX Q1018



METAR SVCS 181100Z 00000KT 9999 FEW020 26/XX Q1018



METAR SVCS 161800Z 00000KT 9999 SCT070 30/XX Q1014



METAR SVCS 161700Z 00000KT 9999 SCT070 30/XX Q1015



METAR SVCS 151900Z 00000KT 9999 BKN050 30/XX Q1012



METAR SVCS 151800Z 00000KT 9999 BKN050 30/XX Q1012



METAR SVCS 151800Z 00000KT 9999 BKN050 30/XX Q1012



METAR SVCS 151700Z 00000KT 9999 BKN050 29/XX Q1014 RERA



METAR SVCS 151600Z 00000KT 9999 BKN050 29/XX Q1015



METAR SVCS 151500Z 00000KT 9999 BKN050 28/XX Q1017



METAR SVCS 151400Z 00000KT 9999 BKN050 28/XX Q1017



METAR SVCS 111800Z 00000KT 9999 BKN050 30/XX Q1014



METAR SVCS 111700Z 00000KT 9999 BKN050 30/XX Q1014



METAR SVCS 091600Z 00000KT 9999 BKN050 29/XX Q1017



METAR SVCS 091500Z 00000KT 9999 BKN050 29/XX Q1017







METAR SVCS 051600Z 00000KT 9999 BKN050 29/XX Q1016



METAR SVCS 051500Z 00000KT 9999 BKN050 28/XX Q1017



METAR SVCS 051400Z 00000KT 9999 BKN050 28/XX Q1018



METAR SVCS 051300Z 00000KT 9999 BKN050 27/XX Q1018



METAR SVCS 051300Z 00000KT 9999 BKN050 27/XX Q1018



METAR SVCS 051200Z 00000KT 9999 BKN040 27/XX Q1018



METAR SVCS 051100Z 00000KT 9999 BKN040 27/XX Q1018



METAR SVCS 041300Z 00000KT 1000 MIFG 0VC010 27/XX Q1017



METAR SVCS 041200Z 00000KT 0050 MIFG 0VC010 26/XX Q1017



METAR SVCS 041100Z 00000KT 5000 +HZ 0VC030 26/XX Q1017



METAR SVCS 031600Z 00000KT 9999 BKN050 29/XX Q1016



METAR SVCS 031500Z 00000KT 9999 BKN050 29/XX Q1017



METAR SVCS 031400Z 00000KT 9999 BKN050 27/XX Q1018



METAR SVCS 031300Z 00000KT 9999 BKN050 27/XX Q1018



METAR SVCS 031200Z 00000KT 9999 BKN050 26/XX Q1018



METAR SVCS 031100Z 00000KT 9999 BKN050 26/XX Q1018



METAR SVCS 021100Z 00000KT 9999 BKN050 27/XX Q1017



METAR SVCS 281900Z 00000KT 9999 FEW020 29/XX Q1012



METAR SVCS 281800Z 00000KT 9999 SCT070 29/XX Q1013



METAR SVCS 281700Z 00000KT 9999 SCT070 29/XX Q1015



METAR SVCS 281600Z 00000KT 9999 SCT050 28/XX Q1017



METAR SVCS 281500Z 00000KT 9999 SCT050 28/XX Q1017



METAR SVCS 261900Z 00000KT 9999 FEW020 BKN050 29/XX Q1014



METAR SVCS 261800Z 00000KT 9999 FEW020 BKN050 29/XX Q1014



METAR SVCS 251600Z 00000KT 9999 SCT050 29/XX Q1016



METAR SVCS 251500Z 00000KT 9999 SCT050 28/XX Q1018



METAR SVCS 251400Z 00000KT 9999 SCT050 28/XX Q1018



METAR SVCS 221400Z 00000KT 9999 BKN050 28/XX Q1018



METAR SVCS 221300Z 00000KT 9999 OVC040 27/XX Q1018



METAR SVCS 221200Z 00000KT 9999 OVC040 26/XX Q1018



METAR SVCS 221100Z 00000KT 9999 OVC040 26/XX Q1018



METAR SVCS 211200Z 00000KT 9999 FEW020 26/XX Q1018



METAR SVCS 211100Z 00000KT 9999 FEW020 26/XX Q1018



METAR SVCS 201930Z 00000KT 9999 BKN050 29/XX Q1013



METAR SVCS 201830Z 00000KT 9999 FEW020 SCT070 29/XX Q1014



METAR SVCS 201730Z 00000KT 9999 FEW020 SCT070 29/XX Q1014



METAR SVCS 181300Z 0000KT 0000 0500 MIFG OVC010 26/XX 1019



METAR SVCS 181200Z 0000KT 0000 0500 MIFG OVC010 25/XX 1019



METAR SVCS 181100Z 0000KT 0000 5000 +HZ OVC030 24/XX 1019



METAR SVCS 131700Z 00000KT 9999 BKN050 29/XX Q1014



METAR SVCS 131600Z 00000KT 9999 BKN050 28/XX Q1015



METAR SVCS 131500Z 00000KT 9999 BKN050 28/XX Q1016



METAR SVCS 111900Z 00000KT 9999 FEW020 29/XX Q1013



METAR SVCS 111800Z 00000KT 9999 FEW020 29/XX Q1014



METAR SVCS 111700Z 00000KT 9999 FEW020 29/XX Q1015



METAR SVCS 111600Z 00000KT 9999 FEW020 28/XX Q1017



METAR SVCS 111500Z 00000KT 9999 FEW020 28/XX Q1017



METAR SVCS 111400Z 00000KT 9999 SCT050 27/XX Q1017



METAR SVCS 111300Z 00000KT 9999 SCT070 27/XX Q1017



METAR SVCS 111200Z 00000KT 9999 SCT070 26/XX Q1017



METAR SVCS 111100Z 00000KT 9999 SCT070 26/XX Q1017



METAR SVCS 071900Z 00000KT 9999 SCT070 30/XX Q1014



METAR SVCS 071800Z 00000KT 9999 SCT070 30/XX Q1014



METAR SVCS 071700Z 00000KT 9999 BKN050 29/XX Q1015



METAR SVCS 071600Z 00000KT 9999 BKN050 29/XX Q1016



METAR SVCS 071500Z 00000KT 9999 BKN050 28/XX Q1018



METAR SVCS 071400Z 00000KT 9999 BKN050 28/XX Q1018



METAR SVCS 071300Z 00000KT 9999 SCT050 27/XX Q1019



METAR SVCS 071200Z 00000KT 9999 SCT050 26/XX Q1019



METAR SVCS 071100Z 00000KT 9999 SCT050 26/XX Q1019



METAR SVCS 061800Z 00000KT 9999 SCT070 32/XX Q1014



METAR SVCS 061700Z 00000KT 9999 SCT070 32/XX Q1015



METAR SVCS 061600Z 00000KT 9999 SCT070 32/XX Q1015



METAR SVCS 051700Z 00000KT 9999 SCT070 29/XX Q1015



METAR SVCS 051600Z 00000KT 9999 SCT070 29/XX Q1015



METAR SVCS 041500Z 00000KT 9999 FEW020 29/XX Q1017



METAR SVCS 041400Z 00000KT 9999 SCT050 28/XX Q1018



METAR SVCS 041300Z 00000KT 9999 BKN050 28/XX Q1018



METAR SVCS 041200Z 00000KT 9999 BKN050 27/XX Q1018



METAR SVCS 041100Z 00000KT 9999 BKN050 27/XX Q1018



METAR SVCS 011400Z 00000KT 9999 FEW020 28/XX Q1017



METAR SVCS 011300Z 00000KT 9999 FEW020 28/XX Q1018



METAR SVCS 011200Z 00000KT 9999 FEW020 27/XX Q1018



METAR SVCS 011100Z 00000KT 9999 FEW020 27/XX Q1018



METAR SVCS 301900Z 00000KT 8000 -HZ OVC040 27/XX Q1013 RERA



METAR SVCS 301800Z 00000KT 2000 +RA OVC020 27/XX Q1013



METAR SVCS 301600Z 00000KT 9999 BKN050 30/XX Q1016



METAR SVCS 301500Z 00000KT 9999 BKN050 28/XX Q1016



METAR SVCS 301400Z 00000KT 9999 BKN040 28/XX Q1017



METAR SVCS 301300Z 00000KT 9999 BKN040 27/XX Q1017



METAR SVCS 292100Z 00000KT 9999 BKN050 28/XX Q1011



METAR SVCS 292000Z 00000KT 9999 BKN050 30/XX Q1012



METAR SVCS 291900Z 00000KT 9999 SCT070 30/XX Q1013



METAR SVCS 291800Z 00000KT 9999 SCT070 30/XX Q1014



METAR SVCS 291700Z 00000KT 9999 SCT070 30/XX Q1016



METAR SVCS 291600Z 00000KT 9999 SCT070 29/XX Q1016



METAR SVCS 291500Z 00000KT 9999 SCT070 28/XX Q1017



METAR SVCS 291400Z 00000KT 9999 BKN050 28/XX Q1018



METAR SVCS 291300Z 00000KT 9999 BKN050 27/XX Q1018



METAR SVCS 291200Z 00000KT 9999 BKN040 27/XX Q1018



METAR SVCS 291100Z 00000KT 9999 BKN040 27/XX Q1018



METAR SVCS 281800Z 00000KT 9999 SCT050 30/XX Q1014



METAR SVCS 281700Z 00000KT 9999 SCT070 30/XX Q1016



METAR SVCS 281600Z 00000KT 9999 SCT070 30/XX Q1016



METAR SVCS 281500Z 00000KT 9999 BKN050 29/XX Q1018



METAR SVCS 281400Z 00000KT 9999 BKN050 28/XX Q1018



METAR SVCS 281300Z 00000KT 9999 BKN050 27/XX Q1018



METAR SVCS 281200Z 00000KT 9999 BKN050 26/XX Q1018



METAR SVCS 281100Z 00000KT 9999 BKN050 26/XX Q1018







METAR SVCS 231300Z 00000KT 6000 -HZ 0VC030 27/XX Q1017



METAR SVCS 231200Z 00000KT 1000 MIFG 0VC010 26/XX Q1017



METAR SVCS 231100Z 00000KT 1000 MIFG 0VC010 26/XX Q1017



METAR SVCS 211800Z 00000KT 9999 SCT050 30/XX Q1014



METAR SVCS 211700Z 00000KT 9999 SCT050 30/XX Q1015



METAR SVCS 211600Z 00000KT 9999 SCT050 29/XX Q1016



METAR SVCS 211500Z 00000KT 9999 SCT050 29/XX Q1017



METAR SVCS 211400Z 00000KT 9999 SCT050 28/XX Q1018



METAR SVCS 211300Z 00000KT 9999 FEW020 28/XX Q1018



METAR SVCS 211200Z 00000KT 9999 FEW020 27/XX Q1018



METAR SVCS 211100Z 00000KT 8000 -HZ FEW020 27/XX Q1018



METAR SVCS 21100Z 00000KT 8000 -HZ FEW020 27/XX Q1018



METAR SVCS 181400Z 00000KT 9999 SCT050 28/XX Q1018



METAR SVCS 181300Z 00000KT 9999 SCT050 27/XX Q1018



METAR SVCS 181200Z 00000KT 9999 BKN050 27/XX Q1018



METAR SVCS 181100Z 00000KT 9999 BKN050 27/XX Q1018



METAR SVCS 171500Z 00000KT 9999 SCT070 29/XX Q1017



METAR SVCS 171500Z 00000KT 9999 SCT070 29/XX Q1017



METAR SVCS 171400Z 00000KT 9999 SCT070 28/XX Q1017



METAR SVCS 171300Z 00000KT 9999 SCT070 27/XX Q1017



METAR SVCS 171200Z 00000KT 9999 SCT070 27/XX Q1017



METAR SVCS 171100Z 00000KT 9999 SCT070 26/XX Q1017







METAR SVCS 102000Z 00000KT 9999 OVC040 29/XX Q1013 CBS



METAR SVCS 101900Z 00000KT 9999 BKN040 29/XX Q1014 CBS



METAR SVCS 101800Z 00000KT 9999 BKN050 29/XX Q1014



METAR SVCS 101800Z 00000KT 9999 BKN050 29/XX Q1014



METAR SVCS 101700Z 00000KT 9999 BKN050 29/XX Q1015



METAR SVCS 101600Z 00000KT 9999 BKN050 29/XX Q1015



METAR SVCS 101500Z 00000KT 7000 -HZ OVC040 27/XX Q1016



METAR SVCS 101400Z 00000KT 5000 -HZ OVC030 27/XX Q1016



METAR SVCS 101300Z 00000KT 2000 MIFG OVC010 26/XX Q1016 REDZ



METAR SVCS 101200Z 00000KT 2000 MIFG OVC010 25/XX Q1016



METAR SVCS 101100Z 00000KT 1000 MIFG OVC010 25/XX Q1016 REDZ



METAR SVCS 101100Z 00000KT 1000 MIFG OVC010 25/XX Q1016 REDZ



METAR SVCS 091300Z 00000KT 7000 +HZ OVC020 27/XX Q1016



METAR SVCS 091300Z 00000KT 7000 +HZ OVC020 27/XX Q1016



METAR SVCS 081800Z 00000KT 9999 SCT070 32/XX Q1014



METAR SVCS 071800Z 00000KT 9999 SCT070 32/XX Q1014







METAR SVCS 041700Z 00000KT 9999 SCT070 30/XX Q1014



METAR SVCS 031800Z 00000KT 9999 SCT070 32/XX Q1015



METAR SVCS 031800Z 00000KT 9999 SCT070 32/XX Q1015



METAR SVCS 031700Z 00000KT 9999 SCT070 32/XX Q1015



METAR SVCS 031600Z 00000KT 9999 SCT070 30/XX Q1017



METAR SVCS 031500Z 00000KT 9999 SCT070 29/XX Q1019



METAR SVCS 031400Z 00000KT 9999 SCT070 29/XX Q1019



METAR SVCS 031300Z 00000KT 9999 BKN050 28/XX Q1020



METAR SVCS 031200Z 00000KT 9999 BKN050 28/XX Q1020



METAR SVCS 031100Z 00000KT 9999 BKN050 27/XX Q1020



METAR SVCS 021400Z 00000KT 0000 SCT070 28/XX Q1017



METAR SVCS 021300Z 00000KT 0000 SCT070 27/XX Q1017



METAR SVCS 021200Z 00000KT 0000 SCT070 27/XX Q1018



METAR SVCS 021100Z 00000KT 0000 SCT070 27/XX Q1018



METAR SVCS 302000Z 00000KT 9999 BKN050 30/XX Q1013



METAR SVCS 301900Z 00000KT 9999 BKN050 30/XX Q1014







METAR SVCS 301800Z 00000KT 9999 BKN050 30/XX Q1015



METAR SVCS 291800Z 00000KT 9999 BKN050 32/XX Q1016



METAR SVCS 291800Z 00000KT 9999 BKN050 32/XX Q1016



METAR SVCS 291700Z 00000KT 9999 BKN050 32/XX Q1016



METAR SVCS 291700Z 00000KT 9999 BKN050 32/XX Q1016







METAR SVCS 181400Z 00000KT 9999 SCT070 28/XX Q1017



METAR SVCS 161500Z 00000KT 9999 BKN050 28/XX Q1017



METAR SVCS 111400Z 00000KT 9000 -HZ OVC030 27/XX Q1017



METAR SVCS 111300Z 00000KT 9000 -HZ OVC030 27/XX Q1018



METAR SVCS 111200Z 00000KT 7000 -HZ OVC020 26/XX Q1018



METAR SVCS 111100Z 00000KT 7000 -HZ OVC020 26/XX Q1018



METAR SVCS 091700Z 00000KT 9999 SCT070 30/XX Q1016



METAR SVCS 091600Z 00000KT 9999 SCT070 30/XX Q1016



METAR SVCS 061600Z 00000KT 9999 SCT070 30/XX Q1015



METAR SVCS 051400Z 00000KT 9999 SCT070 28/XX Q1017



METAR SVCS 021800Z 00000KT 9999 SCT070 30/XX Q1014



METAR SVCS 021700Z 00000KT 9999 SKC 30/XX Q1015



METAR SVCS 021600Z 00000KT 9999 SKC 30/XX Q1016



METAR SVCS 021500Z 00000KT 9999 SKC 28/XX Q1018



METAR SVCS 021400Z 00000KT 9999 SKC 28/XX Q1018







METAR SVCS 292000Z 00000KT 9999 SCT070 30/XX Q1013



METAR SVCS 291900Z 00000KT 9999 SCT070 30/XX Q1014



METAR SVCS 291800Z 00000KT 9999 SCT070 30/XX Q1014



METAR SVCS 291700Z 00000KT 9999 SCT070 29/XX Q1015



METAR SVCS 291600Z 00000KT 9999 SCT070 29/XX Q1015



METAR SVCS 291500Z 00000KT 9999 BKN050 28/XX Q1016



METAR SVCS 291400Z 00000KT 5000 -HZ BKN020 27/XX Q1017



METAR SVCS 291300Z 00000KT 1000 MIFG OVC010 26/XX Q1017



METAR SVCS 291200Z 00000KT 0500 MIFG OVC010 25/XX Q1017 REDZ



METAR SVCS 291100Z 00000KT 0500 MIFG OVC010 25/XX Q1017 REDZ







METAR SVCS 211200Z 00000KT 9999 BKN050 27/XX Q1018



METAR SVCS 211100Z 00000KT 9999 BKN050 26/XX Q1018



METAR SVCS 202000Z 00000KT 9999 SCT070 29/XX Q1013



METAR SVCS 161500Z 00000KT 9999 BKN050 28/XX Q1017



METAR SVCS 121800Z 00000KT 9999 SCT070 30/XX Q1014



METAR SVCS 121700Z 00000KT 9999 BKN050 30/XX Q1015



METAR SVCS 121600Z 00000KT 9999 BKN050 29/XX Q1017



METAR SVCS 121500Z 00000KT 9999 BKN050 29/XX Q1017



METAR SVCS 121400Z 00000KT 9999 BKN050 28/XX Q1018



METAR SVCS 121400Z 00000KT 9999 BKN050 27/XX Q1018



METAR SVCS 121300Z 00000KT 9999 BKN050 27/XX Q1018



METAR SVCS 121200Z 00000KT 9999 BKN050 27/XX Q1018



METAR SVCS 121100Z 00000KT 9999 BKN050 27/XX Q1018



METAR SVCS 091800Z 00000KT 9999 BKN050 28/XX Q1016



METAR SVCS 071900Z 00000KT 9999 FEW020 32/XX Q1014



METAR SVCS 071800Z 00000KT 9999 FEW020 32/XX Q1014



METAR SVCS 071700Z 00000KT 9999 FEW020 30/XX Q1016



METAR SVCS 071600Z 00000KT 9999 FEW020 30/XX Q1016



METAR SVCS 051900Z 00000KT 9999 FEW020 30/XX Q1013



METAR SVCS 051800Z 00000KT 9999 FEW020 30/XX Q1014



METAR SVCS 051700Z 00000KT 9999 SKC 30/XX Q1015



METAR SVCS 051600Z 00000KT 9999 SKC 29/XX Q1017



METAR SVCS 051500Z 00000KT 9999 SKC 28/XX Q1018



METAR SVCS 051400Z 00000KT 9999 SCT070 27/XX Q1018



METAR SVCS 051300Z 00000KT 9999 SCT070 27/XX Q1018



METAR SVCS 051200Z 00000KT 9999 BKN040 26/XX Q1018



METAR SVCS 051100Z 00000KT 9999 BKN040 26/XX Q1018







METAR SVCS 011700Z 00000KT 9999 FEW020 29/XX Q1016



METAR SVCS 011600Z 00000KT 9999 FEW020 29/XX Q1016



METAR SVCS 011500Z 00000KT 9999 FEW020 28/XX Q1017



METAR SVCS 301900Z 00000KT 9999 SKC 30/XX Q1014



METAR SVCS 281800Z 00000KT 9999 SKC 30/XX Q1015



METAR SVCS 281700Z 00000KT 9999 SKC 30/XX Q1016



METAR SVCS 281600Z 00000KT 9999 SKC 30/XX Q1016



METAR SVCS 281500Z 00000KT 9999 SKC 28/XX Q1018



METAR SVCS 281400Z 00000KT 9999 SKC 28/XX Q1018



METAR SVCS 281300Z 00000KT 9999 SKC 27/XX Q1018



METAR SVCS 281200Z 00000KT 9999 SKC 26/XX Q1018



METAR SVCS 281100Z 00000KT 9999 SKC 26/XX Q1018







METAR SVCS 231600Z 00000KT 9999 SCT070 30/XX Q1016



METAR SVCS 221800Z 00000KT 9999 SCT070 30/XX Q1014



METAR SVCS 221700Z 00000KT 9999 BKN050 29/XX Q1015



METAR SVCS 221600Z 00000KT 9999 BKN050 29/XX Q1015



METAR SVCS 221500Z 00000KT 9999 BKN050 29/XX Q1017



METAR SVCS 221400Z 00000KT 9999 BKN050 28/XX Q1017



METAR SVCS 221300Z 00000KT 9999 BKN050 28/XX Q1017



METAR SVCS 221200Z 00000KT 9999 BKN050 27/XX Q1017



METAR SVCS 221100Z 00000KT 9999 BKN050 27/XX Q1017



METAR SVCS 211800Z 00000KT 9999 SCT070 30/XX Q1015



METAR SVCS 211700Z 00000KT 9999 SCT070 30/XX Q1015



METAR SVCS 211600Z 00000KT 9999 SCT070 30/XX Q1016



METAR SVCS 211500Z 00000KT 9999 BKN050 28/XX Q1017



METAR SVCS 211400Z 00000KT 9999 BKN050 28/XX Q1017



METAR SVCS 191600Z 00000KT 9999 SCT070 28/XX Q1018



METAR SVCS 191500Z 00000KT 9999 BKN050 28/XX Q1018



METAR SVCS 191400Z 00000KT 9999 BKN050 28/XX Q1018



METAR SVCS 191300Z 00000KT 9999 BKN050 27/XX Q1018



METAR SVCS 191200Z 00000KT 9999 OVC040 27/XX Q1018



METAR SVCS 191100Z 00000KT 9999 OVC040 27/XX Q1018







METAR SVCS 161500Z 00000KT 5000 +HZ OVCO3O 27/XX Q1017



METAR SVCS 161400Z 00000KT 4000 +HZ OVCO3O 27/XX Q1017



METAR SVCS 161300Z 00000KT 4000 +HZ OVC030 27/XX Q1017



METAR SVCS 161200Z 00000KT 4000 +HZ OVC030 26/XX Q1017



METAR SVCS 161100Z 00000KT 4000 +HZ OVC030 26/XX Q1017







METAR SVCS 091900Z 00000KT 9999 FEW020 32/XX Q1013



METAR SVCS 091800Z 00000KT 9999 FEW020 32/XX Q1015



METAR SVCS 091700Z 00000KT 9999 FEW020 32/XX Q1015



METAR SVCS 091600Z 00000KT 9999 FEW020 30/XX Q1016



METAR SVCS 091500Z 00000KT 9999 FEW020 30/XX Q1017



METAR SVCS 082000Z 00000KT 9999 FEW020 31/XX Q1013



METAR SVCS 081900Z 00000KT 9999 FEW020 31/XX Q1014



METAR SVCS 081800Z 00000KT 9999 SCT070 31/XX Q1015



METAR SVCS 081700Z 00000KT 9999 SCT070 31/XX Q1015



METAR SVCS 081600Z 00000KT 9999 SCT070 29/XX Q1017



METAR SVCS 081500Z 00000KT 9999 SCT070 28/XX Q1018



METAR SVCS 081400Z 00000KT 9999 SCT070 28/XX Q1018



METAR SVCS 081300Z 00000KT 9999 SCT070 27/XX Q1018



METAR SVCS 081200Z 00000KT 9999 BKN050 26/XX Q1018



METAR SVCS 081100Z 00000KT 9999 BKN050 26/XX Q1018







METAR SVCS 021900Z 00000KT 9999 SCT070 30/XX Q1013



METAR SVCS 021800Z 00000KT 9999 SCT070 30/XX Q1014



METAR SVCS 021700Z 00000KT 9999 SCT070 30/XX Q1016



METAR SVCS 021600Z 00000KT 9999 SCT070 30/XX Q1016



METAR SVCS 012000Z 00000KT 9999 SCT070 30/XX Q1013



METAR SVCS 011900Z 00000KT 9999 SCT070 30/XX Q1014



METAR SVCS 011800Z 00000KT 9999 SCT070 30/XX Q1016



METAR SVCS 011700Z 00000KT 9999 SCT070 30/XX Q1016



METAR SVCS 311600Z 00000KT 9999 SCT070 29/XX Q1016



METAR SVCS 311500Z 00000KT 9999 SCT070 28/XX Q1018



METAR SVCS 311400Z 00000KT 9999 SCT070 28/XX Q1018



METAR SVCS 311300Z 00000KT 9999 BKN050 27/XX Q1019



METAR SVCS 311200Z 00000KT 9999 BKN050 26/XX Q1019



METAR SVCS 311100Z 00000KT 9999 BKN050 26/XX Q1019







METAR SVCS 262000Z 00000KT 9999 SKC 30/XX Q1014



METAR SVCS 261900Z 00000KT 9999 SKC 30/XX Q1014



METAR SVCS 261800Z 00000KT 9999 SKC 30/XX Q1016



METAR SVCS 261700Z 00000KT 9999 SKC 30/XX Q1016







METAR SVCS 191300Z 00000KT 9999 BKN050 27/XX Q1018



METAR SVCS 191200Z 00000KT 9999 BKN050 26/XX Q1018



METAR SVCS 191100Z 00000KT 9999 BKN050 26/XX Q1018



METAR SVCS 171700Z 00000KT 9999 SCT070 30/XX Q1015



METAR SVCS 171600Z 00000KT 9999 SCT070 29/XX Q1017



METAR SVCS 171500Z 00000KT 9999 SCT070 28/XX Q1017



METAR SVCS 171400Z 00000KT 9999 BKN050 28/XX Q1017



METAR SVCS 171300Z 00000KT 9999 BKN050 27/XX Q1017



METAR SVCS 171200Z 00000KT 9999 BKN050 26/XX Q1017



METAR SVCS 171100Z 00000KT 9999 BKN050 26/XX Q1017







METAR SVCS 081300Z 00000KT 9999 SCT050 27/XX Q1018



METAR SVCS 081100Z 00000KT 9999 SCT050 27/XX Q1018



METAR SVCS 071500Z 00000KT 9999 SCT050 28/XX Q1018



METAR SVCS 071400Z 00000KT 9999 SCT050 28/XX Q1018



METAR SVCS 071400Z 00000KT 9999 SCT050 27/XX Q1018



METAR SVCS 071300Z 00000KT 9999 SCT050 27/XX Q1018



METAR SVCS 071200Z 00000KT 9999 SCT050 27/XX Q1018



METAR SVCS 071100Z 00000KT 9999 SCT050 27/XX Q1018







METAR SVCS 202000Z 00000KT 9999 SKC 29/XX Q1015



METAR SVCS 201900Z 00000KT 9999 SKC 29/XX Q1015



METAR SVCS 201800Z 00000KT 9999 FEW020 29/XX Q1017



METAR SVCS 201700Z 00000KT 9999 FEW020 29/XX Q1017



METAR SVCS 201700Z 00000KT 9999 SCT050 29/XX Q1017



METAR SVCS 201600Z 00000KT 9999 SCT050 29/XX Q1017



METAR SVCS 201500Z 00000KT 9999 SCT050 28/XX Q1018



METAR SVCS 201400Z 00000KT 9999 BKN050 28/XX Q1018



METAR SVCS 201300Z 00000KT 9999 BKN050 27/XX Q1018



METAR SVCS 201200Z 00000KT 9999 BKN050 26/XX Q1018



METAR SVCS 201100Z 00000KT 9999 BKN050 26/XX Q1018











METAR SVCS 131500Z 00000KT 9999 BKN050 28/XX Q1018



METAR SVCS 131400Z 00000KT 9999 BKN050 28/XX Q1018



METAR SVCS 131300Z 00000KT 9999 BKN050 27/XX Q1018



METAR SVCS 131200Z 00000KT 9999 BKN050 27/XX Q1018



METAR SVCS 131100Z 00000KT 9999 BKN050 26/XX Q1018







METAR SVCS 041300Z 00000KT 9999 SCT070 27/XX Q1018



METAR SVCS 041200Z 00000KT 9999 SCT070 27/XX Q1018



METAR SVCS 041100Z 00000KT 9999 SCT070 26/XX Q1018







METAR SVCS 301700Z 00000KT 9999 SCT070 29/XX Q1017



METAR SVCS 301600Z 00000KT 9999 SCT070 29/XX Q1017



METAR SVCS 281200Z 00000KT 9999 BKN030 27/XX Q1018



METAR SVCS 281100Z 00000KT 9999 BKN030 26/XX Q1018



METAR SVCS 251500Z 00000KT 9999 SKC 29/XX Q1019



METAR SVCS 251400Z 00000KT 9999 SKC 28/XX Q1019



METAR SVCS 251300Z 00000KT 9999 SKC 28/XX Q1019



METAR SVCS 251200Z 00000KT 9999 SKC 27/XX Q1019



METAR SVCS 251100Z 00000KT 9999 SKC 27/XX Q1019







METAR SVCS 211600Z 00000KT 9999 SCT070 30/XX Q1018



METAR SVCS 211500Z 00000KT 9999 SCT070 29/XX Q1018



METAR SVCS 211200Z 00000KT 9999 BKN050 27/XX Q1019



METAR SVCS 211100Z 00000KT 9999 BKN050 27/XX Q1019



METAR SVCS 202000Z 00000KT 9999 SKC 30/XX Q1012



METAR SVCS 171900Z 00000KT 9999 FEW020 SCT050 28/XX 1014



METAR SVCS 161700Z 00000KT 9999 OVC020 28/XX Q1016



METAR SVCS 161600Z 00000KT 9999 OVC020 27/XX Q1018



METAR SVCS 161600Z 00000KT 9999 OVC020 27/XX Q1018



METAR SVCS 161500Z 00000KT 9999 OVC020 27/XX Q1019



METAR SVCS 161400Z 00000KT 9999 OVC020 27/XX Q1019



METAR SVCS 161300Z 00000KT 9999 OVC020 27/XX Q1019



METAR SVCS 161200Z 00000KT 9999 OVC020 26/XX Q1019



METAR SVCS 161100Z 00000KT 9999 OVC020 26/XX Q1019



METAR SVCS 141300Z 00000KT 1000 MIFG OVC010 26/XX Q1018 REDZ



METAR SVCS 141200Z 00000KT 1000 MIFG OVC010 26/XX Q1018



METAR SVCS 141100Z 00000KT 1000 MIFG OVC010 26/XX Q1018











METAR SVCS 101400Z 00000KT 9999 FEW020 28/XX Q1019



METAR SVCS 101300Z 00000KT 9999 SCT070 27/XX Q1019



METAR SVCS 101200Z 00000KT 9999 SCT070 27/XX Q1019



METAR SVCS 101100Z 00000KT 9999 SCT070 26/XX Q1019



METAR SVCS 091300Z 00000KT 9999 BKN050 26/XX Q1021



METAR SVCS 091200Z 00000KT 9999 OVC040 26/XX Q1021



METAR SVCS 091100Z 00000KT 8000 -HZ OVC030 26/XX Q1021



METAR SVCS 081400Z 00000KT 9999 BKN050 28/XX Q1018



METAR SVCS 081300Z 00000KT 9999 BKN050 27/XX Q1018



METAR SVCS 081200Z 00000KT 9999 BKN050 27/XX Q1018



METAR SVCS 081100Z 00000KT 9999 BKN050 27/XX Q1018



METAR SVCS 071500Z 00000KT 9999 BKN050 28/XX Q1018



METAR SVCS 061600Z 0000KT 9999 BKN050 28/XX Q1016



METAR SVCS 031500Z 00000KT 3000 +HZ BKN020 28/XX Q1018



METAR SVCS 031400Z 00000KT 1000 MIFG OVC010 27/XX Q1018



METAR SVCS 031300Z 00000KT 1000 MIFG OVC010 26/XX Q1018



METAR SVCS 031200Z 00000KT 1000 MIFG OVC010 26/XX Q1018



METAR SVCS 031100Z 00000KT 2000 +HZ OVC020 26/XX Q1018







METAR SVCS 311300Z 00000KT 9999 BKN050 27/XX Q1019



METAR SVCS 311200Z 00000KT 9999 BKN050 27/XX Q1019



METAR SVCS 311100Z 00000KT 9999 BKN050 26/XX Q1019



METAR SVCS 262000Z 00000KT 9999 FEW020 28/XX Q1014







METAR SVCS 251900Z 00000KT 9999 FEW020 29/XX 1014



METAR SVCS 251800Z 00000KT 9999 FEW020 29/XX 1014







METAR SVCS 161500Z 00000KT 9999 SCT070 28/XX Q1018



METAR SVCS 161400Z 00000KT 9999 SCT070 28/XX Q1018



METAR SVCS 161300Z 00000KT 9999 SCT070 27/XX Q1018



METAR SVCS 161200Z 00000KT 9999 BKN050 27/XX Q1018



METAR SVCS 161100Z 00000KT 9999 BKN050 26/XX Q1018



METAR SVCS 111300Z 00000KT 1000 MIFG OVC020 27/XX Q1018



METAR SVCS 111200Z 00000KT 8000 -HZ OVC030 26/XX Q1018



METAR SVCS 111100Z 00000KT 5000 +HZ OVC020 26/XX Q1018



METAR SVCS 101400Z 00000KT 7000 +DZ OVC020 27/XX Q1019



METAR SVCS 101300Z 00000KT 7000 -HZ OVC030 27/XX Q1019 REDZ



METAR SVCS 101200Z 00000KT 7000 -HZ OVC030 26/XX Q1019



METAR SVCS 101100Z 00000KT 7000 -HZ OVC030 26/XX Q1019



METAR SVCS 101100Z 00000KT 7000 -HZ OVC030 26/XX Q1019



METAR SVCS 061600Z 00000KT 9999 SCT070 29/XX Q1016



METAR SVCS 061500Z 00000KT 9999 SCT070 28/XX Q1017



METAR SVCS 061400Z 00000KT 9999 SCT070 28/XX Q1017



METAR SVCS 061300Z 00000KT 9999 SCT070 27/XX Q1017



METAR SVCS 061200Z 00000KT 9999 SCT070 26/XX Q1018



METAR SVCS 061100Z 00000KT 9999 SCT070 26/XX Q1018



METAR SVCS 051800Z 00000KT 9999 BKN050 29/XX Q1015



METAR SVCS 051700Z 00000KT 9999 BKN050 29/XX Q1015



METAR SVCS 051500Z 00000KT 9999 BKN050 29/XX Q1016



METAR SVCS 051600Z 00000KT 9999 BKN050 29/XX Q1016



METAR SVCS 051500Z 00000KT 9999 BKN050 29/XX Q1017



METAR SVCS 051400Z 00000KT 9999 BKN050 28/XX Q1017



METAR SVCS 051300Z 00000KT 9999 BKN050 27/XX Q1017



METAR SVCS 051200Z 00000KT 9999 BKN050 26/XX Q1017



METAR SVCS 051100Z 00000KT 9999 BKN050 26/XX Q1017



METAR SVCS 041800Z 00000KT 9999 FEW020 29/XX Q1017



METAR SVCS 041600Z 00000KT 9999 SCT070 29/XX Q1017



METAR SVCS 041500Z 00000KT 9999 SCT070 29/XX Q1019



METAR SVCS 041400Z 00000KT 9999 SCT070 28/XX Q1019



METAR SVCS 041300Z 00000KT 9999 BKN050 27/XX Q1019



METAR SVCS 041200Z 00000KT 9999 BKN050 26/XX Q1019



METAR SVCS 041100Z 00000KT 5000 +HZ BKN050 26/XX Q1019



METAR SVCS 031800Z 00000KT 9999 SCT070 29/XX Q1016



METAR SVCS 031700Z 00000KT 9999 SCT070 29/XX Q1016



METAR SVCS 031600Z 00000KT 9999 BKN050 29/XX Q1017



METAR SVCS 031500Z 00000KT 9999 BKN050 28/XX Q1017



METAR SVCS 031400Z 00000KT 9999 BKN050 28/XX Q1017



METAR SVCS 031300Z 00000KT 9999 BKN050 27/XX Q1017



METAR SVCS 031200Z 00000KT 9999 BKN050 26/XX Q1017



METAR SVCS 031100Z 00000KT 9999 BKN050 26/XX Q1017



















METAR SVCS 281700Z 00000KT 5000 -HZ OVC030 28/XX Q1014



METAR SVCS 281600Z 00000KT 9999 OVC030 28/XX Q1015



METAR SVCS 281500Z 00000KT 9999 OVC030 28/XX Q1015



METAR SVCS 281400Z 00000KT 9999 BKN050 27/XX Q1016



METAR SVCS 281200Z 00000KT 9999 SCT070 26/XX Q1016



METAR SVCS 281100Z 00000KT 9999 SCT070 26/XX Q1016



METAR SVCS 271200Z 00000KT 5000 +HZ OVC020 26/XX Q1015 REDZ



METAR SVCS 271100Z 00000KT 5000 +HZ OVC020 26/XX Q1015 REDZ



METAR SVCS 251600Z 00000KT 5000 +RA BKN050 28/XX Q1016



METAR SVCS 251800Z 00000KT 9999 SCT070 28/XX Q1017



METAR SVCS 251400Z 00000KT 9999 SCT070 28/XX Q1017



METAR SVCS 251300Z 00000KT 9999 SCT070 27/XX Q1017



METAR SVCS 251200Z 00000KT 9999 SCT070 26/XX Q1017



METAR SVCS 251100Z 00000KT 9999 SCT070 26/XX Q1017



METAR SVCS 201400Z 00000KT 9999 BKN050 28/XX Q1016



METAR SVCS 201400Z 00000KT 9999 BKN050 28/XX Q1016



METAR SVCS 201400Z 00000KT 9999 BKN050 28/XX Q1016



METAR SVCS 201300Z 00000KT 9999 BKN050 27/XX Q1016



METAR SVCS 201200Z 00000KT 9999 BKN050 26/XX Q1016



METAR SVCS 201100Z 00000KT 9999 BKN050 26/XX Q1016



METAR SVCS 191200Z 00000KT 9000 -HZ OVC040 27/XX Q1014



METAR SVCS 191100Z 00000KT 9000 -HZ OVC040 26/XX Q1014







METAR SVCS 051700Z 00000KT 9999 SCT070 29/XX Q1013



METAR SVCS 051600Z 00000KT 9999 SCT070 29/XX Q1013



METAR SVCS 041400Z 00000KT 9999 BKN040 28/XX Q1017



METAR SVCS 041300Z 00000KT 9999 BKN040 27/XX Q1017



METAR SVCS 041200Z 00000KT 9999 BKN040 27/XX Q1017



METAR SVCS 041100Z 00000KT 9999 BKN040 26/XX Q1017



METAR SVCS 281400Z 00000KT 9999 SCT070 28/XX Q1019



METAR SVCS 281300Z 00000KT 9999 SCT070 27/XX Q1019



METAR SVCS 281200Z 00000KT 9999 SCT070 27/XX Q1019



METAR SVCS 281100Z 00000KT 9999 SCT070 27/XX Q1019







METAR SVCS 221600Z 00000KT 9999 SCT070 29/XX Q1018



METAR SVCS 221500Z 00000KT 9999 SCT070 28/XX Q1019



METAR SVCS 221400Z 00000KT 9999 SCT070 28/XX Q1019



METAR SVCS 221300Z 00000KT 9999 BKN050 28/XX Q1019



METAR SVCS 221200Z 00000KT 9999 BKN050 27/XX Q1019



METAR SVCS 221200Z 00000KT 9999 BKN050 27/XX Q11019



METAR SVCS 221100Z 00000KT 9999 BKN050 27/XX Q11019



METAR SVCS 212200 00000KT 9999 FEW020 27/XX Q1012



METAR SVCS 212100 00000KT 9999 BKN050 28/XX Q1013



METAR SVCS 212000 00000KT 9999 BKN050 28/XX Q1013







METAR SVCS 171500Z 00000KT 9999 BKN050 28/XX Q1018



METAR SVCS 171400Z 00000KT 9999 BKN050 28/XX Q1018



METAR SVCS 171300Z 00000KT 9999 BKN050 27/XX Q1018



METAR SVCS 171200Z 00000KT 9999 BKN050 27/XX Q1018



METAR SVCS 171200Z 00000KT 9999 BKN050 26/XX Q1018



METAR SVCS 171100Z 00000KT 9999 BKN050 26/XX Q1018



METAR SVCS 141900Z 00000KT 9999 FEW040 29/XX Q1014



METAR SVCS 141800Z 00000KT 9999 FEW040 29/XX Q1015



METAR SVCS 141700Z 00000KT 9999 FEW040 29/XX Q1016



METAR SVCS 141600Z 00000KT 9999 FEW040 29/XX Q1018



METAR SVCS 141500Z 00000KT 9999 SCT070 28/XX Q1018



METAR SVCS 141400Z 00000KT 9999 SCT070 28/XX Q1018



METAR SVCS 141300Z 00000KT 9999 SCT070 28/XX Q1018



METAR SVCS 141200Z 00000KT 9999 BKN050 27/XX Q1018



METAR SVCS 141100Z 00000KT 9999 BKN050 27/XX Q1018



METAR SVCS 101500Z 00000KT 9999 FEW020 28/XX Q1018



METAR SVCS 101400Z 00000KT 9999 SCT070 28/XX Q1018



METAR SVCS 101300Z 00000KT 9999 SCT070 27/XX Q1018



METAR SVCS 101200Z 00000KT 9999 SCT070 27/XX Q1018



METAR SVCS 101100Z 00000KT 9999 SCT070 27/XX Q1018



METAR SVCS 091500Z 00000KT 9999 SCT070 28/XX Q1019



METAR SVCS 091400Z 00000KT 9999 BKN050 28/XX Q1019



METAR SVCS 091300Z 00000KT 9999 BKN050 27/XX Q1019



METAR SVCS 091200Z 00000KT 9999 BKN050 27/XX Q1019



METAR SVCS 091100Z 00000KT 9999 BKN050 26/XX Q1019



METAR SVCS 081400Z 00000KT 9999 BKN050 28/XX Q1020



METAR SVCS 081300Z 00000KT 9999 BKN050 27/XX Q1020



METAR SVCS 081200Z 00000KT 9999 BKN050 27/XX Q1020



METAR SVCS 081100Z 00000KT 9999 BKN050 26/XX Q1020



METAR SVCS 071600Z 00000KT 9999 SCT070 29/XX Q1017



METAR SVCS 071500Z 00000KT 9999 SCT070 28/XX Q1018



METAR SVCS 071400Z 00000KT 9999 SCT070 28/XX Q1018



METAR SVCS 071300Z 00000KT 9999 SCT070 27/XX Q1018



METAR SVCS 071200Z 00000KT 9999 SCT070 26/XX Q1018



METAR SVCS 071100Z 00000KT 9999 SCT070 26/XX Q1018







METAR SVCS 271300Z 00000KT 9999 BKN050 27/XX Q1018



METAR SVCS 271200Z 00000KT 9999 BKN050 26/XX Q1018



METAR SVCS 271100Z 00000KT 9999 BKN050 25/XX Q1018



METAR SVCS 261300Z 00000KT 1000 MIFG OVC010 25/XX Q1017



METAR SVCS 261200Z 00000KT 9999 BKN050 25/XX Q1017



METAR SVCS 261100Z 00000KT 9999 BKN050 25/XX Q1017



METAR SVCS 242100Z 00000KT 9999 SCT070 27/XX Q1012



METAR SVCS 242000Z 00000KT 9999 SCT070 28/XX Q1014



METAR SVCS 241900Z 00000KT 9999 SCT070 28/XX Q1016



METAR SVCS 231600Z 00000KT 9999 SCT070 29/XX Q1019



METAR SVCS 231500Z 00000KT 9999 SCT070 28/XX Q1019



METAR SVCS 231400Z 00000KT 9999 SCT070 27/XX Q1019



METAR SVCS 231300Z 00000KT 9999 SCT070 27/XX Q1019



METAR SVCS 231200Z 00000KT 9999 SCT070 26/XX Q1019



METAR SVCS 231100Z 00000KT 9999 SCT070 26/XX Q1019







METAR SVCS 181400Z 00000KT 9999 SCT070 28/XX Q1016



METAR SVCS 181300Z 00000KT 9999 BKN050 28/XX Q1016



METAR SVCS 181200Z 00000KT 9999 BKN050 27/XX Q1016



METAR SVCS 181100Z 00000KT 9999 BKN050 27/XX Q1016



METAR SVCS 162100Z 00000KT 9999 FEW020 29/XX Q1013



METAR SVCS 162000Z 00000KT 9999 FEW020 29/XX Q1013



METAR SVCS 161900Z 00000KT 9999 SCT070 29/XX Q1014



METAR SVCS 161800Z 00000KT 9999 SCT070 29/XX Q1014



METAR SVCS 161700Z 00000KT 9999 SCT070 29/XX Q1015



METAR SVCS 161600Z 00000KT 9999 SCT070 28/XX Q1016



METAR SVCS 161500Z 00000KT 9999 BKN040 28/XX Q1017



METAR SVCS 161400Z 00000KT 9999 BKN040 27/XX Q1017



METAR SVCS 161300Z 00000KT 9999 BKN040 27/XX Q1017



METAR SVCS 161200Z 00000KT 8000 -HZ OVC040 26/XX Q1017



METAR SVCS 161100Z 00000KT 8000 -HZ OVC040 26/XX Q1017



METAR SVCS 141300Z 00000KT 9999 SCT070 27/XX Q1016



METAR SVCS 141200Z 00000KT 9999 SCT070 27/XX Q1016



METAR SVCS 141100Z 00000KT 9999 SCT070 26/XX Q1016







METAR SVCS 111800Z 00000KT 9999 FEW030 29/XX Q1017



METAR SVCS 111700Z 00000KT 9999 SCT070 29/XX Q1017



METAR SVCS 111600Z 00000KT 9999 SCT070 28/XX Q1017



METAR SVCS 111500Z 00000KT 9999 SCT070 28/XX Q1018



METAR SVCS 111400Z 00000KT 9999 SCT070 28/XX Q1018



METAR SVCS 111300Z 00000KT 9999 SCT070 27/XX Q1018



METAR SVCS 111200Z 00000KT 9999 SCT070 26/XX Q1018



METAR SVCS 111100Z 00000KT 9999 SCT070 26/XX Q1018



METAR SVCS 102000Z 00000KT 1000 MIFG OVC020 27/XX Q1012 REDZ



METAR SVCS 101900Z 00000KT 1000 MIFG OVC020 27/XX Q1015 REDZ



METAR SVCS 101800Z 00000KT 9999 OVC020 27/XX Q1015



METAR SVCS 101700Z 00000KT 9999 OVC020 27/XX Q1015



METAR SVCS 101600Z 00000KT 9999 OVC030 27/XX Q1016



METAR SVCS 101500Z 00000KT 6000 -HZ OVC030 26/XX Q1017



METAR SVCS 101400Z 00000KT 3000 +HZ OVC020 26/XX Q1019 RERA



METAR SVCS 101300Z 00000KT 3000 +RA OVC020 26/XX Q1019



METAR SVCS 101200Z 00000KT 5000 -HZ OVC020 26/XX Q1019



METAR SVCS 101100Z 00000KT 8000 -HZ BKN020 26/XX Q1019



METAR SVCS 091900Z 00000KT 9999 SCT070 30/XX Q1015



METAR SVCS 091800Z 00000KT 9999 SCT070 30/XX Q1015



METAR SVCS 091700Z 00000KT 9999 SCT070 30/XX Q1015



METAR SVCS 091600Z 00000KT 9999 SCT070 29/XX Q1016



METAR SVCS 091500Z 00000KT 9999 SCT070 29/XX Q1016



METAR SVCS 091400Z 00000KT 9999 SCT070 28/XX Q1017



METAR SVCS 091300Z 00000KT 9999 SCT070 28/XX Q1017



METAR SVCS 091200Z 00000KT 9999 SCT070 27/XX Q1017



METAR SVCS 091100Z 00000KT 9999 SCT070 27/XX Q1017







METAR SVCS 062100Z 00000KT 9999 SCT070 28/XX Q1014



METAR SVCS 062000Z 00000KT 9999 SCT070 28/XX Q1015



METAR SVCS 061900Z 00000KT 9999 SCT070 28/XX Q1016



METAR SVCS 061800Z 00000KT 9999 SCT070 28/XX Q1017



METAR SVCS 061700Z 00000KT 9999 BKN050 28/XX Q1018



METAR SVCS 061600Z 00000KT 9999 BKN050 28/XX Q1018



METAR SVCS 061500Z 00000KT 9999 BKN050 28/XX Q1019



METAR SVCS 061400Z 00000KT 9999 BKN050 28/XX Q1019



METAR SVCS 061300Z 00000KT 9999 BKN050 27/XX Q1019



METAR SVCS 061200Z 00000KT 9999 BKN050 27/XX Q1019



METAR SVCS 061100Z 00000KT 9999 BKN050 26/XX Q1019



METAR SVCS 042000Z 00000KT 9999 FEW040 28/XX Q1013



METAR SVCS 041900Z 00000KT 9999 SCT050 28/XX Q1014



METAR SVCS 041800Z 00000KT 9999 BKN050 28/XX Q1015



METAR SVCS 041700Z 00000KT 9999 BKN050 28/XX Q1016



METAR SVCS 041600Z 00000KT 9999 BKN050 28/XX Q1016



METAR SVCS 041500Z 00000KT 9999 SCT070 28/XX Q1017



METAR SVCS 041400Z 00000KT 9999 SCT070 28/XX Q1017



METAR SVCS 041300Z 00000KT 9999 SCT070 27/XX Q1017



METAR SVCS 041200Z 00000KT 9999 SCT070 26/XX Q1017



METAR SVCS 041100Z 00000KT 9999 SCT070 26/XX Q1017



METAR SVCS 031600Z 00000KT 9999 SCT070 29/XX Q1016



METAR SVCS 031500Z 00000KT 9999 SCT070 29/XX Q1016



METAR SVCS 031400Z 00000KT 9999 SCT070 28/XX Q1017



METAR SVCS 031300Z 00000KT 9999 SCT070 28/XX Q1017



METAR SVCS 031200Z 00000KT 9999 SCT070 27/XX Q1017



METAR SVCS 031100Z 00000KT 9999 SCT070 27/XX Q1017







METAR SVCS 131300Z 00000KT 9999 BKN050 27/XX Q1018



METAR SVCS 131200Z 00000KT 9999 BKN050 27/XX Q1018



METAR SVCS 131100Z 00000KT 9999 BKN050 27/XX Q1018



METAR SVCS 121700Z 00000KT 9999 BKN050 28/XX Q1016



METAR SVCS 121600Z 00000KT 9999 BKN040 28/XX Q1016



METAR SVCS 121500Z 00000KT 7000 -HZ BKN030 28/XX Q1017



METAR SVCS 121400Z 00000KT 2000 MIFG OVC020 27/XX Q1018



METAR SVCS 121300Z 00000KT 1000 MIFG OVC010 26/XX Q1018



METAR SVCS 121200Z 00000KT 2000 MIFG OVC010 26/XX Q1018



METAR SVCS 121100Z 00000KT 2000 MIFG OVC010 25/XX Q1018



METAR SVCS 091900Z 00000KT 9999 SCT070 29/XX Q1014



METAR SVCS 091800Z 00000KT 9999 SCT070 29/XX Q1014



METAR SVCS 091800Z 00000KT 9999 SCT070 29/XX Q1014



METAR SVCS 091700Z OOOOOKT 9999 SCT070 29/XX Q1016



METAR SVCS 091600Z OOOOOKT 9999 BKN050 29/XX Q1016



METAR SVCS 091500Z OOOOOKT 9999 BKN050 28/XX Q1016



METAR SVCS 091400Z 00000KT 9999 BKN040 28/XX Q1016



METAR SVCS 091300Z 00000KT 7000 -HZ OVC020 27/XX Q1016



METAR SVCS 091200Z 00000KT 7000 -HZ OVC020 26/XX Q1016



METAR SVCS 091100Z 00000KT 7000 -HZ OVC020 26/XX Q1016



METAR SVCS 081700Z 00000KT 9999 SCT070 28/XX Q1017



METAR SVCS 081600Z 00000KT 9999 SCT070 28/XX Q1017



METAR SVCS 081500Z 00000KT 9999 SCT070 28/XX Q1018



METAR SVCS 081400Z 00000KT 9999 SCT070 28/XX Q1018



METAR SVCS 081300Z 00000KT 9999 SCT070 27/XX Q1018



METAR SVCS 081200Z 00000KT 9999 SCT070 27/XX Q1018



METAR SVCS 081100Z 00000KT 9999 SCT070 26/XX Q1018







METAR SVCS 271400Z 00000KT 9999 BKN050 28/XX Q1018



METAR SVCS 271300Z 00000KT 9999 BKN050 27/XX Q1018



METAR SVCS 271200Z 00000KT 9999 BKN050 27/XX Q1018



METAR SVCS 271100Z 00000KT 9999 BKN050 26/XX Q1018







METAR SVCS 182000Z 00000KT 9999 BKN050 29/XX Q1015



METAR SVCS 181900Z 00000KT 9999 BKN050 29/XX Q1016



METAR SVCS 181800Z 00000KT 9999 BKN050 29/XX Q1016



METAR SVCS 181600Z 00000KT 9999 BKN050 29/XX Q1017



METAR SVCS 181500Z 00000KT 9999 BKN050 29/XX Q1018



METAR SVCS 181400Z 00000KT 9999 BKN050 28/XX Q1018



METAR SVCS 181300Z 00000KT 9999 BKN050 28/XX Q1018



METAR SVCS 181200Z 00000KT 9999 BKN050 27/XX Q1018



METAR SVCS 181100Z 00000KT 9999 BKN050 27/XX Q1018























METAR SVCS 051500Z 00000KT 9999 BKN050 29/XX Q1019



METAR SVCS 051400Z 00000KT 9999 BKN050 28/XX Q1019



METAR SVCS 051300Z 00000KT 9999 BKN050 28/XX Q1019



METAR SVCS 051200Z 00000KT 9999 BKN050 27/XX Q1019



METAR SVCS 051100Z 00000KT 9999 BKN050 27/XX Q1019



METAR SVCS 051500Z 00000KT 9999 BKN050 29/XX Q1019



METAR SVCS 051400Z 00000KT 9999 BKN050 28/XX Q1019



METAR SVCS 051300Z 00000KT 9999 BKN050 28/XX Q1019



METAR SVCS 051200Z 00000KT 9999 BKN050 27/XX Q1019



METAR SVCS 051100Z 00000KT 9999 BKN050 27/XX Q1019



METAR SVCS 032000Z 00000KT 9999 BKN050 27/XX Q1014



METAR SVCS 032000Z 00000KT 9999 BKN050 27/XX Q1015



METAR SVCS 031900Z 00000KT 9999 BKN050 27/XX Q1016 RERA



METAR SVCS 031900Z 00000KT 9999 BKN050 27/XX Q1016



METAR SVCS 032000Z 00000KT 9999 BKN050 27/XX Q1014



METAR SVCS 031900Z 00000KT 9999 BKN050 27/XX Q1014 RERA



METAR SVCS 031800Z 00000KT 3000 MIFG RA OVC020 27/XX Q1016



METAR SVCS 031800Z 00000KT 3000 MIFG RA OVCO20 27/XX Q1016



METAR SVCS 031700Z 00000KT 8000 -HZ BKN050 28/XX Q1017



METAR SVCS 031600Z 00000KT 8000 -HZ BKN050 28/XX Q1017



METAR SVCS 031900Z 00000KT 3000 MIFG RA OVC020 27/XX Q1016



METAR SVCS 031800Z 00000KT 3000 MIFG RA OVC020 27/XX Q1016



METAR SVCS 031700Z 00000KT 8000 -HZ OVC050 28/XX Q1017



METAR SVCS 031600Z 00000KT 8000 -HZ OVC050 28/XX Q1018



METAR SVCS 031500Z 00000KT 6000 -HZ OVC050 27/XX Q1018



METAR SVCS 031500Z 00000KT 8000 -HZ BKN050 28/XX Q1019



METAR SVCS 031500Z 00000KT 8000 -HZ BKN050 28/XX Q1019



METAR SVCS 031500Z 00000KT 8000 -HZ BKN050 28/XX Q1019



METAR SVCS 031500Z 00000KT 8000 -HZ BKN050 28/XX Q1019



METAR SVCS 031400Z 00000KT 6000 -HZ OVC050 27/XX Q1020



METAR SVCS 031300Z 00000KT 6000 -HZ BKN050 27/XX Q1020



METAR SVCS 031200Z 00000KT 7000 -HZ BKN050 27/XX Q1020 REDZ



METAR SVCS 031400Z 00000KT 6000 -HZ OVC050 27/XX Q1020



METAR SVCS 031300Z 00000KT 6000 -HZ BKN050 27/XX Q1020



METAR SVCS 031200Z 00000KT 7000 -HZ BKN050 27/XX Q1020 REDZ



METAR SVCS 031100Z 00000KT 7000 -HZ BKN050 27/XX Q1020



METAR SVCS 021800Z 00000KT 9999 SCT045 30/19 Q1014



METAR SVCS 021600Z 00000KT 9999 SCT045 28/19 Q1015



METAR SVCS 021400Z 00000KT 9999 SCT045 25/19 Q1016



METAR SVCS 021300Z 00000KT 9999 SCT045 24/19 Q1017



METAR SVCS 302100Z 00000KT 9999 BKN050 28/XX Q1014



METAR SVCS 302000Z 00000KT 9999 BKN050 28/XX Q1014



METAR SVCS 301900Z 00000KT 8000 -HZ BKN040 28/XX Q1015



METAR SVCS 301800Z 00000KT 5000 +HZ OVC040 28/XX Q1017 CBS



METAR SVCS 301700Z 00000KT 5000 +HZ OVC040 28/XX Q1017 CBS



METAR SVCS 301600Z 00000KT 9999 OVC040 28/XX Q1017 CBS



METAR SVCS 301500Z 00000KT 9999 BKN050 28/XX Q1018



METAR SVCS 301400Z 00000KT 9999 BKN050 28/XX Q1018



METAR SVCS 301300Z 00000KT 9999 BKN050 27/XX Q1018



METAR SVCS 301200Z 00000KT 8000 -HZ BKN050 26/XX Q1018



METAR SVCS 301100Z 00000KT 8000 -HZ BKN050 26/XX Q1018







METAR SVCS 211900Z 00000KT 9999 BKN040 28/XX Q1015



METAR SVCS 211800Z 00000KT 9999 OVC040 28/XX Q1016



METAR SVCS 211700Z 00000KT 9999 OVC040 28/XX Q1016



METAR SVCS 211600Z 00000KT 9999 OVC040 28/XX Q1017



METAR SVCS 211500Z 00000KT 9999 OVC040 28/XX Q1017



METAR SVCS 211400Z 00000KT 9999 OVC040 27/XX Q1017



METAR SVCS 211300Z 00000KT 9999 OVC040 27/XX Q1018



METAR SVCS 211200Z 00000KT 9999 OVC040 26/XX Q1018



METAR SVCS 211100Z 00000KT 9999 OVC040 26/XX Q1018



METAR SVCS 201600Z 00000KT 9999 OVC040 27/XX Q1016



METAR SVCS 201500Z 00000KT 9999 OVC040 27/XX Q1017



METAR SVCS 201400Z 00000KT 9999 OVC040 27/XX Q1018



METAR SVCS 201300Z 00000KT 9999 OVC040 27/XX Q1018



METAR SVCS 201200Z 00000KT 9999 OVC040 26/XX Q1018



METAR SVCS 201100Z 00000KT 9999 OVC040 26/XX Q1018



METAR SVCS 201100Z 00000KT 9999 OVC040 26/XX Q1018



METAR SVCS 171700Z 00000KT 9999 SCT070 30/XX Q1017



METAR SVCS 171600Z 00000KT 9999 SCT070 29/XX Q1017



METAR SVCS 171500Z 00000KT 9999 SCT070 28/XX Q1017



METAR SVCS 171400Z 00000KT 9999 SCT070 28/XX Q1017



METAR SVCS 171300Z 00000KT 9999 SCT070 27/XX Q1017



METAR SVCS 171200Z 00000KT 9999 SCT070 26/XX Q1017



METAR SVCS 171100Z 00000KT 9999 SCT070 26/XX Q1017











METAR SVCS 071800Z 00000KT 9999 BKN050 30/XX Q1015



METAR SVCS 071700Z 00000KT 9999 BKN050 29/XX Q1016



METAR SVCS 071600Z 00000KT 9999 BKN050 29/XX Q1016



METAR SVCS 071500Z 00000KT 7000 -HZ OVC040 28/XX Q1018



METAR SVCS 071400Z 00000KT 7000 -HZ OVC040 28/XX Q1018



METAR SVCS 071300Z 00000KT 7000 -HZ OVC040 27/XX Q1018



METAR SVCS 071200Z 00000KT 7000 -HZ OVC040 26/XX Q1018



METAR SVCS 071100Z 00000KT 7000 -HZ OVC040 26/XX Q1018



METAR SVCS 062000Z 00000KT 2000 -HZ OVC020 27/XX Q1014 CB



METAR SVCS 061900Z 00000KT 2000 -HZ OVC020 26/XX Q1015 CB



METAR SVCS 061800Z 00000KT 1000 MIFG -DZ OVC010 25/XX Q1016 CBS



METAR SVCS 061700Z 00000KT 1000 MIFG -DZ OVC010 26/XX Q1018 CBS



METAR SVCS 061600Z 00000KT 1000 +RA OVC010 26/XX Q1018 CB



METAR SVCS 061500Z 00000KT 1000 +RA OVC010 26/XX Q1018 CB



METAR SVCS 061500Z 00000KT 1000 +RA OVC010 26/XX Q1018



METAR SVCS 061500Z 00000KT 1000 MIFG OVC010 26/XX Q1018



METAR SVCS 061400Z 00000KT 4000 +HZ OVC020 26/XX Q1019



METAR SVCS 061300Z 00000KT 4000 +HZ OVC020 26/XX Q1019



METAR SVCS 061200Z 00000KT 1000 MIFG OVC010 27/XX Q1019



METAR SVCS 061100Z 00000KT 1000 MIFG OVC010 27/XX Q1019



METAR SVCS 031500Z 00000KT 1000 MIFG OVC010 26/XX Q1017 REDZ



METAR SVCS 031400Z 00000KT 1000 MIFG -DZ OVC010 26/XX Q1017



METAR SVCS 031300Z 00000KT 1000 MIFG -DZ OVC010 26/XX Q1017



METAR SVCS 031200Z 00000KT 1000 MIFG OVC010 26/XX Q1017



METAR SVCS 031100Z 00000KT 1000 MIFG OVC010 26/XX Q1017



METAR SVCS 021500Z 00000KT 9999 BKN050 27/XX Q1017



METAR SVCS 021400Z 00000KT 9999 BKN050 27/XX Q1017



METAR SVCS 021300Z 00000KT 7000 -HZ BKN040 27/XX Q1017



METAR SVCS 02100Z 00000KT 7000 -HZ BKN040 27/XX Q1017



METAR SVCS 02100Z 00000KT 7000 BKN040 27/XX Q1017



METAR SVCS 021200Z 00000KT 7000 BKN040 26/XX Q1017



METAR SVCS 021100Z 00000KT 7000 BKN040 26/XX Q1017



METAR SVCS 012000Z 09005KT 9999 BKN035 26/XX Q1013



METAR SVCS 011800Z 09005KT 9999 BKN035 26/XX Q1013



METAR SVCS 011600Z 09005KT 9999 BKN035 22/XX Q1013



METAR SVCS 011400Z 09005KT 9999 BKN035 22/XX Q1013



METAR SVCS 011400Z 09005KT 9999 BKN035 22/XX Q1013



METAR SVCS 011200Z 09005KT 9999 BKN035 22/XX Q1013



METAR SVCS 302000Z 09005KT 8000 BKN035 26/XX Q1013



METAR SVCS 301800Z 09005KT 8000 BKN035 26/XX Q1013



METAR SVCS 301600Z 09005KT 8000 BKN035 26/XX Q1013



METAR SVCS 301400Z 09005KT 8000 BKN035 22/XX Q1013



METAR SVCS 301200Z 09005KT 8000 BKN035 22/XX Q1013



METAR SVCS 292000Z 09005KT 4000 DZ BKN035 26/XX Q1013



METAR SVCS 291600Z 09005KT 4000 DZ BKN035 26/XX Q1013



METAR SVCS 291400Z 09005KT 4000 DZ BKN035 24/XX Q1014



METAR SVCS 291200Z 09005KT 4000 DZ BKN035 22/XX Q1014



METAR SVCS 262000Z 09005KT 2000 DZ OVC025 24/XX Q1014



METAR SVCS 261800Z 09005KT 2000 DZ OVC025 24/XX Q1014



METAR SVCS 261600Z 09005KT 2000 DZ OVC025 22/XX Q1014



METAR SVCS 261400Z 09005KT 2000 DZ OVC025 22/XX Q1014



METAR SVCS 261200Z 09005KT 2000 DZ OVC025 22/XX Q1014



METAR SVCS 252000Z 09005KT 2000 DZ OVC025 26/XX Q1015



METAR SVCS 251800Z 09005KT 2000 DZ OVC025 26/XX Q1015



METAR SVCS 251600Z 09005KT 2000 DZ OVC025 22/XX Q1015



METAR SVCS 251400Z 09005KT 2000 DZ OVC025 22/XX Q1015



METAR SVCS 251200Z 09005KT 2000 DZ OVC025 22/XX Q1015



METAR SVCS 251200Z 09005KT 2000 DZ OVC025 22/XX Q1015



METAR SVCS 241400Z 00000KT 0500 MIFG +DZ OVC010 25/XX Q1019



METAR SVCS 241300Z 00000KT 0500 MIFG +DZ OVC010 25/XX Q1019



METAR SVCS 241200Z 00000KT 1000 +HZ OVC010 25/XX Q1019



METAR SVCS 241100Z 00000KT 1000 +HZ OVC010 25/XX Q1019



METAR SVCS 231400Z 00000KT 8000 -HZ OVC040 27/XX Q1017



METAR SVCS 231300Z 00000KT 7000 -HZ OVC040 27/XX Q1017



METAR SVCS 231200Z 00000KT 7000 -HZ OVC040 26/XX Q1017



METAR SVCS 231100Z 00000KT 7000 -HZ OVC040 26/XX Q1017



METAR SVCS 222000Z 00000KT 9999 FEW020 31/XX Q1014



METAR SVCS 221900Z 00000KT 9999 SCT070 30/XX Q1014



METAR SVCS 221800Z 00000KT 9999 SCT070 30/XX Q1015



METAR SVCS 221700Z 00000KT 9999 SCT070 30/XX Q1015



METAR SVCS 221600Z 00000KT 9999 SCT070 29/XX Q1016



METAR SVCS 221500Z 00000KT 9999 SCT070 28/XX Q1018



METAR SVCS 221400Z 00000KT 9999 SCT070 28/XX Q1018



METAR SVCS 221300Z 00000KT 9999 SCT070 28/XX Q1018



METAR SVCS 221200Z 00000KT 9999 SCT070 27/XX Q1018



METAR SVCS 221100Z 00000KT 9999 SCT070 27/XX Q1018



METAR SVCS 191600Z 00000KT 9999 BKN050 30/XX Q1016



METAR SVCS 191500Z 00000KT 9999 BKN050 29/XX Q1017



METAR SVCS 191400Z 00000KT 9999 BKN050 28/XX Q1017



METAR SVCS 191300Z 00000KT 9999 BKN050 27/XX Q1017



METAR SVCS 191200Z 00000KT 9999 BKN050 26/XX Q1017



METAR SVCS 191100Z 00000KT 9999 BKN050 26/XX Q1017



METAR SVCS 182000Z 00000KT 9999 BKN050 29/XX Q1014



METAR SVCS 181900Z 00000KT 9999 BKN050 29/XX Q1015



METAR SVCS 181800Z 00000KT 9999 BKN050 29/XX Q1015



METAR SVCS 181700Z 00000KT 9999 BKN040 29/XX Q1016



METAR SVCS 181600Z 00000KT 9999 BKN040 29/XX Q1017



METAR SVCS 181500Z 00000KT 8000 -HZ BKN040 29/XX Q1017



METAR SVCS 181400Z 00000KT 7000 -HZ OVC030 28/XX Q1017



METAR SVCS 181300Z 00000KT 7000 -HZ OVC030 27/XX Q1017



METAR SVCS 181200Z 00000KT 7000 -HZ OVC030 26/XX Q1017



METAR SVCS 181100Z 00000KT 7000 -HZ OVC030 26/XX Q1017







METAR SVCS 131600Z 00000KT 8000 -HZ FEW020 28/XX Q1017



METAR SVCS 131500Z 00000KT 8000 -HZ FEW020 28/XX Q1017



METAR SVCS 131400Z 00000KT 7000 +HZ FEW020 28/XX Q1017



METAR SVCS 131300Z 00000KT 7000 +HZ FEW020 28/XX Q1017



METAR SVCS 131200Z 00000KT 7000 +HZ FEW020 27/XX Q1017



METAR SVCS 131100Z 00000KT 7000 +HZ FEW020 27/XX Q1017







METAR SVCS 092100Z 00000KT 9999 FEW020 32/XX Q1014



METAR SVCS 092000Z 00000KT 9999 FEW020 32/XX Q1014



METAR SVCS 091900Z 00000KT 9999 FEW020 32/XX Q1015



METAR SVCS 091800Z 00000KT 9999 FEW020 32/XX Q1016



METAR SVCS 091700Z 00000KT 9999 FEW020 31/XX Q1016



METAR SVCS 091600Z 00000KT 9999 FEW040 29/XX Q1017



METAR SVCS 091500Z 00000KT 9999 SCT070 29/XX Q1019



METAR SVCS 091400Z 00000KT 9999 SCT070 28/XX Q1019



METAR SVCS 091300Z 00000KT 9999 SCT070 28/XX Q1019



METAR SVCS 091200Z 00000KT 9999 SCT070 27/XX Q1019



METAR SVCS 091100Z 00000KT 9999 SCT070 27/XX Q1019



METAR SVCS 081700Z 00000KT 9999 SCT050 30/XX Q1017



METAR SVCS 081600Z 00000KT 9999 SCT050 29/XX Q1017



METAR SVCS 081500Z 00000KT 9999 SCT050 29/XX Q1018



METAR SVCS 081400Z 00000KT 9999 SCT050 28/XX Q1018



METAR SVCS 081300Z 00000KT 9999 SCT050 28/XX Q1018



METAR SVCS 081200Z 00000KT 9999 SCT050 27/XX Q1018



METAR SVCS 081100Z 00000KT 9999 SCT050 27/XX Q1018



METAR SVCS 051700Z 00000KT 9999 FEW030 30/XX Q1018



METAR SVCS 051600Z 00000KT 9999 FEW030 30/XX Q1018



METAR SVCS 051500Z 00000KT 9999 FEW030 29/XX Q1019



METAR SVCS 051400Z 00000KT 9999 FEW030 28/XX Q1019



METAR SVCS 051300Z 00000KT 9999 FEW030 28/XX Q1019



METAR SVCS 051200Z 00000KT 9999 FEW030 27/XX Q1019



METAR SVCS 051100Z 00000KT 9999 FEW030 27/XX Q1019



METAR SVCS 041800Z 00000KT 9999 FEW020 31/XX Q1018



METAR SVCS 041700Z 00000KT 9999 FEW020 30/XX Q1018



METAR SVCS 041600Z 00000KT 9999 FEW020 30/XX Q1018



METAR SVCS 041500Z 00000KT 9999 FEW020 29/XX Q1019



METAR SVCS 041400Z 00000KT 9999 FEW020 29/XX Q1019



METAR SVCS 041300Z 00000KT 9999 SCT070 28/XX Q1019



METAR SVCS 041200Z 00000KT 9999 SCT070 27/XX Q1019



METAR SVCS 041100Z 00000KT 9999 SCT070 27/XX Q1019







METAR SVCS 261800Z 00000KT 9999 SCT070 30/XX Q1016



METAR SVCS 261700Z 00000KT 9999 SCT070 29/XX Q1016



METAR SVCS 261600Z 00000KT 9999 SCT070 29/XX Q1016



METAR SVCS 261500Z 00000KT 9999 SCT070 28/XX Q1017



METAR SVCS 261400Z 00000KT 9999 SCT070 28/XX Q1017



METAR SVCS 261300Z 00000KT 9999 SCT070 27/XX Q1017



METAR SVCS 261200Z 00000KT 9999 SCT070 26/XX Q1017



METAR SVCS 261100Z 00000KT 9999 SCT070 26/XX Q1017



METAR SVCS 251800Z 00000KT 9999 SCT070 30/XX Q1016



METAR SVCS 251700Z 00000KT 9999 SCT070 29/XX Q1016



METAR SVCS 251600Z 00000KT 9999 BKN040 29/XX Q1016



METAR SVCS 251400Z 00000KT 8000 -HZ BKN040 28/XX Q1017



METAR SVCS 251300Z 00000KT 7000 -HZ BKN040 27/XX Q1017



METAR SVCS 251200Z 00000KT 7000 -HZ BKN040 26/XX Q1017



METAR SVCS 251100Z 00000KT 7000 -HZ BKN040 26/XX Q1017



METAR SVCS 221800Z 00000KT 9999 SKC 30/XX Q1015



METAR SVCS 221700Z 00000KT 9999 SKC 29/XX Q1016



METAR SVCS 221600Z 00000KT 9999 SKC 29/XX Q1016



METAR SVCS 221400Z 00000KT 9999 SKC 28/XX Q1017



METAR SVCS 221300Z 00000KT 9999 SKC 27/XX Q1017



METAR SVCS 221200Z 00000KT 9999 SKC 27/XX Q1017



METAR SVCS 221100Z 00000KT 9999 SKC 27/XX Q1017



METAR SVCS 212000Z 00000KT 9999 SKC 30/XX Q1015



METAR SVCS 211900Z 00000KT 9999 SKC 30/XX Q1015



METAR SVCS 211800Z 00000KT 9999 SKC 30/XX Q1016



METAR SVCS 211700Z 00000KT 9999 SKC 30/XX Q1016



METAR SVCS 211600Z 00000KT 9999 SKC 30/XX Q1016



METAR SVCS 211500Z 00000KT 9999 SKC 29/XX Q1016



METAR SVCS 211400Z 00000KT 9999 SKC 28/XX Q1016



METAR SVCS 211300Z 00000KT 9999 SKC 28/XX Q1017



METAR SVCS 211200Z 00000KT 9999 SKC 27/XX Q1017



METAR SVCS 211100Z 00000KT 9999 SKC 27/XX Q1017







METAR SVCS 141400Z 00000KT 9999 BKN050 28/XX Q1017



METAR SVCS 141300Z 00000KT 9999 BKN050 27/XX Q1017



METAR SVCS 141200Z 00000KT 9999 BKN050 27/XX Q1017



METAR SVCS 141100Z 00000KT 9999 BKN050 27/XX Q1017



METAR SVCS 131600Z 00000KT 9999 BKN040 28/XX Q1018



METAR SVCS 131500Z 00000KT 9999 OVC040 28/XX Q1018



METAR SVCS 131400Z 00000KT 9999 OVC040 28/XX Q1018



METAR SVCS 131300Z 00000KT 9999 OVC040 27/XX Q1018



METAR SVCS 131200Z 00000KT 9999 OVC040 26/XX Q1018



METAR SVCS 131100Z 00000KK 9999 OVC040 26/XX Q1018



METAR SVCS 122000Z 00000KT 9999 BKN050 28/XX Q1014



METAR SVCS 121900Z 00000KT 9999 BKN050 28/XX Q1016



METAR SVCS 121800Z 00000KT 9999 BKN050 28/XX Q1016



METAR SVCS 121500Z 00000KT 7000 -HZ OVC040 28/XX Q1017



METAR SVCS 121400Z 00000KT 7000 -HZ OVC040 27/XX Q1018



METAR SVCS 121300Z 00000KT 7000 -HZ OVC040 27/XX Q1018



METAR SVCS 121200Z 00000KT 7000 -HZ OVC040 26/XX Q1018



METAR SVCS 121100Z 00000KT 7000 -HZ OVC040 26/XX Q1018



METAR SVCS 112100Z 00000KT 9999 FEW020 28/XX Q1013



METAR SVCS 112000Z 00000KT 9999 FEW020 29/XX Q1014



METAR SVCS 111900Z 00000KT 9999 SCT070 29/XX Q1015



METAR SVCS 111800Z 00000KT 9999 SCT070 29/XX Q1016



METAR SVCS 111700Z 00000KT 9999 SCT070 28/XX Q1016



METAR SVCS 111600Z 00000KT 9999 SCT070 28/XX Q1016



METAR SVCS 111500Z 00000KT 9999 SCT070 28/XX Q1017



METAR SVCS 111400Z 00000KT 9999 SCT070 27/XX Q1017



METAR SVCS 111300Z 00000KT 9999 SCT070 27/XX Q1017



METAR SVCS 111200Z 00000KT 9999 SCT070 27/XX Q1017



METAR SVCS 111100Z 00000KT 9999 SCT070 27/XX Q1017



METAR SVCS 081900Z 00000KT 9999 FEW030 29/XX Q1016



METAR SVCS 081800Z 00000KT 9999 FEW030 29/XX Q1017



METAR SVCS 081700Z 00000KT 9999 FEW030 29/XX Q1017



METAR SVCS 081600Z 00000KT 9999 SCT070 28/XX Q1018



METAR SVCS 081500Z 00000KT 9999 SCT070 28/XX Q1019



METAR SVCS 081400Z 00000KT 9999 SCT070 27/XX Q1019



METAR SVCS 081300Z 00000KT 9999 SCT070 27/XX Q1019



METAR SVCS 081200Z 00000KT 9999 SCT070 26/XX Q1019



METAR SVCS 081100Z 00000KT 9999 SCT070 26/XX Q1019



METAR SVCS 071900Z 00000KT 9999 FEW020 29/XX Q1018



METAR SVCS 071800Z 00000KT 9999 FEW020 29/XX Q1019



METAR SVCS 071700Z 00000KT 9999 FEW020 28/XX Q1019



METAR SVCS 071600Z 00000KT 9999 FEW020 28/XX Q1019



METAR SVCS 071500Z 00000KT 9999 FEW030 27/XX Q1020



METAR SVCS 071400Z 00000KT 9999 FEW030 27/XX Q1020



METAR SVCS 071300Z 00000KT 9999 FEW030 27/XX Q1020



METAR SVCS 071200Z 00000KT 9999 FEW030 26/XX Q1020



METAR SVCS 071100Z 00000KT 9999 FEW030 26/XX Q1020







METAR SVCS 262100Z 00000KT 9999 SKC 28/XX Q1014



METAR SVCS 262000Z 00000KT 9999 SKC 29/XX Q1016



METAR SVCS 261900Z 00000KT 9999 FEW020 29/XX Q1016



METAR SVCS 261800Z 00000KT 9999 FEW020 29/XX Q1016



METAR SVCS 261700Z 00000KT 9999 SCT050 29/XX Q1016



METAR SVCS 261600Z 00000KT 9999 SCT070 28/XX Q1017



METAR SVCS 261500Z 00000KT 9999 SCT070 28/XX Q1017



METAR SVCS 261400Z 00000KT 9999 SCT070 27/XX Q1018



METAR SVCS 261300Z 00000KT 9999 SCT070 27/XX Q1018



METAR SVCS 261200Z 00000KT 9999 SCT070 26/XX Q1018



METAR SVCS 261100Z 00000KT 9999 SCT070 26/XX Q1018



METAR SVCS 252100Z 00000KT 9999 SKC 28/XX Q1014



METAR SVCS 252000Z 00000KT 9999 SKC 28/XX Q1014



METAR SVCS 251900Z 00000KT 9999 FEW020 28/XX Q1015



METAR SVCS 251800Z 00000KT 9999 FEW020 28/XX Q1016



METAR SVCS 251700Z 00000KT 9999 SCT050 28/XX Q1017



METAR SVCS 251600Z 00000KT 9999 SCT050 28/XX Q1018



METAR SVCS 251500Z 00000KT 9999 BKN050 28/XX Q1018



METAR SVCS 251400Z 00000KT 9999 OVC050 27/XX Q1018



METAR SVCS 251300Z 00000KT 9999 BKN050 27/XX Q1018



METAR SVCS 251200Z 00000KT 9999 BKN050 27/XX Q1018



METAR SVCS 251100Z 00000KT 9999 BKN050 27/XX Q1018



METAR SVCS 221700Z 00000KT 9999 SCT050 28/XX Q1016



METAR SVCS 221700Z 00000KT 9999 BKN050 28/XX Q1016



METAR SVCS 221600Z 00000KT 9999 BKN050 28/XX Q1017



METAR SVCS 221500Z 00000KT 9999 BKN050 28/XX Q1017



METAR SVCS 221500Z 00000KT 9999 BKN050 28/XX Q1017



METAR SVCS 221400Z 00000KT 9999 BKN050 27/XX Q1017



METAR SVCS 221300Z 00000KT 9999 BKN050 27/XX Q1017



METAR SVCS 221200Z 00000KT 9999 BKN050 27/XX Q1017



METAR SVCS 221100Z 00000KT 9999 BKN050 27/XX Q1017



METAR SVCS 212000Z 00000KT 9999 FEW040 28/XX Q1015



METAR SVCS 211900Z 00000KT 9999 SCT070 28/XX Q1017



METAR SVCS 211800Z 00000KT 9999 SCT070 28/XX Q1018



METAR SVCS 211700Z 00000KT 9999 SCT070 28/XX Q1018



METAR SVCS 211600Z 00000KT 9999 SCT070 28/XX Q1018



METAR SVCS 211500Z 00000KT 9999 BKN050 28/XX Q1018



METAR SVCS 211400Z 00000KT 9999 BKN050 27/XX Q1018



METAR SVCS 211300Z 00000KT 9999 BKN050 27/XX Q1018



METAR SVCS 211200Z 00000KT 9999 BKN050 27/XX Q1018



METAR SVCS 211100Z 00000KT 9999 BKN050 27/XX Q1018







METAR SVCS 131700Z 00000KT 9999 SCT070 28/XX Q1016



METAR SVCS 131600Z 00000KT 9999 SCT070 28/XX Q1017



METAR SVCS 131500Z 00000KT 9999 SCT070 28/XX Q1018



METAR SVCS 131400Z 00000KT 9999 SCT070 27/XX Q1018



METAR SVCS 131300Z 00000KT 9999 SCT070 27/XX Q1018



METAR SVCS 131200Z 00000KT 9999 SCT070 27/XX Q1018



METAR SVCS 131100Z 00000KT 9999 SCT070 26/XX Q1018



METAR SVCS 121600Z 00000KT 9999 FEW030. 28/XX Q1018



METAR SVCS 121500Z 00000KT 9999 FEW030. 28/XX Q1018



METAR SVCS 121400Z 00000KT 9999 FEW030. 27/XX Q1018



METAR SVCS 121400Z 00000KT 9999 FEW030. 27/XX Q1018



METAR SVCS 121300Z 00000KT 9999 FEW030. 27/XX Q1018



METAR SVCS 121200Z 00000KT 9999 FEW030. 27/XX Q1019



METAR SVCS 121100Z 00000KT 9999 FEW030. 26/XX Q1019



METAR SVCS 111100Z 00000KT 9999 FEW020 26/XX Q1018



METAR SVCS 091700Z 00000KT 9999 BKN045 28/19 Q1016



METAR SVCS 091600Z 00000KT 9999 BKN045 28/19 Q1016



METAR SVCS 072000Z 00000KT 9999 BKN050 28/XX Q1015



METAR SVCS 071900Z 00000KT 9999 BKN050 28/XX Q1016



METAR SVCS 071800Z 00000KT 9999 BKN050 27/XX Q1016



METAR SVCS 071600Z 00000KT 5000 -HZ OVC020 27/XX Q1017



METAR SVCS 071500Z 00000KT 3000 +HZ OVC010 25/23 Q1018



METAR SVCS 071400Z 00000KT 3000 +HZ OVC010 23/23 Q1018 REDZ



METAR SVCS 071300Z 00000KT 1000 +DZ OVC010 23/23 Q1018



METAR SVCS 071200Z 00000KT 5000 -HZ OVC020 26/XX Q1018



METAR SVCS 071100Z 00000KT 5000 -HZ OVC020 26/XX Q1018



METAR SVCS 061800Z 00000KT 9999 SCT070 28/XX Q1017



METAR SVCS 052100Z 00000KT 9999 SCT070 28/XX Q1014



METAR SVCS 052000Z 00000KT 9999 SCT070 28/XX Q1015



METAR SVCS 052000Z 00000KT 9999 SCT070 29/XX Q1015



METAR SVCS 051900Z 00000KT 9999 SCT070 29/XX Q1016



METAR SVCS 051800Z 00000KT 9999 SCT070 29/XX Q1016



METAR SVCS 051700Z 00000KT 9999 FEW030 29/XX Q1017



METAR SVCS 051600Z 00000KT 9999 FEW030 28/XX Q1018



METAR SVCS 051500Z 00000KT 9999 SKC 28/XX Q1018



METAR SVCS 051400Z 00000KT 9999 SKC 28/XX Q1018



METAR SVCS 051300Z 00000KT 9999 SKC 27/XX Q1018



METAR SVCS 051200Z 00000KT 9999 SKC 27/XX Q1018



METAR SVCS 051100Z 00000KT 9999 SKC 27/XX Q1018



METAR SVCS 292000Z 00000KT 9999 SCT050 28/XX Q1016



METAR SVCS 291900Z 00000KT 9999 SCT050 29/XX Q1016



METAR SVCS 291800Z 00000KT 9999 SCT050 29/XX Q1016



METAR SVCS 291700Z 00000KT 9999 SCT070 29/XX Q1017



METAR SVCS 291600Z 00000KT 9999 SCT070 28/XX Q1019



METAR SVCS 291500Z 00000KT 9999 SCT070 28/XX Q1019



METAR SVCS 291400Z 00000KT 9999 SCT070 27/XX Q1020



METAR SVCS 291300Z 00000KT 9999 SCT070 27/XX Q1020



METAR SVCS 291200Z 00000KT 9999 SCT070 27/XX Q1020



METAR SVCS 291100Z 00000KT 9999 SCT070 27/XX Q1020



METAR SVCS 281900Z 00000KT 9999 SCT070 28/XX Q1016



METAR SVCS 281800Z 00000KT 9999 SCT070 28/XX Q1016



METAR SVCS 281700Z 00000KT 9999 SCT070 28/XX Q1016



METAR SVCS 281600Z 00000KT 9999 SCT070 28/XX Q1017



METAR SVCS 281500Z 00000KT 9999 SCT070 28/XX Q1018



METAR SVCS 281400Z 00000KT 9999 BKN040 27/XX Q1018



METAR SVCS 281300Z 00000KT 9999 BKN040 27/XX Q1018



METAR SVCS 281200Z 00000KT 8000 -HZ BKN040 25/XX Q1018



METAR SVCS 281100Z 00000KT 8000 -HZ BKN040 25/23 Q1018



METAR SVCS 271900Z 10010KT 9999 SCT050 29/20 Q1016



METAR SVCS 262000Z 15010KT 9999 BKN045 27/19 Q1016



METAR SVCS 261500Z 15010KT 9999 BKN045 28/19 Q1016



METAR SVCS 251900Z 09010KT 9999 BKN035 27/XX Q1017



METAR SVCS 251700Z 09105KT 9999 BKN035 28/XX Q1016



METAR SVCS 251500Z 09105KT 9999 BKN035 27/XX Q1017



METAR SVCS 251300Z 09005KT 9999 BKN035 24/XX Q1018



METAR SVCS 251100Z 09005KT 9999 SCT035 22/XX Q1018



METAR SVCS 242100Z 00000KT 9999 SCT070 28/XX Q1014



METAR SVCS 242000Z 00000KT 9999 SCT070 29/XX Q1015



METAR SVCS 241900Z 00000KT 9999 SCT070 29/XX Q1016



METAR SVCS 241800Z 00000KT 9999 SCT070 29/XX Q1017



METAR SVCS 241800Z 00000KT 9999 SCT070 29/XX Q1017



METAR SVCS 24100Z 00000KT 9999 SCT070 29/XX Q101



METAR SVCS 241700Z 00000KT 9999 SCT070 29/XX Q1019



METAR SVCS 241600Z 00000KT 9999 SCT070 28/XX Q1019



METAR SVCS 241500Z 00000KT 9999 SCT070 28/XX Q1020



METAR SVCS 241400Z 00000KT 9999 SCT070 27/XX Q1020



METAR SVCS 241300Z 00000KT 9999 BKN050 27/XX Q1020



METAR SVCS 241200Z 00000KT 7000 -HZ OVC040 26/XX Q1020



METAR SVCS 241100Z 00000KT 7000 -HZ OVC040 26/XX Q1020



METAR SVCS 231100Z 09005KT 9999 BKN035 22/XX Q1018



METAR SVCS 212100Z 09010KT 9999 SCT035 28/XX Q1016



METAR SVCS 211900Z 09010KT 9999 SCT035 28/XX Q1016



METAR SVCS 211700Z 09010KT 9999 SCT035 28/XX Q1016



METAR SVCS 211500Z 09010KT 9999 SCT035 26/XX Q1017



METAR SVCS 211300Z 09010KT 9999 SCT035 23/XX Q1018



METAR SVCS 211100Z 09010KT 9999 SCT035 22/XX Q1018



METAR SVCS 182100Z 09010KT 9999 SCT035 28/XX Q1015



METAR SVCS 181900Z 09010KT 9999 SCT035 28/XX Q1015



METAR SVCS 181800Z 09010KT 9999 BKN035 28/XX Q1016



METAR SVCS 181700Z 09010KT 9999 BKN035 28/XX Q1016



METAR SVCS 181500Z 09010KT 9999 BKN035 27/XX Q1017



METAR SVCS 181300Z 09005KT 9999 BKN035 24/XX Q1018



METAR SVCS 181100Z 09005KT 9999 BKN035 22/XX Q1018



METAR SVCS 172100Z 09010KT 9999 SCT035 28/XX Q1015



METAR SVCS 171900Z 09010KT 9999 SCT035 28/XX Q1016



METAR SVCS 171800Z 09010KT 9999 BKN035 28/XX Q1016



METAR SVCS 171700Z 09010KT 9999 BKN035 28/XX Q1016



METAR SVCS 171500Z 09006KT 9999 BKN035 26/XX Q1017



METAR SVCS 171300Z 09004KT 9999 SCT035 24/XX Q1018



METAR SVCS 171100Z 09004KT 9999 SCT035 22/XX Q1018



METAR SVCS 152000Z 00000KT 9999 SKC 29/20 Q1015



METAR SVCS 151900Z 00000KT 9999 SKC 29/20 Q1016



METAR SVCS 151800Z 00000KT 9999 FEW020 29/20 Q1016



METAR SVCS 151700Z 00000KT 9999 FEW020 29/20 Q1017



METAR SVCS 151600Z 00000KT 9999 FEW020 28/20 Q1017



METAR SVCS 1515600Z 00000KT 9999 FEW020 28/20 Q1017



METAR SVCS 151500Z 00000KT 9999 FEW020 28/20 Q1017



METAR SVCS 151400Z 00000KT 9999 FEW020 28/20 Q1018



METAR SVCS 151300Z 00000KT 9999 FEW020 27/20 Q1018



METAR SVCS 151200Z 00000KT 9999 FEW020 26/20 Q1018



METAR SVCS 151100Z 00000KT 9999 FEW020 26/20 Q1018



METAR SVCS 141600Z 00000KT 9999 SCT070 28/21 Q1018



METAR SVCS 141500Z 00000KT 9999 SCT070 28/21 Q1019



METAR SVCS 141400Z 00000KT 9999 SCT050 27/21 Q1019



METAR SVCS 141300Z 00000KT 9999 BKN050 27/21 Q1019



METAR SVCS 141200Z 00000KT 9999 BKN050 26/21 Q1019



METAR SVCS 141100Z 00000KT 9999 BKN050 26/21 Q1019



METAR SVCS 111900Z 00000KT 9999 OVC050 28/22 Q1016



METAR SVCS 111900Z 00000KT 9999 OVC050 28/22 Q1017



METAR SVCS 111800Z 00000KT 9999 OVC050 28/22 Q1017



METAR SVCS 111700Z 10012KT 9999 BKN050 28/22 Q1017



METAR SVCS 111600Z 10012KT 9999 BKN050 28/22 Q1017



METAR SVCS 111500Z 10012KT 9999 BKN050 28/22 Q1018



METAR SVCS 111400Z 10012KT 9999 OVC030 27/22 Q1018



METAR SVCS 111300Z 00000KT 9999 OVC030 27/22 Q1018



METAR SVCS 111200Z 00000KT 7000 -HZ OVC030 26/22 Q1018



METAR SVCS 111100Z 00000KT 7000 -HZ OVC030 26/22 Q1018



METAR SVCS 101400Z 00000KT 9999 SCT070 27/22 Q1020



METAR SVCS 101300Z 00000KT 9999 SCT070 27/22 Q1020



METAR SVCS 101200Z 00000KT 9999 SCT070 26/22 Q1020



METAR SVCS 101100Z 00000KT 9999 SCT070 26/22 Q1020



METAR SVCS 081900Z 09010KT 9999 SCT035 28/XX Q1015



METAR SVCS 081500Z 09003KT 4000 -DZ OVC035 23/XX Q1018



METAR SVCS 071400Z 09004KT 6000 -DZ OVC025 24/XX Q1019



METAR SVCS 071300Z 09004KT 2000 -DZ OVC025 24/XX Q1018



METAR SVCS 071100Z 09004KT 2000 DZ OVC025 22/XX Q1018



METAR SVCS 032200Z 09010KT 9999 SKC 28/XX Q1016



METAR SVCS 021600Z 09005KT 9999 SCT035 26/XX Q1017



METAR SVCS 021100Z 09005KT 9999 SCT035 22/XX Q1018







METAR SVCS 011700Z 00000KT 9999 FEW040 28/20 Q1016



METAR SVCS 011600Z 00000KT 9999 SCT070 28/20 Q1016



METAR SVCS 011500Z 00000KT 9999 SCT070 27/20 Q1016



METAR SVCS 011400Z 00000KT 9999 SCT070 27/20 Q1017



METAR SVCS 011300Z 00000KT 9999 SCT070 27/20 Q1017



METAR SVCS 011300Z 00000KT 9999 SCT070 27/20 Q1017



METAR SVCS 011200Z 00000KT 9999 SCT070 26/20 Q1017



METAR SVCS 011100Z 00000KT 9999 SCT070 26/20 Q1017



METAR SVCS 011100Z 00000KT 9999 SCT070 26/20 Q1017



METAR SVCS 311700Z 00000kT 9999 SCT070 29/20 Q1017



METAR SVCS 311600Z 00000kT 9999 SCT070 29/20 Q1017



METAR SVCS 311500Z 00000kT 9999 SCT070 28/20 Q1018



METAR SVCS 311400Z 00000kT 9999 SCT070 27/20 Q1018



METAR SVCS 311300Z 00000kT 9999 SCT070 27/20 Q1018



METAR SVCS 311200Z 00000kT 9999 SCT070 26/20 Q1018



METAR SVCS 311100Z 00000kT 9999 SCT070 26/20 Q1018



METAR SVCS 281900Z 00000KT 9999 FEW020 29/20 Q1017



METAR SVCS 281800Z 00000KT 9999 SCT070 29/20 Q1017



METAR SVCS 281700Z 00000KT 9999 SCT070 29/20 Q1017



METAR SVCS 281700Z 00000KT 9999 SCT070 29/20 Q1017



METAR SVCS 281600Z 00000KT 9999 SCT070 29/20 Q1018



METAR SVCS 281500Z 00000KT 9999 SCT070 28/20 Q1018



METAR SVCS 281400Z 00000KT 9999 SCT070 28/20 Q1018



METAR SVCS 281300Z 00000KT 9999 SCT070 27/20 Q1019



METAR SVCS 281200Z 00000KT 9999 SCT070 26/20 Q1019



METAR SVCS 281100Z 00000KT 9999 SCT070 26/20 Q1019



METAR SVCS 271900Z 00000KT 9999 FEW020 28/20 Q1014



METAR SVCS 271900Z 00000KT 9999 FEW020 28/20 Q1014



METAR SVCS 261600Z 09010KT 9999 SCT035 28/XX Q1015



METAR SVCS 261400Z 09010KT 9999 SCT035 25/XX Q1018



METAR SVCS 261100Z 09010KT 9999 SCT035 22/XX Q1018



METAR SVCS 252200Z 09010KT 9999 SCT035 26/XX Q1015



METAR SVCS 252000Z 09005KT 9999 SCT035 27/XX Q1015



METAR SVCS 251800Z 09005KT 9999 SCT035 28/XX Q1015



METAR SVCS 251600Z 09005KT 9999 SCT035 26/XX Q1016



METAR SVCS 251400Z 09005KT 9999 SCT035 24/XX Q1017



METAR SVCS 251400Z 09005KT 9999 SCT035 24/XX Q1017



METAR SVCS 251100Z 09002KT 9999 22/XX Q1017



METAR SVCS 242100Z 09010KT 9999 SCT035 27/XX Q1016



METAR SVCS 241600Z 09010KT 9999 SCT035 28/XX Q1016



METAR SVCS 241100Z 09005 9999 SCT035 227XX Q1018



METAR SVCS 211900Z 09010KT 9999 SCT035 26/XX Q1014



METAR SVCS 211600Z 09010KT 9999 SCT035 28/XX Q1015



METAR SVCS 211100Z 09005KT 9999 SCT035 22/XX Q1018



METAR SVCS 202100Z 09005KT 9999 SCT035 25/XX Q1014



METAR SVCS 202100Z 09005KT 9999 SCT035 25/XX Q1014



METAR SVCS 201600Z 09005KT 9999 BKN035 28/XX Q1014



METAR SVCS 201600Z 09005KT 9999 BKN035 28/XX Q1014



METAR SVCS 201100Z 09005KT 9999 BKN035 22/XX Q1018







METAR SVCS 141300Z 00000KT 8000 +HZ BKN040 26/23 Q1016



METAR SVCS 141200Z 00000KT 7000 +HZ BKN040 26/23 Q1016



METAR SVCS 141100Z 00000KT 7000 +HZ BKN040 26/23 Q1016



METAR SVCS 131500Z 00000KT 1000 MIFG OVC010 23/23 Q1016 REDZ



METAR SVCS 131500Z 00000KT 1000 MIFG OVC010 23/23 Q1016



METAR SVCS 131400Z 00000KT 1000 MIFG OVC010 24/23 Q1016



METAR SVCS 131300Z 00000KT 1000 MIFG OVC010 24/23 Q1016



METAR SVCS 131200Z 00000KT 5000 +HZ OVC020 24/23 Q1016



METAR SVCS 131100Z 00000KT 4000 +HZ OVC020 24/23 Q1016



METAR SVCS 121800Z 09005KT 9999 RERA BKN035 24/XX Q1016



METAR SVCS 121700Z 09005KT 9999 RA BKN035 24/XX Q1016



METAR SVCS 121600Z 09005KT 9999 BKN035 24/XX Q1017



METAR SVCS 121500Z 09005KT 9999 BKN035 24/XX Q1017



METAR SVCS 121400Z 09005KT 9999 BKN035 24/XX Q1017



METAR SVCS 121300Z 09005KT 9999 BKN035 23/XX Q1017



METAR SVCS 121200Z 09005KT 9999 BKN035 23/XX Q1017



METAR SVCS 121100Z 09005KT 9999 BKN035 22/XX Q1016



METAR SVCS 112200Z 09004KT 9999 BKN030 25/XX Q1014



METAR SVCS 112000Z 09004KT 9999 RERA BKN030 26/XX Q1014



METAR SVCS 111900Z 09004KT 9999 +RA BKN030 27/XX Q1014



METAR SVCS 111800Z 09004KT 9999 +RA BKN030 27/XX Q1014



METAR SVCS 111700Z 09004KT 9999 BKN030 28/XX Q1015



METAR SVCS 111600Z 09004KT 9999 BKN030 27/XX Q1015



METAR SVCS 111500Z 09004KT 9999 BKN030 25/XX Q1016



METAR SVCS 111400Z 09004KT 2000 OVC030 24/XX Q1016



METAR SVCS 111300Z 09004KT 2000 OVC030 23/XX Q1016



METAR SVCS 111200Z 09004KT 2000 OVC030 22/XX Q1017



METAR SVCS 111100Z 09004KT 2000 OVC030 22/XX Q1017



METAR SVCS 101700Z 09010KT 9999 SCT035 27/XX Q1015



METAR SVCS 101600Z 09010KT 9999 SCT035 26/XX Q1015



METAR SVCS 101500Z 09010KT 9999 SCT035 25/XX Q1016



METAR SVCS 101500Z 09010KT 9999 SCT035 25/XX Q1016



METAR SVCS 101400Z 09010KT 9999 SCT035 25/XX Q1016



METAR SVCS 101300Z 09005KT 9999 SCT035 24/XX Q1017



METAR SVCS 101300Z 09005KT 9999 SCT035 24/XX Q1017



METAR SVCS 101200Z 09005KT 9999 SCT035 23/XX Q1017



METAR SVCS 101100Z 09005KT 9999 SCT035 22/XX Q1017



METAR SVCS 062100Z 09010KT 9999 SCT035 26/XX Q1015



METAR SVCS 062000Z 09010KT 9999 SCT035 26/XX Q1015



METAR SVCS 061800Z 09010KT 9999 SCT035 BKN060 26/XX Q1016



METAR SVCS 061700Z 09010KT 9999 SCT035 BKN060 26/XX Q1016



METAR SVCS 061600Z 09006KT 9999 SCT035 BKN060 25/XX Q1018



METAR SVCS 061500Z 09006KT 9999 SCT035 BKN060 25/XX Q1018



METAR SVCS 061400Z 09006KT 9999 SCT035 BKN060 25/XX Q1018



METAR SVCS 061300Z 00000KT 9999 SCT035 BKN060 24/XX Q1018



METAR SVCS 061200Z 00000KT 9999 SCT035 BKN060 23/XX Q1018



METAR SVCS 061100Z 00000KT 9999 SCT035 BKN060 22/XX Q1018



METAR SVCS 042000Z 00000KT 9999 SCT070 28/20 Q1014



METAR SVCS 041900Z 00000KT 9999 SCT070 28/20 Q1014



METAR SVCS 041800Z 00000KT 9999 SCT070 28/20 Q1014



METAR SVCS 041700Z 00000KT 9999 SCT070 28/20 Q1015



METAR SVCS 041600Z 00000KT 9999 SCT070 28/20 Q1015



METAR SVCS 041500Z 00000KT 9999 SCT070 27/20 Q1016



METAR SVCS 041400Z 00000KT 9999 SCT070 27/20 Q1016



METAR SVCS 041300Z 00000KT 9999 BKN050 26/20 Q1016



METAR SVCS 041200Z 00000KT 9999 BKN050 26/20 Q1016



METAR SVCS 041100Z 00000KT 9999 BKN050 26/20 Q1016



METAR SVCS 031500Z 00000KT 9999 FEW030 28/20 Q1017



METAR SVCS 031400Z 00000KT 9999 FEW030 28/20 Q1018



METAR SVCS 031300Z 00000KT 9999 FEW030 28/20 Q1018



METAR SVCS 031200Z 00000KT 9999 FEW030 27/20 Q1018



METAR SVCS 031100Z 00000KT 9999 FEW030 27/20 Q1018



METAR SVCS 03 1100Z 00000KT 9999 FEW030 27/20 Q1018



METAR SVCS 301500Z 00000KT 9999 SCT070 28/20 Q1017



METAR SVCS 301500Z 00000KT 9999 SCT070 28/20 Q1017



METAR SVCS 301400Z 00000KT 9999 SCT070 27/20 Q1018



METAR SVCS 301300Z 00000KT 9999 SCT070 27/20 Q1018



METAR SVCS 301200Z 00000KT 9999 SCT070 26/20 Q1013



METAR SVCS 301200Z 00000KT 9999 SCT070 26/20 Q1018



METAR SVCS 301100Z 00000KT 9999 SCT070 26/20 Q1018



METAR SVCS 301100Z 00000KT 9999 SCT070 26/20 Q1018



METAR SVCS 291400Z 00000KT 9999 FEW020 27/21 Q1018



METAR SVCS 291300Z 00000KT 9999 FEW020 27/21 Q1018



METAR SVCS 291200Z 00000KT 9999 FEW020 26/21 Q1018



METAR SVCS 291100Z 00000KT 9999 FEW020 26/21 Q1018



METAR SVCS 281600Z 00000KT 9999 SCT070 28/21 Q1016



METAR SVCS 281500Z 00000KT 9999 SCT070 28/21 Q1017



METAR SVCS 281400Z 00000KT 9999 SCT070 27/21 Q1018



METAR SVCS 281300Z 00000KT 9999 SCT070 26/21 Q1018



METAR SVCS 281200Z 00000KT 9999 SCT070 26/21 Q1018



METAR SVCS 281100Z 00000KT 9999 SCT070 26/21 Q1018



METAR SVCS 272100Z 09010KT 9999 SCT035 27/XX Q1015



METAR SVCS 272000Z 09010KT 9999 SCT035 26/XX Q1015



METAR SVCS 271900Z 09010KT 9999 SCT035 26/XX Q1015



METAR SVCS 271800Z 09010KT 9999 SCT035 27/XX Q1015



METAR SVCS 271700Z 09010KT 9999 SCT035 28/XX Q1015



METAR SVCS 271600Z 10010KT 9999 BKN035 27/XX Q1015



METAR SVCS 271500Z 10010KT 9999 SCT045 26/XX Q1016



METAR SVCS 271400Z 10010KT 9999 SCT045 25/XX Q1018



METAR SVCS 271300Z 09010KT 9999 SCT045 24/XX Q1018



METAR SVCS 271200Z 09006KT 9999 SCT045 23/XX Q1018



METAR SVCS 271100Z 09006KT 9999 SCT045 22/XX Q1018



METAR SVCS 262200Z 09010KT 9999 SCT035 26/XX Q1014



METAR SVCS 262100Z 09010KT 9999 SCT035 27/XX Q1014



METAR SVCS 262000Z 09010KT 9999 SCT035 28/XX Q1015



METAR SVCS 261900Z 09010KT 9999 SCT035 28/XX Q1015



METAR SVCS 261800Z 09010KT 9999 SCT035 28/XX Q1015



METAR SVCS 261700Z 09010KT 9999 BKN035 27/XX Q1015



METAR SVCS 261600Z 09005KT 9999 BKN030 26/XX Q1015



METAR SVCS 261500Z 09005KT 1500 REDZ OVC020 25/XX Q1015



TAR SVCS 261400Z 09005KT 1000 DZ OVC020 24/XX Q1016



TAR SVCS 261300Z 09005KT 1000 DZ OVC020 23/XX Q1016



TAR SVCS 261200Z 09005KT 1000 DZ OVC020 23/XX Q1016



TAR SVCS 261200Z 09005KT 1000 DZ OVC020 22/XX Q1016







METAR SVCS 231500Z 09010KT 9999 SCT035 26/XX Q1018



METAR SVCS 231400Z 09010 9999 SCT035 25/XX Q1018



METAR SVCS 231300Z 09010 9999 SCT035 23/XX Q1018



METAR SVCS 231200Z 09010 9999 SCT035 23/XX Q1016











METAR SVCS 201700Z 00000KT 9999 SCT070 29/21 Q1014



METAR SVCS 201600Z 00000KT 9999 SCT070 28/21 Q1014



METAR SVCS 201500Z 00000KT 9999 FEW020 28/21 Q1015



METAR SVCS 201400Z 00000KT 9999 FEW020 27/21 Q1015



METAR SVCS 201300Z 00000KT 9999 FEW020 26/21 Q1015



METAR SVCS 201200Z 00000KT 9999 FEW020 26/21 Q1015



METAR SVCS 201100Z 00000KT 9999 FEW020 26/21 Q1015



METAR SVCS 191900Z 00000KT 9999 FEW020 29/20 Q1014



METAR SVCS 191800Z 00000KT 9999 SCT070 29/20 Q1015



METAR SVCS 191700Z 00000KT 9999 SCT070 29/20 Q1016



METAR SVCS 191600Z 00000KT 9999 SCT070 29/20 Q1017



METAR SVCS 191500Z 00000KT 9999 SCT070 28/20 Q1018



METAR SVCS 191400Z 00000KT 9999 SCT070 27/20 Q1018



METAR SVCS 191400Z 00000KT 9999 SCT070 27/20 Q1018



METAR SVCS 191300Z 00000KT 9999 SCT070 27/20 Q1018



METAR SVCS 191200Z 00000KT 9999 SCT070 26/20 Q1018



METAR SVCS 191100Z 00000KT 9999 SCT070 26/20 Q1018



METAR SVCS 161800Z 00000KT 9999 SCT070 29/22 Q1014



METAR SVCS 161700Z 00000KT 9999 SCT070 29/22 Q1014



METAR SVCS 161600Z 00000KT 9999 SCT070 28/22 Q1015



METAR SVCS 161500Z 00000KT 9999 SCT070 28/22 Q1015



METAR SVCS 161400Z 00000KT 9999 SCT070 27/22 Q1016



METAR SVCS 161300Z 00000KT 9999 SCT070 27/22 Q1016



METAR SVCS 161200Z 00000KT 9999 SCT070 26/22 Q1016



METAR SVCS 161100Z 00000KT 9999 SCT070 26/22 Q1016







METAR SVCS 061500Z 00000KT 9999 BKN050 28/22 Q1017



METAR SVCS 061400Z 00000KT 9999 BKN050 28/22 Q1017



METAR SVCS 061300Z 00000KT 9999 BKN050 28/22 Q1017



METAR SVCS 061200Z 00000KT 9999 BKN050 27/22 Q1017



METAR SVCS 061200Z 00000KT 9999 BKN050 27/22 Q1017



METAR SVCS 06 1100Z 00000KT 9999 BKN050 27/22 Q1017



METAR SVCS 061100Z 00000KT 9999 BKN050 27/22 Q1017



METAR SVCS 051400Z 00000KT 9999 SCT070 27/22 Q1017



METAR SVCS 051300Z 00000KT 9999 SCT070 27/22 Q1018



METAR SVCS 051200Z 00000KT 9999 SCT070 26/22 Q1018



METAR SVCS 051100Z 00000KT 9999 SCT070 26/22 Q1018



METAR SVCS 011500Z 00000KT 9999 SCT070 27/22 Q1018



METAR SVCS 011400Z 00000KT 9999 SCT070 27/22 Q1018



METAR SVCS 011300Z 00000KT 9999 SCT070 27/22 Q1018



METAR SVCS 011200Z 00000KT 9999 SCT070 26/22 Q1018



METAR SVCS 011100Z 00000KT 9999 SCT070 26/22 Q1018



METAR SVCS 261400Z 09010 9999 FEW035 27/22 Q1016



METAR SVCS 261200Z 09010 9999 FEW035 25/22 Q1016



METAR SVCS 251900Z 09010 9999 SCT035 29/22 Q1012



METAR SVCS 251800Z 09010 9999 SCT035 30/22 Q1012



METAR SVCS 251600Z 09006 9999 SCT035 29/22 Q1012



METAR SVCS 251400Z 09006 9999 SCT035 24/18 Q1011



METAR SVCS 251200Z 09006 9999 SCT035 22/18 Q1010



METAR SVCS 241400Z 00000KT 9999 SCT070 27/22 Q1014



METAR SVCS 241300Z 00000KT 9999 SCT070 26/22 Q1014



METAR SVCS 241200Z 00000KT 9999 SCT070 25/22 Q1014



METAR SVCS 241100Z 00000KT 9999 SCT070 25/22 Q1014



METAR SVCS 221600Z 00000KT 8000 -HZ OVC020 26/22 Q1014



METAR SVCS 221500Z 00000KT 8000 -HZ OVC020 25/22 Q1015



METAR SVCS 221400Z 00000KT 5000 +HZ OVC020 24/22 Q1015



METAR SVCS 221300Z 00000KT 5000 HZ OVC020 23/22 Q1015



METAR SVCS 221200Z 00000KT 1000 MIFG OVC010 23/22 Q1015



METAR SVCS 221100Z 00000KT 1000 MIFG OVC010 23/22 Q1015







METAR SVCS 171800Z 00000KT 9999 SCT060 29/19 Q1017







METAR SVCS 111500Z 00000KT 9999 SCT070 27/22 Q1016



METAR SVCS 111400Z 00000KT 9999 SCT070 27/22 Q1016



METAR SVCS 111300Z 00000KT 9999 SCT070 26/22 Q1016



METAR SVCS 111200Z 00000KT 9999 SCT070 26/22 Q1017



METAR SVCS 111100Z 00000KT 9999 SCT070 26/22 Q1017



METAR SVCS 111100Z 00000KT 9999 SCT070 26/22 Q1017



METAR SVCS 041300Z 00000KT 9999 SCT070 26/21 Q1018



METAR SVCS 041200Z 00000KT 9999 SCT070 26/21 Q1018



METAR SVCS 041100Z 00000KT 9999 SCT070 26/21 Q1018



El INAC ha emitido el NOTAM 2559 prohibiendo las operaciones de Aviación General en todo el territorio nacional desde el sábado 6 de octubre a las 19:30 (HLV)hasta el lunes 8 de octubre a las 12:00 (HLV).
Igualmente el INAC ha emitido el NOTAM 2558 prohibiendo las operaciones de helicópteros de Aviación General dede el jueves 4 de octubre a las 19:30 (HLV) hasta el martes 9 de octubre a las 12:00 (HLV).











METAR SVCS 261600Z 00000KT 9999 SCT070 28/23 Q1019



METAR SVCS 261500Z 00000KT 9999 SCT070 26/23 Q1019



METAR SVCS 261400Z 00000KT 9999 SCT070 26/23 Q1019



METAR SVCS 261300Z 00000KT 9999 SCT070 25/23 Q1019



METAR SVCS 261200Z 00000KT 9999 SCT070 25/23 Q1019



METAR SVCS 261100Z 00000KT 9999 SCT070 25/23 Q1019



METAR SVCS 251400Z 00000KT 9999 BKN050 26/21 Q1019



METAR SVCS 251300Z 00000KT 9999 BKN050 26/21 Q1019



METAR SVCS 251200Z 00000KT 7000 -HZ BKN040 26/21 Q1019



METAR SVCS 251100Z 00000KT 7000 -HZ BKN040 26/21 Q1019







METAR SVCS 211300Z 00000KT 9999 SCT070 26/21 Q1017



METAR SVCS 211200Z 00000KT 9999 SCT070 25/21 Q1017



METAR SVCS 211100Z 00000KT 9999 SCT070 25/21 Q1017



METAR SVCS 201800Z 00000KT 9999 SCT050 30/20 Q1013



METAR SVCS 201700Z 00000KT 9999 SCT050 29/22 Q1015



METAR SVCS 201600Z 00000KT 9999 SCT050 28/22 Q1017



METAR SVCS 201500Z 00000KT 9999 SCT050 26/22 Q1017



METAR SVCS 201400Z 00000KT 9999 FEW020 26/22 Q1017



METAR SVCS 201300Z 00000KT 9999 FEW020 26/22 Q1017



METAR SVCS 201200Z 00000KT 9999 FEW020 26/22 Q1017



METAR SVCS 201200Z 00000KT 9999 FEW020 26/22 Q1017



METAR SVCS 201100Z 00000KT 9999 FEW020 26/22 Q1017



METAR SVCS 182000Z 09010KT 9999 SCT035 28/21 Q1018



METAR SVCS 172000Z 09010KT 9999 SCT035 BKN040 28/21 Q1015



METAR SVCS 151800Z 09010KT 9999 SCT045 29/21 Q1016



METAR SVCS 151800Z 09010KT 9999 SCT045 29/21 Q1016



METAR SVCS 151500Z 09010KT 9999 SCT045 29/23 Q1016



METAR SVCS 14220Z 09010KT 9999 SCT045 28/19 Q1016







METAR SVCS 101500Z 00000KT 9999 BKN050 28/21 Q1019



METAR SVCS 101400Z 00000KT 9999 BKN050 27/21 Q1019



METAR SVCS 101300Z 00000KT 9999 BKN050 27/21 Q1019



METAR SVCS 101200Z 00000KT 9999 BKN050 26/21 Q1019



METAR SVCS 101100Z 00000KT 9999 BKN050 26/21 Q1019







METAR SVCS 071300Z 00000KT 9999 FEW020 26/20 Q1019



METAR SVCS 071200Z 00000KT 9999 FEW020 25/20 Q1019



METAR SVCS 071100Z 00000KT 9999 FEW020 25/20 Q1019



METAR SVCS 062200Z 00000KT 9999 FEW020 26/21 Q1016



METAR SVCS 062100Z 00000KT 9999 FEW020 26/21 Q1017



METAR SVCS 062000Z 00000KT 9999 FEW 26/21 Q1017



METAR SVCS 061900Z 00000KT 9999 SCT070 27/21 Q1017



METAR SVCS 061800Z 00000KT 9999 SCT070 27/21 Q1018



METAR SVCS 061700Z 00000KT 9999 SCT070 27/22 Q1019



METAR SVCS 061600Z 00000KT 9999 SCT070 28/22 Q1020



METAR SVCS 061500Z 00000KT 9999 SCT070 28/22 Q1021



METAR SVCS 061400Z 00000KT 9999 SCT070 26/22 Q1021



METAR SVCS 061300Z 00000KT 9999 SCT070 26/22 Q1021



METAR SVCS 061200Z 00000KT 9999 SCT070 25/22 Q1021



METAR SVCS 061100Z 00000KT 9999 SCT070 25/22 Q1021



METAR SVCS 041500Z 09010 9999 BKN035 28/21 Q1020



METAR SVCS 031400Z 00000KT 9999 BKN030 26/22 Q1021



METAR SVCS 031300Z 00000KT 9999 BKN030 26/22 Q1021



METAR SVCS 031200Z 00000KT 9999 BKN030 25/22 Q1021



METAR SVCS 031100Z 00000KT 9999 BKN030 25/22 Q1021







METAR SVCS 301600Z 09006KT 9999 SCT035 29/22 Q1018







METAR SVCS 271400Z 00000KT 9999 BKN050 27/21 Q1021



METAR SVCS 271300Z 00000KT 9999 BKN050 27/21 Q1021



METAR SVCS 271200Z 00000KT 9999 BKN050 26/21 Q1021



METAR SVCS 271100Z 00000KT 9999 BKN050 26/21 Q1021



METAR SVCS 231300Z 00000KT 9999 BKN050 26/23 Q1016



METAR SVCS 231200Z 00000KT 9999 BKN050 25/23 Q1016



METAR SVCS 231100Z 00000KT 9999 BKN050 25/23 Q1016







METAR SVCS 201800Z 09010KT 9999 SCT035 28/22 Q1016







METAR SVCS 141700Z 17012KT 5000 MIFG OVC020 24/22 Q1018



METAR SVCS 092100Z 00000KT 9999 SCT070 26/22 Q1016



METAR SVCS 092000Z 00000KT 9999 SCT070 26/22 Q1016



METAR SVCS 081500Z 00000KT 9999 SCT050 27/21 Q1016







METAR SVCS 061300Z 00000KT 8000 -HZ OVC020 24/22 Q1019



METAR SVCS 061200Z 00000KT 7000 -HZ OVC020 24/22 Q1019



METAR SVCS 061100Z 00000KT 7000 -HZ OVC020 24/22 Q1019







METAR SVCS 041800Z 00000KT 8000 BKN035 22/22 Q1016



METAR SVCS 041400Z 00000KT 0050 OVC005 22/22 Q1017.
BAJO LAS MINIMAS VFR



METAR SVCS 031300Z 00000KT 7000 -HZ OVC030 23/21 Q1018



METAR SVCS 031200Z 00000KT 7000 -HZ OVC030 22/20 Q1018



METAR SVCS 031100Z 00000KT 7000 -HZ OVC030 22/20 Q1018







METAR SVCS 281500Z 09010KT 9999 SCT040 26/22 Q1019



METAR SVCS 271800Z 09010KT 9999 SCT035 28/20 Q1018



METAR SVCS 251900Z 12008KT 2000 VCTS OVC030CB BKN035 25/24 Q1014



METAR SVCS 251700Z 09010KT 9999 BKN035 27/24 Q1016



METAR SVCS 101400Z 09010 9999 SCT035 25/20 Q1018



METAR SVCS 091500 09003 9999 BKN035 BKN060 26/22 Q1018



METAR SVCS 080712 1300Z 00000KT 4000 +HZ OVC020 24/21 Q1019



METAR SVCS 080712 1200Z 00000KT 4000 +HZ OVC020 24/21 Q1019



METAR SVCS 080712 1100Z 00000KT 4000 +HZ OVC020 23/21 Q1019



METAR SVCS 080712 1000Z 00000KT 4000 +HZ OVC020 23/21 Q1019



METAR SVCS 080700 00000KT 4000 +HZ OVC020 23/21 Q1019



METAR SVCS 051600 09010 9999 SCT035 28/21 Q1017



METAR SVCS 291900 09010KT 9999 FEW035 29/18 Q1016



METAR SVCS 232000 09010KT 9999 BKN035 29/21 Q1015



METAR SVCS 212000 09010KT 9999 BKN035 29/21 Q1015



METAR SVCS 21200 09010KT 9999 BKN035 29/21 Q1015



METAR SVCS 211600 09010KT 9999 BKN035 28/22 Q1019



METAR SVCS 211500 09005KT 9999 BKN035 28/22 Q1019



METAR SVCS 122000UTC 09010KT 9999 RERA SCT030CBNW BKN080 24/23 Q1014



PRUEBA DE CAMBIO DE CONTENIDO



METAR SVCS 071300Z 00000KT 9999 BKN050 26/22 Q1017



METAR SVCS 071200Z 00000KT 8000 -HZ BKN040 25/22 Q1017



METAR SVCS 071100Z 00000KT 8000 -HZ BKN040 25/22 Q1017



METAR SVCS 271800Z 18005KT 9999 SCT035 29/21 Q1012



METAR SVCS 271600Z 18005KT 9999 SCT035 29/22 Q1014



METAR SVCS 1600Z 18005KT 9999 SCT035 29/22 Q1014



METAR SVCS 171300Z 00000KT 9999 FEW030 25/21 Q1015



METAR SVCS 171200Z 00000KT 9999 FEW030 24/21 Q1015



METAR SVCS 171100Z 00000KT 9999 FEW030 24/21 Q1015



METAR SVCS 111400Z 00000KT 9999 BKN050 27/22 Q1017



METAR SVCS 111300Z 00000KT 9999 BKN050 26/22 Q1017



METAR SVCS 111200Z 00000KT 8000 -HZ OVC030 25/22 Q1017



METAR SVCS 111100Z 00000KT 8000 -HZ OVC030 25/22 Q1017



METAR SVCS 271300Z 00000KT 9999 FEW020 26/21 Q1018



METAR SVCS 271200Z 00000KT 9999 FEW020 25/21 Q1018



METAR SVCS 271100Z 00000KT 9999 FEW020 25/21 Q1018



METAR SVCS 271100Z 00000KT 9999 FEW020 25/21 Q1018



METAR SVCS 27100Z 00000KT 9999 FEW020 25/21 Q1018



METAR SVCS 261200Z 00000KT 9999 FEW020 25/21 Q1018



METAR SVCS 261100Z 00000KT 9999 FEW020 25/21 Q1018



METAR SVCS 221400Z 00000KT 7000 -HZ OVC030 25/21 Q1016



METAR SVCS 221300Z 00000KT 7000 -HZ OVC030 25/21 Q1016



METAR SVCS 221200Z 00000KT 3000 -HZ OVC020 24/21 Q1015 REDZ



METAR SVCS 221100Z 00000KT 3000 -HZ OVC020 25/21 Q1015



METAR SVCS 201800Z 00000KT 5000 +HZ BKN040 27/21 Q1016



METAR SVCS 201700Z 00000KT 9999 BKN040 27/21 Q1016



METAR SVCS 201600Z 00000KT 9999 BKN040 27/21 Q1016



METAR SVCS 201500Z 00000KT 9999 FEW020 27/21 Q1016



METAR SVCS 201400Z 00000KT 9999 FEW020 26/21 Q1016



METAR SVCS 201300Z 00000KT 9999 FEW020 25/21 Q1016



METAR SVCS 201200Z 00000KT 9999 FEW020 25/21 Q1016



METAR SVCS 201100Z 00000KT 9999 FEW020 25/21 Q1016



METAR SVCS 121400Z 00000KT 1000 +RA OVC010 20/20 Q1023



METAR SVCS 121300Z 00000KT 1000 +RA OVC010 20/20 Q1023



METAR SVCS 121200Z 00000KT 1000 MIFG OVC010 20/20 Q1023 REDZ



METAR SVCS 121100Z 00000KT 1000 MIFG OVC010 20/20 Q1023



METAR SVCS 091400Z 00000KT 2000 +HZ OVC010 24/22 Q1016



METAR SVCS 091300Z 00000KT 1000 MIFG OVC010 24/22 Q1016



METAR SVCS 091200Z 00000KT 3000 +HZ OVC030 24/22 Q1016



METAR SVCS 091100Z 00000KT 3000 +HZ OVC030 24/22 Q1016



METAR SVCS 081300Z 00000KT 9999 BKN040 25/22 Q1018



METAR SVCS 081200Z 00000KT 8000 -HZ OVC030 24/22 Q1018



METAR SVCS 081100Z 00000KT 8000 -HZ OVC030 24/22 Q1018



METAR SVCS 051300Z 00000KT 9999 BKN040 25/22 Q1019



METAR SVCS 051200Z 00000KT 9999 BKN040 25/22 Q1019



METAR SVCS 051200Z 00000KT 9999 BKN040 24/22 Q1019



METAR SVCS 051100Z 00000KT 9999 BKN040 24/22 Q1019



METAR SVCS 301400Z 00000KT 8OOO -HZ BKN050 27/22 Q1018



METAR SVCS 301300Z 00000KT 7OOO -HZ BKN030 25/22 Q1018



METAR SVCS 301200Z 00000KT 7OOO -HZ BKN030 24/22 Q1018



METAR SVCS 301100Z 00000KT 7OOO -HZ BKN030 24/22 Q1018



METAR SVCS 291200Z 00000KT 1000 MIFG OVC010 23/22 Q1019



METAR SVCS 291100Z 00000KT 4000 +HZ BKN040 23/22 Q1019



METAR SVCS 261100Z 00000KT 9999 FEW040 25/22 Q1018



METAR SVCS 251500Z 00000KT 9999 SCT070 28/18 Q1019



METAR SVCS 251400Z 00000KT 9999 SCT070 26/19 Q1019



METAR SVCS 251300Z 00000KT 9999 SCT070 25/19 Q1019



METAR SVCS 251200Z 00000KT 9999 BKN050 23/19 Q1019



METAR SVCS 251100Z 00000KT 9999 BKN050 23/19 Q1019



METAR SVCS 191400 09005KT 9999 FEW035 26/22 Q1016



METAR SVCS 161700Z 00000KT 9999 FEW040 29/21 Q1016



METAR SVCS 161700Z 00000KT 9999 FEW040 29/21 Q1016



METAR SVCS 161600Z 00000KT 9999 SCT070 29/21 Q1017



METAR SVCS 161500Z 00000KT 9999 SCT070 28/21 Q1018



METAR SVCS 161400Z 00000KT 9999 SCT070 27/21 Q1018



METAR SVCS 161300Z 00000KT 9999 SCT050 25/21 Q1017



METAR SVCS 161200Z 00000KT 7000 -HZ SCT050 25/21 Q1017



METAR SVCS 161100Z 00000KT 7000 -HZ SCT050 25/21 Q1017



METAR SVCS 151200Z 00000KT 4000 +HZ BKN040 23/22 Q1016



METAR SVCS 151100Z 00000KT 4000 +HZ BKN040 23/22 Q1016



METAR SVCS 121200Z 00000KT 9999 FEW020 25/21 Q1018



METAR SVCS 121100Z 00000KT 9999 FEW020 25/21 Q1018



METAR SVCS 111800Z 00000KT 9999 FEW030 29/20 Q1015



METAR SVCS 111700Z 00000KT 9999 FEW030 29/20 Q1015



METAR SVCS 111600Z 00000KT 9999 FEW030 29/20 Q1016



METAR SVCS 111500Z 00000KT 9999 FEW020 28/20 Q1017



METAR SVCS 111400Z 00000KT 9999 FEW020 27/20 Q1018



METAR SVCS 111300Z 00000KT 9999 FEW020 26/20 Q1019



METAR SVCS 111200Z 00000KT 9999 FEW020 25/20 Q1019



METAR SVCS 111100Z 00000KT 9999 FEW020 25/20 Q1019



METAR SVCS 021800Z 00000KT 9999 BKN040 2/22 Q1012



METAR SVCS 021700Z 00000KT 9999 SCT040 2/22 Q1014



METAR SVCS 021600Z 00000KT 9999 SCT040 28/22 Q1014



METAR SVCS 021500Z 00000KT 9999 FEW040 28/22 Q1015



METAR SVCS 021400Z 00000KT 9999 FEW040 27/22 Q1015



METAR SVCS 021300Z 00000KT 9999 FEW040 26/22 Q1015



METAR SVCS 021200Z 00000KT 4000 +HZ SCT040 23/21 Q1015



METAR SVCS 021100Z 00000KT 4000 +HZ SCT040 23/21 Q1015



METAR SVCS 011600Z 00000KT 9999 FEW020 28/21 Q1017



METAR SVCS 011500Z 00000KT 9999 FEW020 27/21 Q1017



METAR SVCS 011400Z 00000KT 9999 FEW020 26/21 Q1017



METAR SVCS 011300Z 00000KT 9999 FEW020 26/21 Q1017



METAR SVCS 011200Z 00000KT 9999 FEW020 25/21 Q1017



METAR SVCS 011100Z 00000KT 9999 FEW020 25/21 Q1017



METAR SVCS 011100Z 00000KT 9999 FEW020 25/21 Q1017



METAR SVCS 291200Z 00000KT 3000 +HZ BKN020 24/22 Q1016



METAR SVCS 291100Z 00000KT 3000 +HZ BKN020 24/22 Q1016



METAR SVCS 281900Z 00000KT 9999 BKN030 25/21 Q1014



METAR SVCS 281800Z 00000KT 9999 BKN030 25/21 Q1014



METAR SVCS 281700Z 00000KT 9999 BKN030 25/21 Q1014



METAR SVCS 281700Z 00000KT 9999 BKN040 26/21 Q1015



METAR SVCS 281600Z 00000KT 9999 BKN050 27/21 Q1016



METAR SVCS 281500Z 00000KT 9999 SCT070 26/22 Q1017



METAR SVCS 281400Z 00000KT 9999 SCT070 26/22 Q1017



METAR SVCS 281300Z 00000KT 9999 SCT070 26/22 Q1017



METAR SVCS 281200Z 00000KT 8000 -HZ SCT070 25/22 Q1017



METAR SVCS 281100Z 00000KT 8000 -HZ SCT070 25/22 Q1017



METAR SVCS 221600Z OOOOOKT 9999 SCT070 28/20 Q1018



METAR SVCS 221500Z OOOOOKT 9999 SCT070 27/20 Q1019



METAR SVCS 221400Z OOOOOKT 9999 SCT070 26/20 Q1019



METAR SVCS 221300Z OOOOOKT 9999 SCT070 26/20 Q1019



METAR SVCS 221200Z OOOOOKT 9999 SCT070 25/20 Q1019



METAR SVCS 221100Z OOOOOKT 9999 SCT070 25/20 Q1019



METAR SVCS 201200Z 00000KT 5000 -HZ BKN050 24/22 Q1018



METAR SVCS 201100Z 00000KT 5000 -HZ BKN050 24/22 Q1018



METAR SVCS 181500Z 00000KT 9999 SCT070 27/22 Q1018



METAR SVCS 151700Z 00000KT 9999 SCT050 28/19 Q1017



METAR SVCS 151700Z 00000KT 9999 SCT050 28/19 Q1017



METAR SVCS 151600Z 00000KT 9999 BKN050 28/19 Q1018



METAR SVCS 151500Z 00000KT 9999 BKN050 26/21 Q1018



METAR SVCS 151400Z 00000KT 8000 -HZ OVC040 26/22 Q1018



METAR SVCS 151300Z 00000KT 5000 -HZ OVC040 25/22 Q1018



METAR SVCS 151200Z 00000KT 3000 +HZ OVC020 25/22 Q1018



METAR SVCS 151100Z 00000KT 3000 +HZ OVC020 25/22 Q1018



METAR SVCS 141800Z 13010KT 9999 BKN050 28/21 Q1016



METAR SVCS 141700Z 00000KT 9999 BKN050 28/21 Q1016



METAR SVCS 141600Z 00000KT 9999 BKN050 28/21 Q1016



METAR SVCS 141500Z 00000KT 9999 SCT070 27/21 Q1017



METAR SVCS 141400Z 00000KT 9999 SCT070 26/21 Q1017



METAR SVCS 141300Z 00000KT 9999 SCT070 25/21 Q1017



METAR SVCS 141100Z 00000KT 8000 -HZ FEW020 SCT070 24/21 Q1017



METAR SVCS 091900Z 22010KT 9999 BKN050 27/22 Q1015



METAR SVCS 091800Z 24010KT 9999 SCT070 27/22 Q1015



METAR SVCS 091700Z 24010KT 9999 SCT070 27/22 Q1015



METAR SVCS 091600Z 24010KT 9999 SCT070 26/22 Q1015



METAR SVCS 091500Z 00000KT 9999 SCT070 25/22 Q1016



METAR SVCS 091400Z 00000KT 9999 SCT070 25/22 Q1017



METAR SVCS 091300Z 00000KT 9999 SCT070 24/22 Q1017



METAR SVCS 091200Z 00000KT 9999 SCT070 23/22 Q1017



METAR SVCS 091100Z 00000KT 9999 SCT070 23/22 Q1017



METAR SVCS 061900Z 00000KT 9999 SCT070 28/21 Q1014



METAR SVCS 061800Z 00000KT 9999 SCT070 28/22 Q1014



METAR SVCS 061700Z 00000KT 9999 SCT070 28/22 Q1015



METAR SVCS 061600Z 00000KT 9999 SCT070 28/22 Q1016



METAR SVCS 061500Z 00000KT 9999 BKN050 27/22 Q1018



METAR SVCS 061500Z 00000KT 9999 BKN040 27/22 Q1017



METAR SVCS 061400Z 00000KT 5000 +HZ BKN040 25/21 Q1017



METAR SVCS 061300Z 00000KT 3000 +HZ OVC020 23/21 Q1017



METAR SVCS 061200Z 00000KT 2000 +HZ OVC020 23/21 Q1017



METAR SVCS 061100Z 00000KT 5000 -HZ OVC020 23/21 Q1017



METAR SVCS 051300Z 00000KT 9999 BKN050 26/22 Q1018



METAR SVCS 051300Z 00000KT 7000 -HZ BKN050 25/22 Q1018



METAR SVCS 051300Z 00000KT 7000 -HZ BKN0500 25/22 Q1018



METAR SVCS 051200Z 00000KT 2000 +HZ OVC020 25/22 Q1018



METAR SVCS 051100Z 00000KT 2000 +HZ OVC020 25/22 Q1018



METAR SVCS 041800Z 00000KT 9999 SCT050 29/20 Q1015



METAR SVCS 041700Z 00000KT 9999 FEW030 29/21 Q1015



METAR SVCS 041600Z 00000KT 9999 FEW030 29/21 Q1016



METAR SVCS 041500Z 00000KT 9999 FEW020 27/20 Q1017



METAR SVCS 041400Z 00000KT 9999 BKN050 26/20 Q1017



METAR SVCS 041300Z 00000KT 8000 -HZ BKN050 26/20 Q1017



METAR SVCS 041200Z 00000KT 3000 +HZ OVC020 25/20 Q1017



METAR SVCS 041100Z 00000KT 3000 +HZ OVC020 25/20 Q1017



METAR SVCS 011300Z 00000KT 2000 MIFG OVC010 24/22 Q1017



METAR SVCS 011200Z 00000KT 1000 MIFG OVC010 24/22 Q1017



METAR SVCS 011100Z 00000KT 1000 MIFG OVC010 24/22 Q1017



METAR SVCS 302000Z 00000KT 3000 +DZ OVC020 23/23 Q1014



METAR SVCS 301900Z 00000KT 3000 +DZ OVC020 24/23 Q1014



METAR SVCS 301800Z 00000KT 7000 +HZ BKN040 26/22 Q1015 CBE



METAR SVCS 301700Z 00000KT 9999 BKN040 26/22 Q1015



METAR SVCS 301500Z 00000KT 9999 BKN040 25/22 Q1017



METAR SVCS 301400Z 00000KT 8000 -HZ BKN040 25/22 Q1018



METAR SVCS 301300Z 00000KT 6000 -HZ OVC030 24/22 Q1018



METAR SVCS 301200Z 00000KT 4000 +HZ OVC020 24/22 Q1018



METAR SVCS 301100Z 00000KT 4000 +HZ OVC020 24/22 Q1018



METAR SVCS 271700Z 09010KT 9999 SCT035 29/21 Q1018



METAR SVCS 241400Z 00000KT 7000 -HZ BKN030 25/22 Q1018



METAR SVCS 241300Z 00000KT 7000 -HZ OVC020 25/22 Q10118



METAR SVCS 241200Z 00000KT 3000 +HZ OVC020 25/22 Q10118



METAR SVCS 241100Z 00000KT 3000 +HZ OVC020 25/22 Q10118



METAR SVCS 211600Z 000000KT 9999 SCT070 28/22 Q1017



METAR SVCS 211500Z 000000KT 9999 BKN040 27/23 Q1018



METAR SVCS 211400Z 000000KT 9999 BKN040 26/23 Q1018



METAR SVCS 211300Z 000000KT 9999 BKN040 25/23 Q1018



METAR SVCS 211200Z 000000KT 8000 -HZ BKN040 25/23 Q1018



METAR SVCS 211100Z 000000KT 8000 -HZ BKN040 25/23 Q1018



METAR SVCS 201300Z 00000KT 8000 -HZ FEW020 BKN050 25/22 Q1018



METAR SVCS 201200Z 00000KT 8000 -HZ FEW020 BKN050 24/22 Q1017



METAR SVCS 201100Z 00000KT 8000 -HZ FEW020 BKN050 24/22 Q1017



METAR SVCS 171700Z 11010KT 9999 BKN050 27/22 Q1018



METAR SVCS 171600Z 11010KT 9999 SCT070 27/22 Q1018



METAR SVCS 171500Z 11010KT 9999 SCT070 27/22 Q1018



METAR SVCS 171400Z 11010KT 9999 SCT070 26/22 Q1019



METAR SVCS 171400Z 110100KT 9999 SCT070 26/22 Q1019



METAR SVCS 171300Z 00000KT 9999 SCT070 25/21 Q1019



METAR SVCS 171200Z 00000KT 8000 -HZ SCT050 25/21 Q1019



METAR SVCS 171100Z 00000KT 8000 -HZ SCT050 25/21 Q1019



METAR SVCS 161700Z 00000KT 3000 +RA OVC0200 24/23 Q1017



METAR SVCS 161600Z 00000KT 5000 -HZ BKN040 26/22 Q1918



METAR SVCS 161500Z 00000KT 9999 BKN040 27/22 Q1918



METAR SVCS 161400Z 00000KT 9999 SCT050 27/21 Q1018



METAR SVCS 161300Z 00000KT 9999 SCT050 26/21 Q1018



METAR SVCS 161200Z 00000KT 8000 -HZ FEW020 SCT050 24/21 Q1018



METAR SVCS 161100Z 00000KT 8000 -HZ FEW020 SCT050 24/21 Q1018



METAR SVCS 081600Z 00000KT 9999 SCT050 29/21 Q1017



METAR SVCS 081500Z 00000KT 9999 SCT050 29/21 Q1017



METAR SVCS 081400Z 00000KT 9999 SCT050 27/22 Q1017



METAR SVCS 081300Z 00000KT 9999 SCT050 26/22 Q1017



METAR SVCS 081200Z 00000KT 9999 SCT050 24/22 Q1017



METAR SVCS 081100Z 00000KT 9999 SCT050 24/22 Q1017



METAR SVCS 062000Z 00000KT 9999 FEW040 30/20 Q1014



METAR SVCS 061900Z 00000KT 9999 FEW040 30/20 Q1014



METAR SVCS 061800Z 00000KT 9999 FEW040 30/20 Q1015



METAR SVCS 061700Z 00000KT 9999 FEW040 30/20 Q1016



METAR SVCS 061600Z 00000KT 9999 SCT070 28/20 Q1017



METAR SVCS 061500Z 00000KT 9999 SCT070 27/21 Q1017



METAR SVCS 061400Z 00000KT 9999 SCT070 26/21 Q1017



METAR SVCS 061200Z 00000KT 9999 SCT070 25/21 Q1017



METAR SVCS 061100Z 00000KT 9999 SCT070 25/21 Q1017



METAR SVCS 031500Z 00000KT 9999 BKN050 28/22 Q1016



METAR SVCS 031400Z 00000KT 7000 -HZ OVC050 26/22 Q1017



METAR SVCS 031300Z 00000KT 5000 -HZ OVC030 24/22 Q1017



METAR SVCS 031200Z 00000KT 3000 +HZ OVC030 23/22 Q1017



METAR SVCS 031100Z 00000KT 3000 +HZ OVC030 23/22 Q1017



METAR SVCS 021700Z 00000KT 7000 -HZ BKN040 25/22 Q1015



METAR SVCS 021600Z 00000KT 1000 +HZ OVC010 24/22 Q1016



METAR SVCS 021500Z 00000KT 3000 +HZ OVC010 23/22 Q1017



METAR SVCS 021400Z 00000KT 3000 +HZ OVC010 23/22 Q1017



METAR SVCS 021300Z 00000KT 1000 MIFG OVC010 23/22 Q1017



METAR SVCS 021200Z 00000KT 1000 MIFG OVC010 23/22 Q1017



METAR SVCS 021100Z 00000KT 1000 MIFG OVC010 23/22 Q1017



METAR SVCS 022200Z 090/10 9999 SCT035 24/21 Q1014



METAR SVCS 272200Z 09010KT 9999 SCT035 25/22 Q1014



METAR SVCS 261900Z 00000KT 9999 BKN030 BKN100 28/22 Q1016



METAR SVCS 251300Z 00000KT 9999 BKN040 26/23 Q1018



METAR SVCS 251200Z 00000KT 9999 BKN040 25/23 Q1018



METAR SVCS 251100Z 00000KT 9999 BKN040 25/23 Q1018



METAR SVCS 241400Z 00000KT 8000 -HZ BKN040 26/23 Q1017



METAR SVCS 241300Z 00000KT 8000 -HZ BKN040 26/23 Q1017



METAR SVCS 241200Z 00000KT 7000 -HZ BKN030 25/23 Q1017



METAR SVCS 241100Z 00000KT 7000 -HZ BKN030 25/23 Q1017



METAR SVCS 231700Z 00000KT 9999 SCT050 29/23 Q1017



METAR SVCS 231600Z 00000KT 9999 SCT050 29/23 Q1018



METAR SVCS 231500Z 00000KT 9999 BKN050 28/23 Q1018



METAR SVCS 231400Z 00000KT 9999 BKN050 27/23 Q1018



METAR SVCS 231300Z 00000KT 9999 BKN050 27/23 Q1018



METAR SVCS 231300Z 00000KT 9999 BKN050 26/23 Q1018



METAR SVCS 231200Z 00000KT 9999 BKN050 25/23 Q1018



METAR SVCS 231100Z 00000KT 9999 BKN050 25/23 Q1018



METAR SVCS201300Z 00000KT 9999 FEW020 BKN050 25/22 Q1017



METAR SVCS201300Z 00000KT 8000 -HZ BKN030 24/22 Q1017



METAR SVCS 201200Z 00000KT 3000 +HZ OVC010 23/22 Q1017



METAR SVCS 201100Z 00000KT 3000 +HZ OVC010 23/22 Q1017 RERA



METAR SVCS 191800Z 00000KT 9999 BKN050 28/22 Q1015



METAR SVCS 191700Z 00000KT 9999 BKN040 26/22 Q1017



METAR SVCS 191600Z 00000KT 8000 -HZ BKN040 26/22 Q1017



METAR SVCS 191500Z 00000KT 7000 -HZ BKN030 24/22 Q1018



METAR SVCS 191400Z 00000KT 1000 MIFG OVC010 24/22 Q1018



METAR SVCS 191300Z 00000KT 4000 +HZ OVC020 24/22 Q1018



METAR SVCS 191200Z 00000KT 7000 -HZ BKN040 23/21 Q1017



METAR SVCS 191100Z 00000KT 7000 -HZ BKN040 23/21 Q1017



METAR SVCS 181500Z 09008KT 9999 BKN030 25/21 Q1017



METAR SVCS 171700Z 00000KT 2000 RA MIFG OVC020 21/21 Q1016



METAR SVCS 171500Z 00000KT 0100 MIFG OVC020 21/21 Q1017



METAR SVCS 161600Z 00000KT 9000 BR SCT020 27/20 Q1016



METAR SVCS 152100Z 00000KT 9999 SCT060 25/20 Q1013



METAR SVCS 131300Z 00000KT 9999 SCT050 26/21 Q1015



METAR SVCS 131200Z 00000KT 7000 -HZ SCT050 25/21 Q1015



METAR SVCS 131100Z 00000KT 7000 -HZ SCT050 25/21 Q1015



METAR SVCS 121200Z 00000KT 9999 SCT050 24/23 Q1018



METAR SVCS 121100Z 00000KT 9999 SCT050 24/23 Q1018



METARS SVCS 111800Z 00000KT 3000 -DZ OVC020 22/21 Q1016 CBS



METARS SVCS 111700Z 00000KT 3000 +RA OVC010 21/21 Q1016 CB



METARS SVCS 111600Z 00000KT 1000 +RA OVC010 21/21 Q1016 CB



METARS SVCS 111500Z 00000KT 3000 +HZ OVC020 25/23 Q1016 CBS



METARS SVCS 111400Z 00000KT 9000 -HZ OVC040 26/23 Q1016



METARS SVCS 111300Z 00000KT 8000 -HZ OVC030 25/23 Q1016



METARS SVCS 111200Z 00000KT 6000 -HZ OVC030 24/23 Q1016



METARS SVCS 111100Z 00000KT 6000 -HZ OVC030 24/23 Q1016



METAR SVCS 101300Z 00000KT 9999 OVC030 23/22 Q1016



METAR SVCS 101200Z 00000KT 8000 -HZ -DZ 23/22 Q1016



METAR SVCS 101100Z 00000KT 8000 -HZ -DZ 23/22 Q1016



METAR SVCS 091300Z 00000KT 9999 SCT040 27/22 Q1015



METAR SVCS 091200Z 00000KT 9999 OVC040 25/22 Q1015



METAR SVCS 091100Z 00000KT 9999 OVC040 25/22 Q1015



METAR SVCS 081300Z 00000KT 9999 SCT040 25/21 Q1017



METAR SVCS 061300Z 00000KT 5000 -HZ OVC020 23/22 Q1017



METAR SVCS 061200Z 00000KT 4000 +HZ OVC020 23/22 Q1017



METAR SVCS 061100Z 00000KT 4000 +HZ OVC020 23/22 Q1017 REDZ



METAR SVCS 251300Z 15010KT 9999 BKN050 25/20 Q1017



METAR SVCS 251200Z 15008KT 9999 BKN040 24/20 Q1017



METAR SVCS 251100Z 15008KT 9999 BKN040 24/20 Q1017



METAR SVCS 131300Z 00000KT 7000 -HZ OVC020 22/21 Q1018 REDZ



METAR SVCS 131200Z 00000KT 3000 -DZ OVC020 22/21 Q1018



METAR SVCS 131100Z 00000KT 3000 -DZ OVC020 22/21 Q1018



METAR SVCS 11100Z 00000KT 9999 0VC040 26/19 Q1017



METAR SVCS 111200Z 00000KT 9999 0VC040 25/19 Q1017



METAR SVCS 111100Z 00000KT 9999 0VC040 25/19 Q1017



METAR SVCS 081300Z 00000KT 9999 SCT050 25/18 Q1018



METAR SVCS 081200Z 00000KT 9999 SCT050 25/18 Q1018



METAR SVCS 081100Z 00000KT 9999 SCT050 25/18 Q1018



METAR SVCS 071400Z 00000KT 7000 -HZ OVC040 26/XX Q1019



METAR SVCS 071300Z 00000KT 7000 -HZ OVC030 26/XX Q1019



METAR SVCS 071200Z 00000KT 7000 -HZ OVC030 25/XX Q1019



METAR SVCS 071100Z 00000KT 7000 -HZ OVC030 25/XX Q1019



METAR SVCS 051300Z 00000KT 9999 BKN050 26/20 Q1018



METAR SVCS 051200Z 00000KT 9999 BKN050 24/20 Q1018



METAR SVCS 051100Z 00000KT 9999 BKN050 24/20 Q1018



METAR SVCS 141200Z 00000 9999 BKN040 22/18 Q1018



METAR SVCS 141100Z 00000 9999 BKN040 22/18 Q1018



METAR SVCS 101400Z 00000KT 9999 BKN040 25/19 Q1018



METAR SVCS 101300Z 00000KT 9999 BKN040 24/19 Q1018



METAR SVCS 101200Z 00000KT 9999 BKN040 24/19 Q1018



METAR SVCS 101100Z 00000KT 9999 BKN040 24/19 Q1018



METAR SVCS 241400Z 09008KT 5000 -HZ OVC040 22/20 Q1017



METAR SVCS 241300Z 08008KT 1000 +HZ OVC010 22/20 Q1017



METAR SVCS 241200Z 08008KT 3000 +HZ OVC020 22/20 Q1017



METAR SVCS 241100Z 08008KT 3000 +HZ OVC020 22/20 Q1017



METAR SVCS 021300Z 00000KT 9999 FEW020 24/17 Q1020



METAR SVCS 021200Z 00000KT 9999 FEW020 22/17 Q1020



METAR SVCS 021100Z 00000KT 9999 FEW020 22/17 Q1020



METAR SVCS 291400Z VRB06KT 8000 SCT035 25/19 Q1020



METAR SVCS 171200Z 09010KT 9999 FEW020 20/18 Q1017



METAR SVCS 171100Z 00000KT 9999 FEW020 20/18 1017



METAR SVCS 141200Z 00000KT 5000 -HZ BKN040 23/21 Q1017



METAR SVCS 141100Z 00000KT 7000 -HZ BKN040 23/21 Q1017



METAR SVCS 091400Z 00000KT 9999 BKN035 25/19 Q1015



METAR SVCS 021300Z 00000KT 9999 BKN030 24/21 Q1016



METAR SVCS 021200Z 00000KT 8000 -HZ BKN030 23/21 Q1016



METAR SVCS 021100Z 00000KT 8000 -HZ BKN030 23/21 Q1016



METAR SVCS 241400Z 00000KT 8000 -HZ OVC030 25/21 Q1015



METAR SVCS 241300Z 00000KT 8000 -HZ BKN040 25/21 Q1015



METAR SVCS 241200Z 00000KT 8000 -HZ BKN040 24/21 Q1015



METAR SVCS 241100Z 00000KT 8000 -HZ BKN040 24/21 Q1015



METAR SVCS 221300Z 00000KT 3000 +HZ 0VC020 22/21 Q1017



METAR SVCS 221200Z 00000KT 3000 +HZ 0VC020 22/21 Q1017 REDZ



METAR SVCS 221100Z 00000KT 3000 +HZ 0VC020 22/21 Q1017 REDZ



METAR SVCS 261300Z 00000KT 9999 BKN050 27/21 Q1016



METAR SVCS 261200Z 00000KT 9999 BKN050 26/21 Q1016



METAR SVCS 261100Z 00000KT 9999 BKN050 26/21 Q1016



METAR SVCS 251400Z OOOOOKT 7000 -HZ BKN040 25/20 Q1016



METAR SVCS 251300Z OOOOOKT 5000 -HZ OVC040 24/20 Q1016



METAR SVCS 251200Z OOOOOKT 5000 -HZ OVC040 24/20 Q1016



METAR SVCS 251100Z OOOOOKT 5000 -HZ OVC040 24/20 Q1016



METAR SVCS 221300Z 00000KT 9999 BKN050 26/22 Q1017



METAR SVCS 221200Z 00000KT 9999 BKN050 25/22 Q1017



METAR SVCS 221100Z 00000KT 9999 BKN050 25/22 Q1017



METAR SVCS 121500Z 00000KT 9999 SCT050 29/22 Q1017



METAR SVCS 121400Z 00000KT 9999 SCT050 28/22 Q1017



METAR SVCS 121300Z 00000KT 9999 SCT050 27/22 Q1017



METAR SVCS 121200Z 00000KT 9999 SCT050 26/22 Q1017



METAR SVCS 121100Z 00000KT 9999 SCT050 26/22 Q1017



METAR SVCS 081300Z 00000KT 9999 SCT050 27/22 Q1017



METAR SVCS 081200Z 00000KT 9999 SCT050 26/22 Q1017



METAR SVCS 081100Z 00000KT 9999 SCT050 26/22 Q1017



METAR SVCS 071600Z 00000KT 9999 SCT050 29/23 Q1016



METAR SVCS 071500Z 00000KT 9999 SCT050 29/23 Q1017



METAR SVCS 071400Z 00000KT 9999 SCT050 28/23 Q1017



METAR SVCS 071300Z 00000KT 9999 SCT050 27/23 Q1017



METAR SVCS 071200Z 00000KT 9999 SCT050 27/23 Q1017



METAR SVCS 071200Z 00000KT 9999 SCT050 26/23 Q1017



METAR SVCS 071100Z 00000KT 9999 SCT050 26/23 Q1017



METAR SVCS 281300Z 00000KT 9999 BKN040 25/22 Q1016



METAR SVCS 281200Z 00000KT 9999 BKN040 24/22 Q1016



METAR SVCS 281100Z 00000KT 9999 BKN040 24/22 Q1016



METAR SVCS 241300Z 00000KT 9999 BKN040 26/22 Q1016



METAR SVCS 241200Z 00000KT 9999 BKN040 25/22 Q1016



METAR SVCS 241100Z 00000KT 9999 BKN040 25/22 Q1016



METAR SVCS 241100Z 00000KT 9999 BKN040 25/22 Q1016



METAR SVCS 231400Z 00000KT 9999 BKN030 26/22 Q1016



METAR SVCS 231300Z 00000KT 9999 BKN030 26/22 Q1016



METAR SVCS 231200Z 00000KT 9999 BKN030 25/22 Q1016



METAR SVCS 231100Z 00000KT 9999 BKN030 25/22 Q1016



METAR SVCS 011100Z 00000KT 9999 FWE030 25/22 Q1016



METAR SVCS 311300Z 00000KT 9999 SCT050 27/22 Q1017



METAR SVCS 311200Z 00000KT 9999 SCT050 27/22 Q1017



METAR SVCS 311100Z 00000KT 9999 SCT050 27/22 Q1017



METAR SVCS 271300Z 00000KT 9999 BKN050 25/21 Q1017



METAR SVCS 271200Z 00000KT 9999 BKN050 24/21 Q1017



METAR SVCS 271100Z 00000KT 9999 BKN050 24/21 Q1017



METAR SVCS 261200Z 00000KT 5000 +HZ OVC040 22/22 Q1017 REDZ



METAR SVCS 261100Z 00000KT 4000 +HZ -DZ OVC030 22/22 Q1017



METAR SVCS 171300Z 00000KT 9999 FEW020 26/22 Q1018



METAR SVCS 171200Z 00000KT 9999 FEW020 25/22 Q1018



METAR SVCS 171100Z 00000KT 9999 FEW020 25/22 Q1018



METAR SVCS 161300Z 00000KT 9999 FEW030 26/22 Q1018



METAR SVCS 161200Z 00000KT 9999 FEW030 25/22 Q1018



METAR SVCS 161100Z 00000KT 9999 FEW030 25/22 Q1018



METAR SVCS 131500Z 00000KT 9999 BKN040 27/22 Q1017



METAR SVCS 131400Z 00000KT 9999 BKN040 26/22 Q1017



METAR SVCS 131300Z 00000KT 9999 BKN040 25/22 Q1017



METAR SVCS 131200Z 00000KT 9999 BKN040 25/22 Q1017



METAR SVCS 131100Z 00000KT 8000 -HZ BKN040 24/22 Q1017



METAR SVCS 121300Z 00000KT 9999 FEW030 25/21 Q1017



METAR SVCS 121200Z 00000KT 9999 FEW030 24/21 Q1017



METAR SVCS 121100Z 00000KT 9999 FEW030 24/21 Q1017



METAR SVCS 031600Z 08010KT 9999 SCT070 28/23 Q1016



METAR SVCS 031500Z 08010KT 9999 SCT070 28/23 Q1016



METAR SVCS 031400Z 00000KT 8000 -HZ BKN050 27/23 Q1017



METAR SVCS 031300Z 00000KT 6000 -HZ BKN050 26/23 Q1017



METAR SVCS 031200Z 00000KT 6000 -HZ BKN050 25/23 Q1017



METAR SVCS 031100Z 00000KT 6000 -HZ BKN050 25/23 Q1017



METAR SVCS 021300Z 00000KT 9999 BKN050 25/23 Q1017



METAR SVCS 021200Z 00000KT 9999 BKN050 25/23 Q1017



METAR SVCS 021100Z 00000KT 9999 BKN050 25/23 Q1017



METAR SVCS 301300Z 00000KT 7000 -HZ BKN040 25/21 Q1017



METAR SVCS 301200Z 00000KT 7000 -HZ BKN040 24/21 Q1017



METAR SVCS 301100Z 00000KT 7000 -HZ BKN040 24/21 Q1017



METAR SVCS 291600Z 08010KT 9999 SCT070 28/21 Q1017



METAR SVCS 291500Z 00000KT 9999 SCT070 27/21 Q1018



METAR SVCS 291400Z 00000KT 9999 BKN050 27/22 Q1019



METAR SVCS 291300Z 00000KT 8000 -HZ OVC040 25/22 Q1019



METAR SVCS 291200Z 00000KT 7000 -HZ OVC030 25/22 Q1019



METAR SVCS 291100Z 00000KT 7000 -HZ OVC030 25/22 Q1019



METAR SVCS 211500Z 08010KT 9999 SCT070 28/21 Q1017



METAR SVCS 211400Z 00000KT 9999 SCT070 27/XX Q1017



METAR SVCS 211300Z 00000KT 9999 SCT070 26/XX Q1017



METAR SVCS 211200Z 00000KT 9999 SCT070 25/XX Q1017



METAR SVCS 211100Z 00000KT 9999 SCT070 25/XX Q1017



METAR SVCS 201400Z 00000KT 9999 BKN040 27/XX Q1017



METAR SVCS 201300Z 00000KT 9999 BKN040 26/XX Q1017



METAR SVCS 201200Z 00000KT 9999 BKN040 25/XX Q1017



METAR SVCS 201100Z 00000KT 9999 BKN040 25/XX Q1017



METAR SVCS 191600Z 08010KT 9999 BKN040 28/22 Q1014



METAR SVCS 191600Z 08010KT 9999 BKN040 27/22 Q1014



METAR SVCS 191500Z 00000KT 9999 BKN040 27/22 Q1015



METAR SVCS 191400Z 00000KT 9999 BKN040 25/22 Q1016



METAR SVCS 191300Z 00000KT 7000 -HZ OVC030 24/22 Q1017



METAR SVCS 191200Z 00000KT 3000 MIFG OVC020 24/22 Q1017



METAR SVCS 191100Z 00000KT 3000 MIFG OVC020 24/22 Q1017



METAR SVCS 161500Z 00000KT 9999 SCT070 27/22 Q1017



METAR SVCS 161400Z 00000KT 9999 SCT070 27/22 Q1017



METAR SVCS 161400Z 00000KT 9999 SCT070 27/22 Q1017



METAR SVCS 161300Z 00000KT 9999 BKN040 26/22 Q1017



METAR SVCS 161200Z 00000KT 9999 BKN040 25/22 Q1017



METAR SVCS 161100Z 00000KT 9999 BKN040 25/22 Q1017



METAR SVCS 151400Z 00000KT 7000 MIFG BKN050 25/22 Q1016



METAR SVCS 151300Z 00000KT 7000 MIFG BKN050 25/22 Q1016



METAR SVCS 151200Z 00000KT 7000 MIFG BKN050 24/22 Q1016



METAR SVCS 151100Z 00000KT 7000 MIFG BKN050 24/22 Q1016



METAR SVCS 051700Z 00000KT 9999 SCT070 28/21 Q1013



METAR SVCS 051600Z 00000KT 9999 SCT070 27/21 Q1015



METAR SVCS 051500Z 00000KT 9999 SCT070 27/21 Q1015



METAR SVCS 051400Z 00000KT 9999 SCT070 26/21 Q1016



METAR SVCS 051300Z 00000KT 9999 BKN040 25/21 Q1016



METAR SVCS 051200Z 00000KT 9999 BKN040 25/21 Q1016



METAR SVCS 051100Z 00000KT 9999 BKN040 25/21 Q1016



METAR SVCS 021900Z 00000KT 9999 BKN050 28/21 Q1013



METAR SVCS 021800Z 00000KT 9999 BKN050 28/21 Q1014



METAR SVCS 021700Z 00000KT 7000 -HZ OVC040 26/21 Q1016



METAR SVCS 021600Z 00000KT 7000 -HZ OVC040 24/21 Q1017



METAR SVCS 021500Z 00000KT 4000 +HZ OVC030 22/21 Q1017



METAR SVCS 021400Z 00000KT 4000 +HZ OVC030 22/21 Q1017



METAR SVCS 021300Z 00000KT 3000 MIFG OVC020 21/21 Q1018 REDZ



METAR SVCS 021200Z 00000KT 1000 MIFG OVC010 21/21 Q1018 REDZ



METAR SVCS 021100Z 00000KT 1000 MIFG OVC010 21/21 Q1018 RERA



METAR SVCS 011400Z 00000KT 9999 BKN040 27/22 Q1018



METAR SVCS 011300Z 00000KT 9999 BKN040 26/22 Q1018



METAR SVCS 011200Z 00000KT 9999 BKN040 25/22 Q1018



METAR SVCS 011100Z 00000KT 9999 BKN040 25/22 Q1018



METAR SVCS 281300Z 00000KT 7000 -HZ OVC040 24/22 Q1017



METAR SVCS 281200Z 00000KT 5000 MIFG OVC040 24/22 Q1017



METAR SVCS 281100Z 00000KT 5000 MIFG OVC040 24/22 Q1017



METAR SVCS 211500Z 00000KT 1000 MIFG OVC020 23/22 Q1015



METAR SVCS 211400Z 00000KT 1000 MIFG OVC020 23/22 Q1015



METAR SVCS 211300Z 00000KT 4000 MIFG OVC030 23/21 Q1016



METAR SVCS 211200Z 00000KT 4000 MIFG OVC030 23/21 Q1016



METAR SVCS 211100Z 00000KT 4000 MIFG OVC030 23/21 Q1016



METAR SVCS 181600Z 00000KT 9999 SCT070 28/21 Q1015



METAR SVCS 181500Z 00000KT 9999 SCT070 28/23 Q1016



METAR SVCS 181400Z 00000KT 9999 BKN040 27/23 Q1018



METAR SVCS 181300Z 00000KT 9999 BKN040 26/23 Q1019



METAR SVCS 181200Z 00000KT 3000 MIFG OVC030 25/23 Q1019



METAR SVCS 181100Z 00000KT 3000 MIFG OVC030 25/23 Q1019



METAR SVCS 171400Z 00000KT 9999 BKN050 26/22 Q1018



METAR SVCS 171300Z 00000KT 9999 BKN050 26/22 Q1018



METAR SVCS 171200Z 00000KT 8000 -HZ BKN050 25/22 Q1018



METAR SVCS 171100Z 00000KT 8000 -HZ BKN050 25/22 Q1018



METAR SVCS 141600Z 00000KT 9999 BKN050 28/21 Q1017



METAR SVCS 141500Z 00000KT 9999 BKN050 27/21 Q1019



METAR SVCS 141400Z 00000KT 9999 BKN050 26/21 Q1019



METAR SVCS 091300Z 00000KT 9000 -HZ BKN050 25/22 Q1019



METAR SVCS 091200Z 00000KT 7000 +HZ BKN050 24/22 Q1019



METAR SVCS 091100Z 00000KT 7000 +HZ BKN050 24/22 Q1019



METAR SVCS 081300Z 00000KT 8000 -HZ BKN040 24/22 Q1018



METAR SVCS 081200Z 00000KT 8000 -HZ BKN040 24/22 Q1019



METAR SVCS 081100Z 00000KT 7000 -HZ BKN040 24/22 Q1019 REDZ



METAR SVCS 071600Z 00000KT 9999 SCT050 28/22 Q1015



METAR SVCS 071500Z 00000KT 9999 SCT050 28/22 Q1017



METAR SVCS 071400Z 00000KT 9999 SCT050 28/22 Q1018



METAR SVCS 071300Z 00000KT 9999 FEW030 26/22 Q1019



METAR SVCS 071200Z 00000KT 9999 FEW030 25/22 Q1019



METAR SVCS 071100Z 00000KT 9999 FEW030 25/22 Q1019



METAR SVCS 041200Z 00000KT 8000 -HZ SCT050 24/22 Q1021



METAR SVCS 041100Z 00000KT 8000 -HZ SCT050 24/22 Q1021



METAR SVCS 031300Z 00000KT 9999 SCT050 26/22 Q1019



METAR SVCS 031200Z 00000KT 9999 FEW020 SCT050 25/22 Q1019



METAR SVCS 031100Z 00000KT 9999 FEW020 SCT050 25/22 Q1019



METAR SVCS 261500Z 00000KT 9000 -HZ BKN40 27/23 Q1015



METAR SVCS 261400Z 00000KT 8000 -HZ OVC040 27/23 Q1016



METAR SVCS 261300Z 00000KT 8000 -HZ OVC030 27/23 Q1016



METAR SVCS 261200Z 00000KT 8000 -HZ OVC030 26/23 Q1016



METAR SVCS 261100Z 00000KT 6000 -HZ OVC030 26/23 Q1016



METAR SVCS 251200Z 00000KT 9999 BKN040 26/21 Q1015



METAR SVCS 251200Z 00000KT 9999 BKN040 26/21 Q1015



METAR SVCS 251200Z 00000KT 9999 BKN040 26/21 Q1015



METAR SVCS 251100Z 00000KT 8000 -HZ BKN040 25/21 Q1015



METAR SVCS 241300Z 00000KT 8000 -HZ BKN030 26/23 Q1015



METAR SVCS 241200Z 00000KT 8000 -HZ BKN030 26/23 Q1015



METAR SVCS 241100Z 00000KT 7000 -HZ BKN030 26/23 Q1015



METAR SVCS 211400Z 00000KT 9999 BKN050 27/23 Q1016



METAR SVCS 211300Z 00000KT 8000 -HZ BKN050 27/23 Q1017



METAR SVCS 211200Z 00000KT 8000 -HZ BKN040 26/23 Q1017



METAR SVCS 211100Z 00000KT 8000 -HZ BKN040 25/23 Q1017



METAR SVCS 201700Z 10010KT 9999 SCT050 29/21 Q1014



METAR SVCS 201600Z 00000KT 9999 SCT050 29/21 Q1014



METAR SVCS 201500Z 00000KT 9999 BKN050 27/22 Q1015



METAR SVCS 201400Z 00000KT 9999 BKN050 27/22 Q1016



METAR SVCS 201300Z 00000KT 7000 -HZ BKN040 26/22 Q1017



METAR SVCS 201200Z 00000KT 7000 -HZ BKN040 26/22 Q1017



METAR SVCS 201200Z 00000KT 7000 -HZ OVC030 25/22 Q1017



METAR SVCS 201100Z 00000KT 7000 -HZ OVC030 25/22 Q1017



METAR SVCS 121600Z 08012KT 3000 MIFG 0VC020 23/21 Q1015 REDZ



METAR SVCS 121500Z 08012KT 3000 MIFG -DZ 0VC020 22/21 Q1015



METAR SVCS 121400Z 00000KT 3000 MIFG -DZ 0VC020 22/21 Q1016



METAR SVCS 121300Z 00000KT 3000 MIFG 0VC020 22/21 Q1016



METAR SVCS 121200Z 00000KT 3000 MIFG -DZ OVC020 22/21 Q1016



METAR SVCS 121100Z 00000KT 3000 MIFG -DZ OVC020 22/21 Q1016



METAR SVCS 111500Z 08010KT 9999 SCT070 28/19 Q1016



METAR SVCS 111400Z 00000KT 9999 SCT070 28/19 Q1016



METAR SVCS 111300Z 00000KT 9999 SCT070 27/19 Q1016



METAR SVCS 111200Z 00000KT 8000 -HZ BKN050 26/19 Q1016



METAR SVCS 111100Z 00000KT 8000 -HZ BKN050 25/19 Q1016



METAR SVCS 101400Z 08010KT 9999 BKN050 27/21 Q1017



METAR SVCS 101300Z 00000KT 8000 -HZ BKN050 27/21 Q1017



METAR SVCS 101200Z 00000KT 7000 -HZ BKN050 25/21 Q1017



METAR SVCS 101100Z 00000KT 7000 -HZ BKN050 25/21 Q1017



METAR SVCS 071400Z 09010KT 9999 SCT070 28/20 Q1017



METAR SVCS 071300Z 09010KT 9999 SCT070 28/20 Q1017



METAR SVCS 071200Z 08010KT 9999 SCT070 26/20 Q1017



METAR SVCS 071100Z 08010KT 9999 SCT070 25/20 Q1017



METAR SVCS 271600Z 00000KT 9999 BKN040 31/22 Q1015



METAR SVCS 271500Z 00000KT 9999 BKN040 30/22 Q1016



METAR SVCS 271400Z 00000KT 8000 -HZ BKN040 28/22 Q1018



METAR SVCS 271300Z 00000KT 7000 -HZ BKN040 28/22 Q1018



METAR SVCS 271200Z 00000KT 7000 -HZ BKN040 27/22 Q1018



METAR SVCS 271100Z 00000KT 7000 -HZ BKN040 26/22 Q1018



METAR SVCS 261800Z 00000KT 9999 BKN050 31/19 Q1012



METAR SVCS 261700Z 00000KT 9999 BKN050 31/19 Q1012



METAR SVCS 261600Z 00000KT 8000 -HZ OVC050 30/20 Q1013



METAR SVCS 261500Z 00000KT 7000 -HZ OVC040 29/21 Q1014



METAR SVCS 261400Z 00000KT 7000 -HZ OVC030 27/21 Q1016



METAR SVCS 261300Z 00000KT 3000 +HZ OVC030 25/21 Q1017



METAR SVCS 261200Z 00000KT 3000 +HZ OVC030 25/21 Q1017



METAR SVCS 261100Z 00000KT 3000 +HZ OVC030 25/21 Q1017



METAR SVCS 251900Z 00000KT 9999 SCT060 30/22 Q1013



METAR SVCS 251600Z 00000KT 9999 BKN060 26/22 Q1016



METAR SVCS 231500Z 00000KT 9999 SCT050 30/21 Q1015



METAR SVCS 231400Z 00000KT 9999 SCT050 29/21 Q1016



METAR SVCS 231300Z 00000KT 9999 SCT050 27/21 Q1017



METAR SVCS 231200Z 00000KT 9999 BKN050 26/21 Q1017



METAR SVCS 231100Z 00000KT 9999 BKN050 25/21 Q1017



METAR SVCS 231100Z 00000KT 9999 BKN050 25/21 Q1017



METAR SVCS 221800Z 00000KT 9999 SCT070 29/22 Q1012



METAR SVCS 221700Z 00000KT 9999 SCT070 230/22 Q1013



METAR SVCS 221600Z 00000KT 9999 BKN050 29/22 Q1014



METAR SVCS 221500Z 00000KT 5000 +HZ OVC040 27/23 Q1017



METAR SVCS 221400Z 00000KT 3000 MIFG OVC030 27/23 Q1017



METAR SVCS 221300Z 00000KT 2000 MIFG OVC020 26/23 Q1017



METAR SVCS 221200Z 00000KT 2000 MIFG OVC020 26/23 Q1017



METAR SVCS 221100Z 00000KT 2000 MIFG OVC020 26/23 Q1017



METAR SVCS 162200Z 09010KT 9999 SCT035 SCT100 25/20 Q1013



METAR SVCS 161400Z 00000KT 7000 -DZ BKN030 BKN100 22/22 Q1017



METAR SVCS 141800Z 14010KT 5000 MIFG BKN030 23/21 Q1015 REDZ



METAR SVCS 141700Z 14010KT 5000 MIFG BKN030 23/21 Q1015 RERA



METAR SVCS 141600Z 11010KT 6000 MIFG BKN030 28/20 Q1015 CBS



METAR SVCS 141500Z 00000KT 9999 BKN050 28/20 Q1015



METAR SVCS 141400Z 00000KT 9999 BKN050 28/20 Q1015



METAR SVCS 141300Z 00000KT 8000 -HZ OVC030 26/23 Q1017



METAR SVCS 141200Z 00000KT 8000 -HZ OVC030 25/23 Q1017



METAR SVCS 141100Z 00000KT 8000 -HZ OVC030 25/23 Q1017



METAR SVCS 131500Z 00000KT 4000 MIFG OVC030 27/20 Q1016



METAR SVCS 131400Z 00000KT 4000 MIFG OVC030 26/20 Q1016



METAR SVCS 131300Z 00000KT 7000 -HZ OVC030 25/20 Q1017



METAR SVCS 131200Z 00000KT 7000 -HZ OVC030 24/20 Q1017



METAR SVCS 131100Z 00000KT 7000 -HZ OVC030 24/20 Q1017



METAR SVCS 121700Z 08010KT 9999 FEW040 31/20 Q1011



METAR SVCS 121600Z 00000KT 9999 FEW040 31/20 Q1011



METAR SVCS 121500Z 00000KT 9999 SCT050 29/20 Q1014



METAR SVCS 121400Z 00000KT 9999 SCT050 28/20 Q1015



METAR SVCS 121300Z 00000KT 9999 SCT050 26/20 Q1016



METAR SVCS 121200Z 00000KT 9999 BKN040 23/20 Q1016



METAR SVCS 121100Z 00000KT 9999 BKN040 23/20 Q1016



METAR SVCS 092000Z 00000KT 7000 -HZ OVC030 25/21 Q1013



METAR SVCS 091900Z 00000KT 7000 -HZ OVC030 25/21 Q1013



METAR SVCS 091800Z 00000KT 7000 -HZ OVC030 25/21 Q1015



METAR SVCS 091700Z 00000KT 7000 -HZ OVC030 25/21 Q1017



METAR SVCS 091600Z 00000KT 4000 MIFG OVC030 25/21 Q1017



METAR SVCS 091500Z 00000KT 2000 MIFG OVC020 23/21 Q1018



METAR SVCS 091400Z 00000KT 2000 MIFG OVC030 23/22 Q1018



METAR SVCS 091300Z 00000KT 4000 +HZ OVC030 23/22 Q1018



METAR SVCS 091200Z 00000KT 4000 +HZ BKN030 23/22 Q1018 REDZ



METAR SVCS 091100Z 00000KT 5000 HZ BKN030 23/22 Q1018 REDZ



METAR SVCS 081600Z 00000 1000 MIFG OVC010 22/21 Q1017



METAR SVCS 081600Z 1000 MIFG OVC010 22/21 Q1017



METAR SVCS 081500Z 2000 MIFG OVC020 22/21 Q1017



METAR SVCS 081400Z 2000 MIFG OVC020 22/21 Q1017



METAR SVCS 081200Z 00000KT 1000 MIFG OVC010 21/20 Q1017



METAR SVCS 081200Z 00000KT 1000 MIFG OVC010 21/20 Q1017 REDZ



METAR SVCS 081100Z 00000KT 1000 MIFG OVC010 21/20 Q1017 REDZ



METAR SVCS 051800Z 00000KT 7000 HZ OVC030 26/20 Q1015



METAR SVCS 021900Z 22007 7000 +HZ SCT035 30/18 Q1012



METAR SVCS 011700Z 09010KT 8000 -HZ SCT035 30/19 Q1016



Metar SVCS 301900Z 09010KT 9999 -HZ SCT035 32/24 Q1015



METAR SVCS 241800Z 09010 9999 SCT035 27/XX Q1017



METAR SVCS 24100Z 09010 9999 SCT035 27/XX Q1017



METAR SVCS 241600Z 09010 9999 SCT035 27/XX Q1017



METAR SVCS 241500Z 09010 9999 SCT035 26/XX Q1017



METAR SVCS 241400Z 09010 9999 SCT035 25/XX Q1017



METAR SVCS 241300Z 00000 9999 SCT035 25/XX Q1017



METAR SVCS 241200Z 00000 9999 SCT035 24/XX Q1017



METAR SVCS 241100Z 00000 9999 SCT035 24/XX Q1017



METAR SVCS 272000Z 09010KT CAVOK 30/16 Q1010



METAR SVCS 271900Z 09010KT CAVOK 31/16 Q1011



METAR SVCS 271800Z 09010KT CAVOK 31/16 Q1012



METAR SVCS 271700Z 09010KT CAVOK 31/16 Q1013



METAR SVCS 031600Z 00000KT 9999 SCT035 27/22 Q1016



METAR SVCS 221900Z 00000KT 9999 BKN034 30/20 Q1013



METAR SVCS 011300Z 00000KT 8000 -HZ BKN040 24/XX Q1019



METAR SVCS 011200Z 00000KT 8000 -HZ BKN040 24/XX Q1019



METAR SVCS 011100Z 00000KT 8000 -HZ BKN040 24/XX Q1019



METAR SVCS 211600Z 09006 9999 BKN035 25/23 Q1017



METAR SVCS 112100Z 09010KT 9999 SCT035 25/XX Q1015



METAR SVCS 072100Z 09010KT 9999 SCT035 26/XX Q1014



METAR SVCS 051300Z 09008KT 9999 SCT070 25/XX Q1019



METAR SVCS 051200Z 00000KT 9999 BKN050 23/XX Q1019



METAR SVCS 051100Z 00000KT 9999 BKN050 23/XX Q1019



METAR SVCS 041800Z 08012KT 9999 BKN050 28/XX Q1015



METAR SVCS 041700Z 09010KT 9999 SCT070 28/XX Q1016



METAR SVCS 282000Z 09010KT 9999 SCT035 26/XX Q1015



METAR SVCS 2200Z 09006KT 9999 SCT035 24/XX Q1016



METAR SVCS 2100Z 09006KT 9999 SCT035 24/XX Q1016



METAR SVCS 152000Z 00000KT 3000 HZ RERA BKN030 24/23 Q1014



METAR SVCS 102000Z 12009KT 9999 BKN030 28/21 Q1015



METAR SVCS 011900Z 30008KT 9999 SCT035 SCT300 30/19 Q1013



METAR SVCS 302200Z 09008KT 9999 SCT035 27/18 Q1013



METAR SVCS 302100Z 09008KT 9999 SCT035 29/18 Q1013



METAR SVCS 301900Z 01008KT 9999 HZ SCT035 32/16 Q1014



METAR SVCS 301900Z 12008KT 9999 HZ SCT035 32/16 Q1014



METAR SVCS 301800Z 12008KT 9999 HZ SCT035 32/16 Q1014



METAR SVCS 301700Z 12008KT 9000 -HZ SCT035 30/16 Q1016



METAR SVCS 122000Z 09010KT 9999 BKN055 28/XX Q1015



METAR SVCS 121900Z 09010KT 9999 BKN055 30/XX Q1017



METAR SVCS 121800Z 09010KT 9999 BKN055 30/XX Q1017



METAR SVCS 121700Z 09010KT 9999 BKN055 30/XX Q1017



METAR SVCS 062100Z 09010KT 9999 SCT035 27/XX Q1018



METAR SVCS 031400Z 09006KT 9999 BKN035 25/XX Q1018



METAR SVCS 202000Z 09008KT 9999 SCT035 30/XX Q1014



METAR SVCS 202000Z 09008KT 9999 SCT035 30/XX Q1015



METAR SVCS 201700Z 09008KT 9999 HZ SCT035 29/XX Q1017



METAR SVCS 181500Z 09008KT 9000 HZ SCT025 25/XX Q1017



METAR SVCS 181500Z 16008KT 9000 HZ SCT025 25/XX Q1017



METAR SVCS 181600Z 16008KT 9000 HZ SCT025 28/XX Q1017



METAR SVCS 181600Z 16008KT 9000 HZ SCT025 28/XX Q1017



METAR SVCS 181600Z 16008KT 9000 SCT025 HZ 28/XX Q1017



METAR SVCS 152000Z 09010KT 9999 SCT035 30/XX Q1012



METAR SVCS 151900Z 09010KT 9999 SCT035 30/XX Q1012



METAR SVCS 012200Z 00000KT 9999 SCT020 BKN030 24/XX Q1015



METAR SVCS 012100Z 00000KT 9999 SCT020 BKN030 24/XX Q1015



METAR SVCS 012000Z 00000KT 9000 SCT020 BKN030 24/XX Q1015



METAR SVCS 011900Z 00000KT 9000 SCT020 BKN030 24/XX Q1015



METAR SVCS 011800Z 00000KT 9000 SCT020 BKN030 24/XX Q1016



METAR SVCS 011700Z 00000KT 9000 SCT020 BKN030 24/XX Q1016



METAR SVCS 102200Z 09010KT 9999 SCT035 21/XX Q1016



METAR SVCS 102100Z 09010KT 9999 SCT035 21/XX Q1016



METAR SVCS 102100Z 09010KT 9999 SCT035 22/XX Q1016



METAR SVCS 102000Z 09010KT 9999 SCT035 24/XX Q1017



METAR SVCS 101900Z 09010KT 9999 SCT035 24/XX Q1018



METAR SVCS 101800Z 09010KT 9999 SCT035 25/XX Q1018



METAR SVCS 101700Z 09010KT 9999 SCT035 25/XX Q1018



METAR SVCS 031800Z 09008KT 9999 BKN050 26/XX Q1016



METAR SVCS 031700Z 09008KT 9999 BKN050 26/XX Q1016



METAR SVCS 031600Z 00000KT 9999 BKN050 25/XX Q1017



METAR SVCS 031500Z 00000KT 9999 BKN050 25/XX Q1017



METAR SVCS 031400Z 00000KT 9999 BKN050 24/XX Q1018



METAR SVCS 031300Z 00000KT 9999 BKN050 23/XX Q1018



METAR SVCS 031200Z 00000KT 9999 BKN050 23/XX Q1018



METAR SVCS 031100Z 00000KT 9999 BKN050 23/XX Q1018



METAR SVCS 231700Z 09008KT 4000 OVC030 BKN045 27/XX Q1018



METAR SVCS 271600Z 10010KT 9999 BKN035 27/XX Q1018



METAR SVCS 101400Z 00000KT 9999 BKN040 22/XX Q1020



METAR SVCS 101300Z 00000KT 9999 BKN040 21/XX Q1020



METAR SVCS 101200Z 00000KT 9999 OVC040 21/XX Q1020



METAR SVCS 101100Z 00000KT 8000 -HZ OVC040 21/XX Q1020



METAR SVCS 151300Z 00000KT 9999 SCT050 25/XX Q1019



METAR SVCS 151200Z 00000KT 9999 SCT050 24/XX Q1019



METAR SVCS 151100Z 00000KT 9999 SCT050 23/XX Q1019



METAR SVCS 141700Z 09010KT 9999 SCT035 26/XX Q1020



METAR SVCS 141600Z 09010KT 9999 SCT035 26/XX Q1020



METAR SVCS 311600Z 09010KT 9999 BKN035 25/XX Q1016



METAR SVCS 212000Z 09010KT 9999 SCT035 26/XX Q1016



METAR SVCS 151900Z 09010 9999 SCT035 26/XX Q1017



METAR SVCS 151800Z 09010 9999 SCT035 26/XX Q1017



METAR SVCS 151700Z 09010 9999 SCT035 26/XX Q1017



METAR SVCS 141800Z 11010 9999 SCT035 25/XX Q1015



METAR SVCS 081900Z 00000KT 9000 BKN030 23/XX Q1016



METAR SVCS 072000Z 00000KT 1000 OVC020 23/XX Q1014



METAR SVCS 071900Z 00000KT 1000 OVC020 24/XX Q1014



METAR SVCS 071900Z 00000KT 1000 OVC020 24/XX Q1014



METAR SVCS 071800Z 00000KT 1000 OVC020 24/XX Q1014



METAR SVCS 301800Z 12010KT 9000 OVC035 22/XX Q1015



METAR SVCS 281600Z 12010KT 9999 BKN035 24/XX Q1016



METAR SVCS 272000Z 10010KT 9999 BKN035 26/XX Q1015



METAR SVCS 271900Z 10010KT 9999 BKN035 26/XX Q1015



METAR SVCS 271800Z 10010KT 9999 BKN035 26/XX Q1015



METAR SVCS 151900Z 09006KT 9999 SCT035 28/XX Q1012



METAR SVCS 151800Z 09006KT 9999 SCT035 28/XX Q1012



METAR SVCS 151800Z 09006KT 9999 SCT035 28/XX Q1012



METAR SVCS 142000Z 09006KT 9999 SCT035 28/XX Q1012



METAR SVCS 141800Z 09006KT 9999 SCT035 28/XX Q1012



METAR SVCS 061600Z 00000KT 9999 FEW050 28/XX Q1017



METAR SVCS 061500Z 00000KT 9999 FEW050 28/XX Q1018



METAR SVCS 061400Z 00000KT 9999 FEW050 26/XX Q1018



METAR SVCS 061300Z 00000KT 9999 FEW050 26/XX Q1018



METAR SVCS 061200Z 00000KT 9999 FEW050 24/XX Q1018



METAR SVCS 061100Z 00000KT 9999 FEW050 24/XX Q1018



METAR SVCS 032000Z 09010KT 9999 SCT035 26/XX Q1016



METAR SVCS 031900Z 09010KT 9999 SCT035 26/XX Q1016



METAR SVCS 031800Z 09010KT 9999 SCT035 28/XX Q1018



METAR SVCS 012100Z 00000KT 9999 FEW050 30/XX Q1015



METAR SVCS 012000Z 00000KT 9999 FEW050 30/XX Q1015



METAR SVCS 011900Z 00000KT 9999 FEW050 30/XX Q1016



METAR SVCS 011800Z 00000KT 9999 FEW050 30/XX Q1016



METAR SVCS 011700Z 00000KT 9999 FEW050 29/XX Q1017



METAR SVCS 011600Z 00000KT 9999 FEW050 29/XX Q1018



METAR SVCS 011500Z 00000KT 9999 SCT070 28/XX Q1018



METAR SVCS 011400Z 00000KT 9999 SCT070 27/XX Q1018



METAR SVCS 011300Z 00000KT 9999 SCT070 27/XX Q1018



METAR SVCS 011200Z 00000KT 9999 SCT070 25/XX Q1018



METAR SVCS 011100Z 00000KT 9999 SCT070 24/XX Q1018



METAR SVCS 311800Z 09010KT 9999 SCT035 28/XX Q1018



METAR SVCS 231400Z 00000KT 9999 SCT070 28/XX Q1018



METAR SVCS 231300Z 00000KT 9999 SCT050 27/XX Q1018



METAR SVCS 231200Z 00000KT 9999 BKN050 25/XX Q1018



METAR SVCS 231100Z 00000KT 9999 BKN050 24/XX Q1018



METAR SVCS 171600Z 09010KT 9999 SCT035 29/XX Q1019



METAR SVCS 162100Z 16006KT 9999 SCT080 SCT030 25/XX Q1018



METAR SVCS 161600Z 16006KT 9999 SCT080 SCT030 28/XX Q1018



METAR SVCS 161500Z 16006KT 9999 SCT080 SCT030 28/XX Q1018



METAR SVCS 151500Z 00000KT 9999 OVC040 24/XX Q1016



METAR SVCS 151400Z 00000KT 8000 -HZ OVC040 23/XX Q1016 REDZ



METAR SVCS 151300Z 00000KT 8000 -HZ OVC040 23/XX Q1016



METAR SVCS 151200Z 00000KT 8000 -HZ OVC040 23/XX Q1016



METAR SVCS 151100Z 00000KT 8000 -HZ OVC040 22/XX Q1016



METAR SVCS 131300Z 00000KT 1000 MIFG OVC020 22/XX Q1016 REDZ



METAR SVCS 131200Z 00000KT 3000 MIFG OVC020 22/XX Q1016



METAR SVCS 131100Z 00000KT 5000 -HZ OVC040 22/XX Q1016



METAR SVCS 091400Z 00000KT 9999 FEW050 28/XX Q1018



METAR SVCS 091300Z 00000KT 9999 FEW050 27/XX Q1018



METAR SVCS 091200Z 00000KT 9999 SCT050 25/XX Q1018



METAR SVCS 091100Z 00000KT 9999 BKN050 24/XX Q1018



METAR SVCS 032100Z 09010KT 9999 SCT035 25/XX Q1014



METAR SVCS 031900Z 09010KT 9999 SCT035 28/XX Q1014



METAR SVCS 022100Z 09010KT 9999 SCT035 26/XX Q1014



METAR SVCS 021900Z 09010KT 9999 SCT035 30/XX Q1014



METAR SVCS 021800Z 09010KT 9999 SCT035 30/XX Q1014



METAR SVCS 021700Z 09010KT 9999 SCT035 30/XX Q1014



METAR SVCS 251600Z 00000KT 9999 SCT070 28/XX Q1015



METAR SVCS 251500Z 00000KT 9999 SCT070 27/XX Q1016



METAR SVCS 251400Z 00000KT 9999 SCT070 26/XX Q1016



METAR SVCS 251300Z 00000KT 9999 SCT070 25/XX Q1016



METAR SVCS 251200Z 00000KT 9999 SCT070 24/XX Q1016



METAR SVCS 251100Z 00000KT 9999 SCT070 24/XX Q1016



METAR SVCS 241600Z 00000 9999 OVC035 24/XX Q1018



METAR SVCS 241400Z 00000 9999 OVC035 24/XX Q1018



METAR SVCS 232000Z 09010KT 9999 SCT035 28/XX Q1016



METAR SVCS 231900Z 09010KT 9999 SCT035 28/XX Q1016



METAR SVCS 231700Z 09010KT 9999 SCT035 28/XX Q1016



METAR SVCS 231600Z 09010KT 9999 SCT035 28/XX Q1016



METAR SVCS 231500Z 00000KT 9999 SCT035 27/XX Q1017



METAR SVCS 231400Z 00000KT 9999 SCT035 26/XX Q1017



METAR SVCS 231300Z 00000KT 9999 SCT035 26/XX Q1017



METAR SVCS 191500Z 00000KT 9999 SCT035 28/XX Q1018



METAR SVCS 171400Z 00000KT 9999 BKN050 26/XX Q1017



METAR SVCS 171300Z 00000KT 9999 BKN050 26/XX Q1017



METAR SVCS 171200Z 00000KT 9999 BKN050 25/XX Q1017



METAR SVCS 171100Z 00000KT 9999 BKN050 24/XX Q1017



METAR SVCS 121900Z 00000KT 9999 SCT070 30/XX Q1015



METAR SVCS 121800Z 00000KT 9999 SCT070 30/XX Q1015



METAR SVCS 121700Z 00000KT 9999 SCT070 30/XX Q1015



METAR SVCS 121600Z 00000KT 9999 SCT070 29/XX Q1016



METAR SVCS 121500Z 00000KT 9999 SCT070 27/XX Q1016



METAR SVCS 121400Z 00000KT 9999 SCT070 26/XX Q1016



METAR SVCS 121300Z 00000KT 9999 SCT070 25/XX Q1016



METAR SVCS 121200Z 00000KT 9999 BKN050 25/XX Q1016



METAR SVCS 121100Z 00000KT 9999 BKN050 24/XX Q1016



METAR SVCS 101300Z 00000KT 9999 BKN035 26/XX Q1018



METAR SVCS 09142000Z 09010KT 9999 SCT035 29/XX Q1018



METAR SVCS 09141900Z 09010KT 9999 SCT035 29/XX Q1018



METAR SVCS 091400Z 00000KT 9999 BKN035 27/XX Q1018



METAR SVCS 082000Z 09008KT 9999 SCT035 27/XX Q1017



METAR SVCS 081900Z 09008KT 9999 SCT035 27/XX Q1017



METAR SVCS 051500Z 09010KT 9999 SCT035 28/XX Q1017



METAR SVCS 021800Z 00000KT 9999 SCT050 28/XX Q1013



METAR SVCS 021600Z 00000KT 9999 SCT050 28/XX Q1013



METAR SVCS 021500Z 00000KT 9999 SCT070 27/XX Q1014



METAR SVCS 021400Z 00000KT 9999 SCT070 27/XX Q1015



METAR SVCS 021300Z 00000KT 9999 SCT070 26/XX Q1015



METAR SVCS 021200Z 00000KT 9999 SCT070 25/XX Q1015



METAR SVCS 021100Z 00000KT 9999 SCT070 24/XX Q1015



METAR SVCS 011400Z 00000KT 9999 FEW050 28/XX Q1018



METAR SVCS 011300Z 00000KT 9999 FEW050 26/XX Q1018



METAR SVCS 011200Z 00000KT 9999 FEW050 25/XX Q1018



METAR SVCS 011100Z 00000KT 9999 FEW050 24/XX Q1018



METAR SVCS 291800Z 00000KT 8000 -HZ BKN040 24/XX Q1013



METAR SVCS 291700Z 00000KT 7000 BKN040 23/XX Q1014



METAR SVCS 291600Z 00000KT 1000 MIFG OVC010 23/XX Q1014 RERA



METAR SVCS 291600Z 00000KT 1000 MIFG OVC010 24/XX Q1014 RERA



METAR SVCS 291500Z 00000KT 5000 -HZ OVC030 24/XX Q1014



METAR SVCS 291400Z 00000KT 9999 BKN050 25/XX Q1015



METAR SVCS 291300Z 00000KT 9999 BKN050 25/XX Q1015



METAR SVCS 291200Z 00000KT 9999 BKN050 24/XX Q1015



METAR SVCS 291100Z 00000KT 7000 -HZ BKN050 24/XX Q1015



METAR SVCS 182000Z 00000KT 9999 FEW050 28/XX Q1013



METAR SVCS 181900Z 00000KT 9999 FEW040 28/XX Q1013



METAR SVCS 181800Z 00000KT 9999 FEW040 28/XX Q1014



METAR SVCS 181700Z 00000KT 9999 FEW040 28/XX Q1014



METAR SVCS 181600Z 00000KT 9999 FEW040 27/XX Q1014



METAR SVCS 181500Z 00000KT 9999 FEW040 26/XX Q1015



METAR SVCS 181400Z 00000KT 9999 FEW040 25/XX Q1015



METAR SVCS 181300Z 00000KT 7000 -HZ BKN040 24/XX Q1015



METAR SVCS 181200Z 00000KT 2000 MIFG OVC010 23/XX Q1015



METAR SVCS 181100Z 00000JKT 2000 MIFG OVC010 23/XX Q1015



METAR SVCS 272000Z 09010KT 9999 OVC035 -RA 25/XX Q1014



METAR SVCS 271300Z 00000KT 9999 SCT035 24/XX Q1017



METAR SVCS 271200Z 00000KT 9999 SCT035 24/XX Q1017



METAR SVCS 261900Z 09010KT 9999 SCT045 29/XX Q1016



METAR SVCS 261500Z 00000KT 9999 FEW045 28/XX Q1018



METAR SVCS 251300Z 00000KT 9999 BKN035 24/XX Q1018



METAR SVCS 251200Z 00000KT 9999 BKN035 23/XX Q1018



METAR SVCS 251100Z 00000KT 9999 BKN035 23/XX Q1018



METAR SVCS 221500Z 00000KT 9999 BKN035 25/XX Q1017



METAR SVCS 221500Z 00000KT 9999 BKN035 25/XX Q1017



METAR SVCS 211500Z 00000KT 9999 BKN035 25/XX Q1017



METAR SVCS 211400Z 00000KT 9999 BKN035 24/XX Q1017



METAR SVCS 211300Z 00000KT 9999 BKN035 24/XX Q1017



METAR SVCS 201800Z 00000KT 9999 BKN050 27/XX Q1014



METAR SVCS 201700Z 00000KT 9999 BKN050 26/XX Q1015



METAR SVCS 201600Z 00000KT 9999 BKN050 24/XX Q1017



METAR SVCS 201500Z 00000KT 9999 BKN050 24/XX Q1017



METAR SVCS 201400Z 00000KT 8000 -HZ BKN040 24/XX Q1017



METAR SVCS 201300Z 00000KT 8000 -HZ BKN040 23/XX Q1017



METAR SVCS 201200Z 00000KT 3000 MIFG OVC020 23/XX Q1017 RERA



METAR SVCS 201100Z 00000KT 1000 MIFG OVC010 23/XX Q1017



METAR SVCS 191500Z 00000KT 9999 SCT070 27/XX Q1018



METAR SVCS 191400Z 00000KT 9999 SCT070 26/XX Q1018



METAR SVCS 191300Z 00000KT 9999 SCT070 26/XX Q1018



METAR SVCS 191200Z 00000KT 9999 SCT070 25/XX Q1018



METAR SVCS 191100Z 00000KT 9999 SCT070 24/XX Q1018



METAR SVCS 151500Z 00000KT 8000 -HZ OVC040 24/XX Q1018



METAR SVCS 151400Z 00000KT 5000 -HZ OVC040 24/XX Q1019



METAR SVCS 151300Z 00000KT 4000 -HZ OVC040 24/XX Q1019



METAR SVCS 151200Z 00000KT 2000 MIFG OVC020 23/XX Q1019



METAR SVCS 151100Z 00000KT 1000 MIFG OVC010 23/XX Q1019



METAR SVCS 141500Z 00000KT 9999 BKN050 25/XX Q1018



METAR SVCS 141400Z 00000KT 9999 BKN050 24/XX Q1018



METAR SVCS 141300Z 00000KT 9999 OVC050 23/XX Q1018



METAR SVCS 141200Z 00000KT 7000 -HZ OVC050 23/XX Q1018



METAR SVCS 141100Z 00000KT 7000 -HZ OVC050 23/XX Q1018



METAR SVCS 112000Z 09010KT 9999 SCT035 28/XX Q1016



METAR SVCS 111600Z 09010KT 9999 SCT035 28/XX Q1018



METAR SVCS 2000Z 09010KT 9999 SCT035 28/XX Q1017



METAR SVCS 1800Z 09010KT 9999 SCT035 28/XX Q1017



METAR SVCS 0811900Z 09010KT 9999 BKN030 27/XX Q1016



METAR SVCS 0811700Z 09010KT 9999 BKN030 27/XX Q1017



METAR SVCS 081400Z 00000KT 9999 BKN030 24/XX Q1019



METAR SVCS 081300Z 00000KT 9999 BKN030 24/XX Q1019



METAR SVCS 081200Z 00000KT 9999 BKN030 24/XX Q1019



METAR SVCS 062000Z 00000KT 9999 BKN050 28/XX Q1014



METAR SVCS 061900Z 00000KT 9999 BKN050 28/XX Q1015



METAR SVCS 061800Z 00000KT 9999 BKN050 28/XX Q1015



METAR SVCS 061700Z 00000KT 9999 BKN050 28/XX Q1016



METAR SVCS 061700Z 00000KT 9999 BKN050 27/X Q1017



METAR SVCS 061600Z 00000KT 9999 BKN050 26/X Q1018



METAR SVCS 061500Z 00000KT 9999 BKN050 25/X Q1018



METAR SVCS 061400Z 00000KT 9999 BKN050 24/X Q1018



METAR SVCS 061300Z 00000KT 8000 -HZ OVC040 24/X Q1018



METAR SVCS 061200Z 00000KT 7000 -HZ OVC040 23/X Q1014



METAR SVCS 061100Z 00000KT 7000 -HZ OVC040 23/X Q1014



METAR SVCS 052000Z 00000KT 8000 -HZ BKN050 23/XX Q1014



METAR SVCS 051900Z 00000KT 7000 -HZ BKN050 23/XX Q1014 RERA



METAR SVCS 051800Z 09010KT 9999 BKN050 25/XX Q1014



METAR SVCS 051700Z OOOOOKT 9999 BKN050 25/XX Q1015



METAR SVCS 051600Z OOOOOKT 9999 BKN050 24/XX Q1016



METAR SVCS 051500Z 00000KT 9999 BKN050 24/XX Q1017



METAR SVCS 051400Z 00000KT 4000 MIFG OVC050 23/XX Q1017



METAR SVCS 051200Z 00000KT 7000 -HZ OVC070 23/XX Q1017



METAR SVCS 051100Z 00000KT 7000 -HZ OVC070 23/XX Q1017



METAR SVCS 042000Z 00000KT 9999 FEW050 28/XX Q1013



METAR SVCS 041900Z 00000KT 9999 FEW050 28/XX Q1014



METAR SVCS 041800Z 00000KT 9999 FEW050 28/XX Q1014



METAR SVCS 041700Z 00000KT 9999 FEW050 28/XX Q1015



METAR SVCS 041600Z 00000KT 9999 SCT070 27/XX Q1016



METAR SVCS 041500Z 00000KT 9999 SCT070 26/XX Q1017



METAR SVCS 041400Z 00000KT 9999 SCT070 25/XX Q1017



METAR SVCS 041300Z 00000KT 9999 SCT070 24/XX Q1017



METAR SVCS 041200Z 00000KT 9999 SCT070 24/XX Q1017



METAR SVCS 041100Z 00000KT 9999 SCT070 23/XX Q1017



METAR SVCS 031700Z 0000KT 9999 SCT060 26/XX Q1017



METAR SVCS 012000Z 09010KT 9999 FEW050 26/XX Q1014



METAR SVCS 011900Z 00000KT 9999 FEW050 26/XX Q1014



METAR SVCS 011800Z 00000KT 9999 FEW050 26/XX Q1015



METAR SVCS 011700Z 00000KT 9999 FEW050 26/XX Q1017



METAR SVCS 011600Z 00000KT 9999 SCT070 26/XX Q1018



METAR SVCS 011500Z 00000KT 9999 SCT070 26/XX Q1019



METAR SVCS 011400Z 00000KT 9999 BKN050 25/XX Q1019



METAR SVCS 011300Z 00000KT 9999 BKN050 24/XX Q1019



METAR SVCS 011200Z 00000KT 9999 OVC070 23/XX Q1019



METAR SVCS 011100Z 00000KT 9999 OVC070 23/XX Q1019



METAR SVCS 302100Z 09010KT 9999 SCT035 26/XX Q1016



METAR SVCS 291400Z 00000KT 9999 SCT035 24/XX Q1018



METAR SVCS 291300Z 00000KT 9999 SCT035 22/XX Q1018



METAR SVCS 291200Z 00000KT 9999 SCT035 22/XX Q1018



METAR SVCS 291200Z 00000KT 1000 OVC020 22/XX Q1018



METAR SVCS 291100Z 00000KT 1000 OVC020 22/XX Q1018



METAR SVCS 281900Z 09010KT 9999 SCT035 28/XX Q1016



METAR SVCS 281800Z 09010KT 9999 SCT035 28/XX Q1017



METAR SVCS 281700Z 09010KT 9999 SCT035 28/XX Q1017



METAR SVCS 281600Z 00000KT 9999 SCT035 28/XX Q1017



METAR SVCS 281500Z 00000KT 9999 SCT035 26/XX Q1018



METAR SVCS 281400Z 00000KT 9999 SCT035 26/XX Q1018



METAR SVCS 281300Z 00000KT 9999 SCT035 26/XX Q1018



METAR SVCS 271800Z 11010KT 9999 SCT070 27/XX Q1018



METAR SVCS 271700Z 00000KT 9999 SCT070 27/XX Q1019



METAR SVCS 271600Z 00000KT 9999 SCT070 26/XX Q1019



METAR SVCS 271500Z 00000KT 9999 SCT070 25/XX Q1019



METAR SVCS 271400Z 00000KT 9999 FEW050 24/XX Q1019



METAR SVCS 271300Z 00000KT 9999 FEW050 24/XX Q1019



METAR SVCS 271200Z 00000KT 4000 MIFG FEW050 24/XX Q1019



METAR SVCS 271200Z 00000KT 4000 MIFG 24/XX Q1019



METAR SVCS 271100Z 00000KT 9999 FEW050 23/XX Q1019



METAR SVCS 262100Z 11010KT 9999 FEW050 28/XX Q1015



METAR SVCS 262000Z 00000KT 9999 FEW050 28/XX Q1016



METAR SVCS 261900Z 00000KT 9999 FEW050 28/XX Q1017



METAR SVCS 261800Z 00000KT 9999 SCT070 27/XX Q1017



METAR SVCS 261700Z 00000KT 9999 SCT070 27/XX Q1018



METAR SVCS 261600Z 00000KT 9999 SCT070 25/XX Q1019



METAR SVCS 261500Z 00000KT 9999 SCT070 25/XX Q1019



METAR SVCS 261400Z 00000KT 9999 SCT070 25/XX Q1019



METAR SVCS 261300Z 00000KT 9999 SCT070 24/XX Q1019



METAR SVCS 261200Z 00000KT 9999 BKN050 23/XX Q1019



METAR SVCS 261100Z 00000KT 9999 BKN050 23/XX Q1019



METAR SVCS 252100Z 09010KT 9999 SCT035 26/XX Q1017



METAR SVCS 251600Z 09010KT 9999 SCT035 26/XX Q1019



METAR SVCS 242100Z 09010KT 9999 SCT035 26/XX Q1019



METAR SVCS 241600Z 09010KT 9999 SCT035 25/XX Q1019



METAR SVCS 241400Z 00000KT 2000 OVC025 23/XX Q1019



METAR SVCS 241300Z 00000KT 2000 OVC025 23/XX Q1019



METAR SVCS 241200Z 00000KT 2000 OVC025 23/XX Q1019



METAR SVCS 232100Z 00000KT 9999 FEW050 27/XX Q1015



METAR SVCS 232000Z 10010KT 9999 FEW050 27/XX Q1016



METAR SVCS 231900Z 11010KT 9999 FEW050 27/XX Q1016



METAR SVCS 231800Z 11010KT 9999 FEW050 27/XX Q1017



METAR SVCS 231700Z 11010KT 9999 SCT070 27/XX Q1017



METAR SVCS 231900Z 11010KT 9999 FEWW050 27/XX Q1016



METAR SVCS 231800Z 11010KT 9999 FEWW050 27/XX Q1016



METAR SVCS 231800Z 11010KT 9999 SCT070 27/XX Q1016



METAR SVCS 231700Z 11010KT 9999 SCT070 27/XX Q1017



METAR SVCS 231600Z 00000KT 9999 SCT070 27/XX Q1019



METAR SVCS 231500Z 00000KT 9999 FEW050 26/XX Q1019



METAR SVCS 231500Z 00000KT 9999 FEW050 25/XX Q1019



METAR SVCS 231400Z 00000KT 9999 FEW050 25/XX Q1019



METAR SVCS 231300Z 00000KT 9999 FEW050 24/XX Q1019



METAR SVCS 231200Z 00000KT 9999 FEW050 24/XX Q1019



METAR SVCS 231100Z 00000KT 9999 FEW050 23/XX Q1019



METAR SVCS 222100Z OOOOOKT 9999 FEWO50 28/XX Q1015



METAR SVCS 222000Z OOOOOKT 9999 SCT070 28/XX Q1015



METAR SVCS 221900Z OOOOOKT 9999 SCT070 28/XX Q1016



METAR SVCS 221900Z 00000KT 9999 SCT070 28/XX Q101



METAR SVCS 221800Z 00000KT 9999 SCT070 28/XX Q1018



METAR SVCS 221700Z 10010KT 9999 SCT070 28/XX Q1019



METAR SVCS 221600Z 10010KT 9999 SCT070 27/XX Q1019



METAR SVCS 221500Z 00000KT 9999 BKN070 25/XX Q1020



METAR SVCS 221400Z 00000KT 9999 BKN070 25/XX Q1020



METAR SVCS 221400Z 00000KT 9999 BKN070 24/XX Q1020



METAR SVCS 221300Z 00000KT 9999 BKN070 24/XX Q1019



METAR SVCS 221200Z 00000KT 9999 BKN050 23/XX Q1019



METAR SVCS 221100Z 00000KT 8000 -HZ OVC050 23/XX Q1019



METAR SVCS 201300Z 00000KT 9999 SCT060 23/XX Q1019



METAR SVCS 162100Z 00000KT 9999 SCT035 29/XX Q1016



METAR SVCS 161500Z 00000KT 9999 SCT035 BKN070 25/XX Q1019



METAR SVCS 151900Z 00000 2000 OVC030 -DZ 25/XX Q1017



METAR SVCS 151500Z 00000 9999 BKN035 25/XX Q1018



METAR SVCS 142000Z 00000 9999 BKN030 26/XX Q1017



METAR SVCS 101900Z 00000KT 9999 BKN030 24/XX Q1015



METAR SVCS 091700Z 09010KT 9999 BKN035 27/XX Q1017



METAR SVCS 091600Z 00000KT 9999 BKN035 26/XX Q1017



METAR SVCS 091500Z 00000KT 9999 BKN035 26/XX Q1018



METAR SVCS 081500Z 00000KT 9999 BKN035 26/XX Q1017



METAR SVCS 081400Z 00000KT 9000 BKN025 24/XX Q1017



METAR SVCS 081400Z 00000KT 9000 BKN025 24XX Q1017



METAR SVCS 072000Z 09010KT 9999 BKN035 26/XX Q1015



METAR SVCS 071900Z 09010KT 9999 BKN035 28/XX Q1017



METAR SVCS 021400Z 00000 9999 BKN035 RERA 23/XX Q1018



METAR SVCS 011900Z 09010 9999 BKN035 25/XX Q1018



METAR SVCS 011800Z 09010 9999 BKN035 25/XX Q1018



METAR SVCS 011700Z 09010 9999 BKN035 25/XX Q1018



METAR SVCS 011600Z 09010 9999 BKN035 24/XX Q1018



METAR SVCS 272000Z 00000KT 9999 BKN055 24/XX Q1017



METAR SVCS 271900Z 00000KT 9999 BKN055 24/XX Q1017



METAR SVCS 271800Z 00000KT 9999 BKN055 RERA 24/XX Q1017



METAR SVCS 271700Z 00000KT 2000 OVC025 22/XX Q1017



METAR SVCS 271600Z 00000KT 2000 OVC025 22/XX Q1017



METAR SVCS 261600Z 00000KT 1000 OVC025 23/XX Q1018



METAR SVCS 201400Z OOOOOKT 7000 -HZ BKN040 22/XX Q1018







Jun. 20, 2008: Official SR 1006 UTC - Official SS 2251 UTC




METAR SVCS 181600Z 09010KT 9999 SCT030 26/XX Q1017



METAR SVCS 181200Z 00000KT 9999 BKN030 25/XX Q1015



METAR SVCS 181100Z 00000KT 9999 BKN030 24/XX Q1015



METAR SVCS 171900Z 09010KT 9999 SCT030 26/XX Q1018



METAR SVCS 171700Z 09010KT 9999 BKN030 26/XX Q1018



METAR SVCS 081900Z 00000KT 9999 SCT050 27/XX Q1015



METAR SVCS 081800Z 00000KT 9999 SCT050 27/XX Q1016



METAR SVCS 081700Z 00000KT 9999 SCT050 27/XX Q1016



METAR SVCS 081600Z 00000KT 9999 SCT050 26/XX Q1017



METAR SVCS 081500Z 00000KT 9999 SCT050 25/XX Q1017



METAR SVCS 081400Z 00000KT 9999 SCT050 24/XX Q1018



METAR SVCS 081300Z 00000KT 9999 SCT050 22/XX Q1018



METAR SVCS 081200Z 00000KT 9999 SCT050 22/XX Q1018



METAR SVCS 081100Z 00000KT 9999 SCT050 21/XX Q1018



METAR SVCS 072200Z 00000KT 9999 SCT070 24/XX Q1013



METAR SVCS 071800Z 00000KT 9999 SCT070 28/XX Q1015



METAR SVCS 071700Z 00000KT 9999 SCT070 26/XX Q1016



METAR SVCS 071600Z 00000KT 9999 SCT070 26/XX Q1016



METAR SVCS 071600Z 00000KT 9999 SCT050 25/XX Q1017



METAR SVCS 071500Z 00000KT 9999 SCT050 24/XX Q1018



METAR SVCS 071400Z 00000KT 9999 SCT050 23/XX Q1018



METAR SVCS 071300Z 00000KT 9999 SCT050 22/XX Q1018



METAR SVCS 071200Z 00000KT 9999 SCT050 21/XX Q1018



METAR SVCS 071100Z 00000KT 9999 SCT050 21/XX Q1018



METAR SVCS 061400Z 08010KT 9999 SCT070 24/XX Q1019



METAR SVCS 061300Z 00000KT 9999 BKN070 24/XX Q1019



METAR SVCS 061300Z 00000KT 9999 BKN070 Q1019



METAR SVCS 061300Z 00000KT 9999 BKN700 24/XX Q1019



METAR SVCS 061200Z 00000KT 9999 OVC050 23/XX Q1019



METAR SVCS 061100Z 00000KT 9999 OVC050 23/XX Q1019



METAR SVCS 052100Z 00000KT 9999 FEW050 28/XX Q1015



METAR SVCS 052000Z 00000KT 9999 FEW050 28/XX Q1016



METAR SVCS 051900Z 00000KT 9999 FEW070 28/XX Q1016



METAR SVCS 051800Z 00000KT 9999 SCT070 28/XX Q1017



METAR SVCS 051700Z 00000KT 9999 SCT070 28/XX Q1017



METAR SVCS 051600Z 00000KT 9999 SCT070 28/XX Q1018



METAR SVCS 051500Z 00000KT 9999 SCT070 27/XX Q1018



METAR SVCS 051400Z 00000KT 9999 BKN070 25/XX Q1019



METAR SVCS 051300Z 00000KT 8000 -HZ BKN070 24/XX Q1019



METAR SVCS 051200Z 00000KT 7000 -HZ BKN050 23/XX Q1019



METAR SVCS 051100Z 00000KT 7000 -HZ OVC050 23/XX Q1019



METAR SVCS 012200Z 00000KT 8000 OVC030 23/XX Q1013




METAR SVCS 012100Z 00000KT 8000 OVC030 23/XX Q1014




METAR SVCS 012000Z 00000KT 8000 OVC030 23/XX Q1014




METAR SVCS 011900Z 00000KT 8000 OVC030 23/XX Q1015




METAR SVCS 011800Z 00000KT 8000 OVC030 23/XX Q1015




SPECI SVCS 011800Z 00000KT 8000 OVC030 23/XX Q1015




SPECI SVCS 011730Z 00000KT 8000 OVC030 23/XX Q1016




METAR SVCS 011700Z 00000KT 0005 OVC00 MIFG 23/XX Q1018
BAJO LOS MINIMOS DEBIDO A NIEBLA BAJA




METAR SVCS 011600Z 00000KT 0005 OVC00 MIFG 23/XX Q1018
BAJO LOS MINIMOS DEBIDO A NIEBLA BAJA




METAR SVCS 011530Z 00000KT 8000 OVC035 23/XX Q1018




METAR SVCS 011500Z 00000KT 0050 OVC005 MIFG 23/XX Q1018
BAJO LAS MINIMAS DEBIDO A NIEBLA BAJA



METAR SVCS 011400Z 00000KT 0050 OVC005 MIFG 21/XX Q1018
BAJO LAS MINIMAS DEBIDO A NIEBLA BAJA



METAR SVCS 011300Z 00000KT 0050 OVC005 MIFG 21/XX Q1018
BAJO LAS MINIMAS DEBIDO A NIEBLA BAJA



METAR SVCS 011200Z 00000KT 0050 OVC005 MIFG 21/XX Q1018
BAJO LAS MINIMAS DEBIDO A NIEBLA BAJA



METAR SVCS 011100Z 00000KT 0050 OVC005 MIFG 21/XX Q1018
BAJO LAS MINIMAS DEBIDO A NIEBLA BAJA



METAR SVCS 312200Z 00000KT 9999 SCT075 23/XX Q1013




METAR SVCS 312100Z 00000KT 9999 SCT075 23/XX Q1014




METAR SVCS 312000Z 00000KT 8000 BKN035 23/XX Q1015




METAR SVCS 311900Z 00000KT 8000 BKN035 22/XX Q1016




METAR SVCS 311800Z 00000KT 8000 BKN035 21/XX Q1018




METAR SVCS 311700Z 0000KT 0005 OVC005 MIFG 21/XX Q1018
BAJO LAS MINIMAS DEBIDO A NIEBLA BAJA



METAR SVCS 311600Z 0000KT 0005 OVC005 MIFG 21/XX Q1018
BAJO LAS MINIMAS DEBIDO A NIEBLA BAJA



METAR SVCS 311500Z 0000KT 9999 BKN030 21/XX Q1018



METAR SVCS 311300Z 0000KT 9999 BKN060 22/XX Q1019



METAR SVCS 311200Z 0000KT 9999 BKN060 21/XX Q1019



METAR SVCS 311100Z 0000KT 9999 BKN060 21/XX Q1019



METAR SVCS 302000Z 09010KT 9999 SCT035 27/XX Q1015



METAR SVCS 301900Z 09010KT 9999 SCT035 27/XX Q1015



METAR SVCS 301800Z 09010KT 9999 SCT035 27/XX Q1017



METAR SVCS 301700Z 09010KT 9999 SCT035 27/XX Q1017



METAR SVCS 301600Z 09010KT 9999 SCT035 26/XX Q1017



METAR SVCS 291200Z 00000KT 9999 BKN050 23/XX Q1017



METAR SVCS 291100Z 00000KT 9999 BKN050 23/XX Q1017



METAR SVCS 271900Z 00000KT 9999 BKN050 24/XX Q1014



METAR SVCS 271800Z 00000KT 9999 BKN050 23/XX Q1014



METAR SVCS 271700Z 00000KT 5000 -HZ OVC040 22/XX Q1015



METAR SVCS 271600Z 00000KT 4000 -HZ OVC040 22/XX Q1016



METAR SVCS 271500Z 00000KT 3000 MIFG -DZ OVC020 20/XX Q1017



METAR SVCS 271400Z 00000KT 3000 MIFG -DZ OVC020 20/XX Q1017



METAR SVCS 271300Z 00000KT 1000 MIFG -DZ OVC010 20/XX Q1017 BAJO LAS MINIMAS VMC



METAR SVCS 271200Z 00000KT 1000 DZ OVC010 19/XX Q1017 MIFG BAJO LAS MINIMAS VMC



METAR SVCS 271100Z 00000KT 1000 RA+ OVC010 19/XX Q1017 BAJO LAS MINIMAS VMC



METAR SVCS 261500Z 00000KT 9999 SCT070 26/XX Q1014



METAR SVCS 261400Z 00000KT 9999 SCT070 25/XX Q1015



METAR SVCS 261300Z 00000KT 9999 BKN050 24/XX Q1016



METAR SVCS 261200Z 00000KT 9999 BKN050 23/XX Q1016



METAR SVCS 261100Z 00000KT 9999 BKN050 23/XX Q1016



METAR SVCS 252100Z 00000KT 9999 BKN090 24/XX Q1014



METAR SVCS 252000Z 00000KT 9999 BKN090 24/XX Q1014



METAR SVCS 251900Z 00000KT 8000 BKN090 24/XX Q1015



METAR SVCS 251800Z 00000KT 8000 OVC090 BKN040 23/XX Q1015



METAR SVCS 251700Z 00000KT 8000 OVC090 BKN040 23/XX Q1015



METAR SVCS 251700Z 00000KT 8000 OVC050 23/XX Q1015



METAR SVCS 251600Z 00000KT 8000 OVC050 24/XX Q1016



METAR SVCS 251500Z 00000KT 8000 OVC050 23/XX Q1016



METAR SVCS 251400Z BAJO LOS MINIMOS DEBIDO A NIEBLA



METAR SVCS 251300Z BAJO LOS MINIMOS DEBIDO A NIEBLA



METAR SVCS 251200Z BAJO LOS MINIMOS DEBIDO A NIEBLA



METAR SVCS 251100Z 00000KT 8000 OVC035 22/XX Q1018



METAR SVCS 242200Z 10006KT 9999 SCT070 26/XX Q1013



METAR SVCS 242100Z 10006KT 9999 SCT070 26/XX Q1013



METAR SVCS 242000Z 10006KT 9999 SCT070 27/XX Q1013



METAR SVCS 241900Z 10006KT 9999 SCT070 28/XX Q1014



METAR SVCS 241800Z 10006KT 9999 SCT070 28/XX Q1014



METAR SVCS 241700Z 10006KT 9999 SCT070 28/XX Q1014



METAR SVCS 241600Z 10006KT 9999 SCT060 27/XX Q1014



METAR SVCS 241500Z 10006KT 9999 SCT060 26/XX Q1015



METAR SVCS 241500Z 10006KT 9999 SCT060 26/XX Q1015



METAR SVCS 24100Z 00000KT 9999 BKN060 24/XX Q1018



METAR SVCS 241300Z 00000KT 9999 BKN060 24/XX Q1018



METAR SVCS 241200Z 00000KT 9999 BKN060 23/XX Q1018



METAR SVCS 241100Z 00000KT 8000 OVC060 22/XX Q1018



METAR SVCS 232100Z 11008KT 9999 FEW050 29/XX Q1014



METAR SVCS 232000Z 09010KT 9999 FEW050 29/XX Q1014



METAR SVCS 231900Z 09010KT 9999 FEW050 29/XX Q1014



METAR SVCS 231800Z 08010KT 9999 FEW050 29/XX Q1015



METAR SVCS 231700Z 00000KT 9999 FEW050 28/XX Q1016



METAR SVCS 231600Z 00000KT 9999 FEW050 28/XX Q1017



METAR SVCS 231500Z 00000KT 9999 FEW050 26/XX Q1018



METAR SVCS 231400Z 00000KT 9999 FEW050 26/XX Q1018



METAR SVCS 231300Z 00000KT 9999 SCT050 25/XX Q1018



METAR SVCS 231200Z 00000KT 9999 BKN060 23/XX Q1018



METAR SVCS 231100Z 00000KTN 9999 BKN060 23/XX Q1018



METAR SVCS 222100Z 08008KT 9999 FEW040 28/XX Q1014



METAR SVCS 222000Z 09010KT 9999 FEW040 29/XX Q1014



METAR SVCS 221900Z 09010KT 9999 FEW050 29/XX Q1014



METAR SVCS 221800Z 00000KT 9999 FEW050 29/XX Q1014



METAR SVCS 221700Z 00000KT 9999 FEW050 28/XX Q1015



METAR SVCS 221600Z 00000KT 9999 FEW050 26/XX Q1016



METAR SVCS 221500Z 00000KT 9999 FEW050 24/XX Q1017



METAR SVCS 221400Z 00000KT 9999 FEW050 23/XX Q1018



METAR SVCS 221300Z 00000KT 9999 SCT070 23/XX Q1018



METAR SVCS 221200Z 00000KT 9999 SCT070 21/XX Q1018



METAR SVCS 221100Z 00000KT 9999 SCT070 21/XX Q1018



METAR SVCS 212130Z 09010KT 9999 SCT035 25/XX Q1015



METAR SVCS 212030Z 09010KT 9999 SCT035 25/XX Q1015



METAR SVCS 211930Z 09010KT 9999 SCT035 26/XX Q1016



METAR SVCS 211830Z 09010KT 9999 SCT035 28/XX Q1017



METAR SVCS 211730Z 09010KT 9999 SCT035 28/XX Q1018



METAR SVCS 211630Z 09010KT 9999 SCT035 28/XX Q1018



METAR SVCS 201430Z 09006KT 99999 BKN035 26/XX Q1017



METAR SVCS 182200Z 00000KT 9999 BKN060 24/XX Q1013



METAR SVCS 182100Z 00000KT 9999 BKN060 25/XX Q1014



METAR SVCS 182000Z 00000KT 9999 SCT060 25/XX Q1015



METAR SVCS 181900Z 00000KT 9999 SCT060 25/XX Q1015



METAR SVCS 181800Z 00000 9999 SCT060 28/XX Q1015



METAR SVCS 181700Z 00000 9999 SCT060 27/XX Q1016



METAR SVCS 181600Z 00000 9999 BKN050 26/XX Q1016



METAR SVCS 181500Z 00000 9999 BKN050 25/XX Q1017



METAR SVCS 181400Z 00000 9999 BKN050 24/XX Q1017



METAR SVCS 181300Z 00000 8000 BKN030 23/XX Q1017



METAR SVCS 181200Z BAJO LAS MINIMAS DEBIDO A NIEBLA



METAR SVCS 181100Z AERPUERTO BAJO LAS MINIMAS DEBIDO A NIEBLA BAJA



METAR SVCS 17200Z 00000KT 9999 BKN060 24/XX Q1014



METAR SVCS 172100Z 00000KT 9999 BKN060 25/XX Q1015



METAR SVCS 172000Z 00000KT 9999 BKN060 25/XX Q1015



METAR SVCS 171900Z 00000KT 9999 BKN060 25/XX Q1015



METAR SVCS 171800Z 00000KT 9999 BKN060 25/XX Q1015



METAR SVCS 171700Z 00000KT 9999 BKN060 25/XX Q1015



METAR SVCS 171600Z 00000KT 9999 BKN060 25/XX Q1016



METAR SVCS 171500Z 00000KT 9999 BKN060 24/XX Q1017



METAR SVCS 171400Z 00000KT 9999 BKN060 24/XX Q1017



METAR SVCS 171300Z 00000KT 9999 BKN060 23/XX Q1018



METAR SVCS 171200Z 00000KT 9999 BKN060 22/XX Q1018



METAR SVCS 171100Z 00000KT 9999 BKN060 21/XX Q1018



METAR SVCS 111300Z 00000KT 9999 SCT060 24/XX Q1019



METAR SVCS 111200Z 00000KT 9999 SCT060 23/XX Q1019



METAR SVCS 111100Z 00000KT 9999 SCT060 22/XX Q1019



METAR SVCS 101800Z 00000KT 9999 BKN060 26/XX Q1016



METAR SVCS 071830Z 09010KT 9999 BKN035 29/XX Q1015



METAR SVCS 071730Z 09010KT 9999 BKN035 29/XX Q1015



METAR SVCS 071630Z 09010KT 9999 BKN035 27/XX Q1016



METAR SVCS 042000Z 00000KT 8000 BKN055 25/XX Q1014







Prueba de METAR